<?xml version="1.0" encoding="UTF-8" standalone="no" ?>
<gpx xmlns="http://www.topografix.com/GPX/1/1" xmlns:xsi="http://www.w3.org/2001/XMLSchema-instance" xsi:schemaLocation="http://www.topografix.com/GPX/1/1 http://www.topografix.com/GPX/1/1/gpx.xsd" version="1.1" creator="VisuGPX - https://www.visugpx.com">
  <metadata>
    <name>Sortie_cyclo_22_05_2013 (Lannion-Plonévez-Beffou-Guerlesquin)</name>
    <desc><![CDATA[Sortie de 85 kms (pb de batterie :-(
Après Plouaret (retour), Ploumilliau, Lannion.
]]></desc>
  </metadata>
  <trk>
    <name><![CDATA[22-MAI-13 17:38:40]]></name>
    <trkseg>
      <trkpt lat="48.74706" lon="-3.45494">
        <ele>-26.3</ele>
        <time>2013-05-22T12:02:09Z</time>
      </trkpt>
      <trkpt lat="48.74705" lon="-3.45493">
        <ele>-25.34</ele>
        <time>2013-05-22T12:02:31Z</time>
      </trkpt>
      <trkpt lat="48.74701" lon="-3.45495">
        <ele>-25.34</ele>
        <time>2013-05-22T12:02:43Z</time>
      </trkpt>
      <trkpt lat="48.74702" lon="-3.45498">
        <ele>-25.82</ele>
        <time>2013-05-22T12:02:59Z</time>
      </trkpt>
      <trkpt lat="48.74701" lon="-3.45499">
        <ele>-25.82</ele>
        <time>2013-05-22T12:03:02Z</time>
      </trkpt>
      <trkpt lat="48.74681" lon="-3.45515">
        <ele>-26.78</ele>
        <time>2013-05-22T12:03:11Z</time>
      </trkpt>
      <trkpt lat="48.74675" lon="-3.45508">
        <ele>-27.26</ele>
        <time>2013-05-22T12:03:13Z</time>
      </trkpt>
      <trkpt lat="48.74643" lon="-3.45479">
        <ele>-28.7</ele>
        <time>2013-05-22T12:03:20Z</time>
      </trkpt>
      <trkpt lat="48.74633" lon="-3.45473">
        <ele>-29.66</ele>
        <time>2013-05-22T12:03:22Z</time>
      </trkpt>
      <trkpt lat="48.74627" lon="-3.45474">
        <ele>-29.66</ele>
        <time>2013-05-22T12:03:23Z</time>
      </trkpt>
      <trkpt lat="48.74621" lon="-3.4548">
        <ele>-30.14</ele>
        <time>2013-05-22T12:03:24Z</time>
      </trkpt>
      <trkpt lat="48.74616" lon="-3.45488">
        <ele>-30.62</ele>
        <time>2013-05-22T12:03:25Z</time>
      </trkpt>
      <trkpt lat="48.74612" lon="-3.45497">
        <ele>-28.22</ele>
        <time>2013-05-22T12:03:26Z</time>
      </trkpt>
      <trkpt lat="48.74605" lon="-3.45509">
        <ele>-23.9</ele>
        <time>2013-05-22T12:03:28Z</time>
      </trkpt>
      <trkpt lat="48.74602" lon="-3.45515">
        <ele>-18.61</ele>
        <time>2013-05-22T12:03:30Z</time>
      </trkpt>
      <trkpt lat="48.74599" lon="-3.45516">
        <ele>-15.72</ele>
        <time>2013-05-22T12:03:31Z</time>
      </trkpt>
      <trkpt lat="48.74596" lon="-3.45516">
        <ele>-13.32</ele>
        <time>2013-05-22T12:03:32Z</time>
      </trkpt>
      <trkpt lat="48.74592" lon="-3.45514">
        <ele>-10.92</ele>
        <time>2013-05-22T12:03:33Z</time>
      </trkpt>
      <trkpt lat="48.74588" lon="-3.45512">
        <ele>-8.51</ele>
        <time>2013-05-22T12:03:34Z</time>
      </trkpt>
      <trkpt lat="48.74584" lon="-3.45508">
        <ele>-6.11</ele>
        <time>2013-05-22T12:03:35Z</time>
      </trkpt>
      <trkpt lat="48.7458" lon="-3.45504">
        <ele>-4.19</ele>
        <time>2013-05-22T12:03:36Z</time>
      </trkpt>
      <trkpt lat="48.74576" lon="-3.45498">
        <ele>-1.79</ele>
        <time>2013-05-22T12:03:37Z</time>
      </trkpt>
      <trkpt lat="48.74572" lon="-3.45491">
        <ele>0.14</ele>
        <time>2013-05-22T12:03:38Z</time>
      </trkpt>
      <trkpt lat="48.74548" lon="-3.45444">
        <ele>3.98</ele>
        <time>2013-05-22T12:03:43Z</time>
      </trkpt>
      <trkpt lat="48.74538" lon="-3.45422">
        <ele>3.98</ele>
        <time>2013-05-22T12:03:45Z</time>
      </trkpt>
      <trkpt lat="48.74532" lon="-3.45412">
        <ele>5.42</ele>
        <time>2013-05-22T12:03:46Z</time>
      </trkpt>
      <trkpt lat="48.74519" lon="-3.45392">
        <ele>9.27</ele>
        <time>2013-05-22T12:03:48Z</time>
      </trkpt>
      <trkpt lat="48.74507" lon="-3.45378">
        <ele>13.6</ele>
        <time>2013-05-22T12:03:50Z</time>
      </trkpt>
      <trkpt lat="48.74497" lon="-3.45366">
        <ele>17.92</ele>
        <time>2013-05-22T12:03:52Z</time>
      </trkpt>
      <trkpt lat="48.74489" lon="-3.45357">
        <ele>21.77</ele>
        <time>2013-05-22T12:03:54Z</time>
      </trkpt>
      <trkpt lat="48.74482" lon="-3.45349">
        <ele>25.61</ele>
        <time>2013-05-22T12:03:56Z</time>
      </trkpt>
      <trkpt lat="48.74477" lon="-3.45342">
        <ele>28.98</ele>
        <time>2013-05-22T12:03:58Z</time>
      </trkpt>
      <trkpt lat="48.74471" lon="-3.45335">
        <ele>31.86</ele>
        <time>2013-05-22T12:04:00Z</time>
      </trkpt>
      <trkpt lat="48.74462" lon="-3.45323">
        <ele>35.71</ele>
        <time>2013-05-22T12:04:03Z</time>
      </trkpt>
      <trkpt lat="48.74452" lon="-3.45312">
        <ele>39.55</ele>
        <time>2013-05-22T12:04:06Z</time>
      </trkpt>
      <trkpt lat="48.74442" lon="-3.453">
        <ele>42.92</ele>
        <time>2013-05-22T12:04:09Z</time>
      </trkpt>
      <trkpt lat="48.74428" lon="-3.45285">
        <ele>46.76</ele>
        <time>2013-05-22T12:04:13Z</time>
      </trkpt>
      <trkpt lat="48.74415" lon="-3.45269">
        <ele>50.13</ele>
        <time>2013-05-22T12:04:17Z</time>
      </trkpt>
      <trkpt lat="48.74407" lon="-3.45258">
        <ele>53.49</ele>
        <time>2013-05-22T12:04:23Z</time>
      </trkpt>
      <trkpt lat="48.74407" lon="-3.45257">
        <ele>56.86</ele>
        <time>2013-05-22T12:04:31Z</time>
      </trkpt>
      <trkpt lat="48.74406" lon="-3.45259">
        <ele>59.74</ele>
        <time>2013-05-22T12:04:45Z</time>
      </trkpt>
      <trkpt lat="48.74405" lon="-3.45258">
        <ele>61.18</ele>
        <time>2013-05-22T12:04:53Z</time>
      </trkpt>
      <trkpt lat="48.74403" lon="-3.45257">
        <ele>61.66</ele>
        <time>2013-05-22T12:04:54Z</time>
      </trkpt>
      <trkpt lat="48.74402" lon="-3.45256">
        <ele>61.66</ele>
        <time>2013-05-22T12:04:55Z</time>
      </trkpt>
      <trkpt lat="48.744" lon="-3.45254">
        <ele>62.14</ele>
        <time>2013-05-22T12:04:56Z</time>
      </trkpt>
      <trkpt lat="48.74397" lon="-3.45252">
        <ele>62.14</ele>
        <time>2013-05-22T12:04:57Z</time>
      </trkpt>
      <trkpt lat="48.74377" lon="-3.45234">
        <ele>62.62</ele>
        <time>2013-05-22T12:05:04Z</time>
      </trkpt>
      <trkpt lat="48.74348" lon="-3.45222">
        <ele>62.62</ele>
        <time>2013-05-22T12:05:10Z</time>
      </trkpt>
      <trkpt lat="48.74342" lon="-3.45219">
        <ele>62.14</ele>
        <time>2013-05-22T12:05:11Z</time>
      </trkpt>
      <trkpt lat="48.74336" lon="-3.45215">
        <ele>62.14</ele>
        <time>2013-05-22T12:05:12Z</time>
      </trkpt>
      <trkpt lat="48.7433" lon="-3.4521">
        <ele>62.62</ele>
        <time>2013-05-22T12:05:13Z</time>
      </trkpt>
      <trkpt lat="48.74324" lon="-3.45205">
        <ele>61.66</ele>
        <time>2013-05-22T12:05:14Z</time>
      </trkpt>
      <trkpt lat="48.743" lon="-3.45176">
        <ele>61.18</ele>
        <time>2013-05-22T12:05:18Z</time>
      </trkpt>
      <trkpt lat="48.74294" lon="-3.45167">
        <ele>60.7</ele>
        <time>2013-05-22T12:05:19Z</time>
      </trkpt>
      <trkpt lat="48.74289" lon="-3.45156">
        <ele>60.7</ele>
        <time>2013-05-22T12:05:20Z</time>
      </trkpt>
      <trkpt lat="48.74272" lon="-3.45107">
        <ele>59.74</ele>
        <time>2013-05-22T12:05:24Z</time>
      </trkpt>
      <trkpt lat="48.74269" lon="-3.45092">
        <ele>59.26</ele>
        <time>2013-05-22T12:05:25Z</time>
      </trkpt>
      <trkpt lat="48.74267" lon="-3.45078">
        <ele>58.78</ele>
        <time>2013-05-22T12:05:26Z</time>
      </trkpt>
      <trkpt lat="48.74266" lon="-3.45062">
        <ele>58.78</ele>
        <time>2013-05-22T12:05:27Z</time>
      </trkpt>
      <trkpt lat="48.74265" lon="-3.45047">
        <ele>58.3</ele>
        <time>2013-05-22T12:05:28Z</time>
      </trkpt>
      <trkpt lat="48.74265" lon="-3.45032">
        <ele>58.78</ele>
        <time>2013-05-22T12:05:29Z</time>
      </trkpt>
      <trkpt lat="48.74263" lon="-3.44985">
        <ele>56.37</ele>
        <time>2013-05-22T12:05:32Z</time>
      </trkpt>
      <trkpt lat="48.74261" lon="-3.44939">
        <ele>54.93</ele>
        <time>2013-05-22T12:05:35Z</time>
      </trkpt>
      <trkpt lat="48.74262" lon="-3.44849">
        <ele>51.09</ele>
        <time>2013-05-22T12:05:41Z</time>
      </trkpt>
      <trkpt lat="48.74262" lon="-3.44836">
        <ele>51.09</ele>
        <time>2013-05-22T12:05:42Z</time>
      </trkpt>
      <trkpt lat="48.74263" lon="-3.44824">
        <ele>51.09</ele>
        <time>2013-05-22T12:05:43Z</time>
      </trkpt>
      <trkpt lat="48.74264" lon="-3.44786">
        <ele>47.72</ele>
        <time>2013-05-22T12:05:46Z</time>
      </trkpt>
      <trkpt lat="48.74264" lon="-3.44773">
        <ele>48.2</ele>
        <time>2013-05-22T12:05:47Z</time>
      </trkpt>
      <trkpt lat="48.74263" lon="-3.44732">
        <ele>46.28</ele>
        <time>2013-05-22T12:05:50Z</time>
      </trkpt>
      <trkpt lat="48.74255" lon="-3.4465">
        <ele>42.92</ele>
        <time>2013-05-22T12:05:56Z</time>
      </trkpt>
      <trkpt lat="48.74252" lon="-3.4464">
        <ele>42.92</ele>
        <time>2013-05-22T12:05:57Z</time>
      </trkpt>
      <trkpt lat="48.74247" lon="-3.44631">
        <ele>42.44</ele>
        <time>2013-05-22T12:05:58Z</time>
      </trkpt>
      <trkpt lat="48.74241" lon="-3.44623">
        <ele>42.44</ele>
        <time>2013-05-22T12:05:59Z</time>
      </trkpt>
      <trkpt lat="48.74236" lon="-3.44616">
        <ele>42.44</ele>
        <time>2013-05-22T12:06:00Z</time>
      </trkpt>
      <trkpt lat="48.7423" lon="-3.44607">
        <ele>41.95</ele>
        <time>2013-05-22T12:06:01Z</time>
      </trkpt>
      <trkpt lat="48.74225" lon="-3.446">
        <ele>41.47</ele>
        <time>2013-05-22T12:06:02Z</time>
      </trkpt>
      <trkpt lat="48.74219" lon="-3.44593">
        <ele>41.47</ele>
        <time>2013-05-22T12:06:03Z</time>
      </trkpt>
      <trkpt lat="48.74212" lon="-3.44587">
        <ele>40.99</ele>
        <time>2013-05-22T12:06:04Z</time>
      </trkpt>
      <trkpt lat="48.74205" lon="-3.44582">
        <ele>40.51</ele>
        <time>2013-05-22T12:06:05Z</time>
      </trkpt>
      <trkpt lat="48.74198" lon="-3.44579">
        <ele>40.03</ele>
        <time>2013-05-22T12:06:06Z</time>
      </trkpt>
      <trkpt lat="48.7419" lon="-3.44575">
        <ele>40.03</ele>
        <time>2013-05-22T12:06:07Z</time>
      </trkpt>
      <trkpt lat="48.74148" lon="-3.44558">
        <ele>38.11</ele>
        <time>2013-05-22T12:06:12Z</time>
      </trkpt>
      <trkpt lat="48.74021" lon="-3.44501">
        <ele>35.23</ele>
        <time>2013-05-22T12:06:27Z</time>
      </trkpt>
      <trkpt lat="48.73997" lon="-3.44491">
        <ele>34.26</ele>
        <time>2013-05-22T12:06:30Z</time>
      </trkpt>
      <trkpt lat="48.73989" lon="-3.4449">
        <ele>33.78</ele>
        <time>2013-05-22T12:06:31Z</time>
      </trkpt>
      <trkpt lat="48.73982" lon="-3.44491">
        <ele>33.78</ele>
        <time>2013-05-22T12:06:32Z</time>
      </trkpt>
      <trkpt lat="48.73975" lon="-3.44495">
        <ele>33.3</ele>
        <time>2013-05-22T12:06:33Z</time>
      </trkpt>
      <trkpt lat="48.73969" lon="-3.44499">
        <ele>33.3</ele>
        <time>2013-05-22T12:06:34Z</time>
      </trkpt>
      <trkpt lat="48.73961" lon="-3.44502">
        <ele>32.82</ele>
        <time>2013-05-22T12:06:35Z</time>
      </trkpt>
      <trkpt lat="48.73954" lon="-3.44501">
        <ele>32.82</ele>
        <time>2013-05-22T12:06:36Z</time>
      </trkpt>
      <trkpt lat="48.73947" lon="-3.44496">
        <ele>32.34</ele>
        <time>2013-05-22T12:06:37Z</time>
      </trkpt>
      <trkpt lat="48.73942" lon="-3.44489">
        <ele>32.34</ele>
        <time>2013-05-22T12:06:38Z</time>
      </trkpt>
      <trkpt lat="48.73937" lon="-3.44481">
        <ele>32.34</ele>
        <time>2013-05-22T12:06:39Z</time>
      </trkpt>
      <trkpt lat="48.73932" lon="-3.44474">
        <ele>32.34</ele>
        <time>2013-05-22T12:06:40Z</time>
      </trkpt>
      <trkpt lat="48.73925" lon="-3.44469">
        <ele>32.34</ele>
        <time>2013-05-22T12:06:41Z</time>
      </trkpt>
      <trkpt lat="48.73918" lon="-3.44465">
        <ele>32.34</ele>
        <time>2013-05-22T12:06:42Z</time>
      </trkpt>
      <trkpt lat="48.73849" lon="-3.44441">
        <ele>29.46</ele>
        <time>2013-05-22T12:06:50Z</time>
      </trkpt>
      <trkpt lat="48.73839" lon="-3.4444">
        <ele>29.46</ele>
        <time>2013-05-22T12:06:51Z</time>
      </trkpt>
      <trkpt lat="48.73829" lon="-3.44441">
        <ele>28.5</ele>
        <time>2013-05-22T12:06:52Z</time>
      </trkpt>
      <trkpt lat="48.73818" lon="-3.44444">
        <ele>27.53</ele>
        <time>2013-05-22T12:06:53Z</time>
      </trkpt>
      <trkpt lat="48.73808" lon="-3.4445">
        <ele>27.53</ele>
        <time>2013-05-22T12:06:54Z</time>
      </trkpt>
      <trkpt lat="48.73797" lon="-3.44457">
        <ele>27.05</ele>
        <time>2013-05-22T12:06:55Z</time>
      </trkpt>
      <trkpt lat="48.73787" lon="-3.44466">
        <ele>26.09</ele>
        <time>2013-05-22T12:06:56Z</time>
      </trkpt>
      <trkpt lat="48.73777" lon="-3.44475">
        <ele>25.61</ele>
        <time>2013-05-22T12:06:57Z</time>
      </trkpt>
      <trkpt lat="48.73767" lon="-3.44484">
        <ele>25.13</ele>
        <time>2013-05-22T12:06:58Z</time>
      </trkpt>
      <trkpt lat="48.73756" lon="-3.4449">
        <ele>24.65</ele>
        <time>2013-05-22T12:06:59Z</time>
      </trkpt>
      <trkpt lat="48.73745" lon="-3.44493">
        <ele>24.17</ele>
        <time>2013-05-22T12:07:00Z</time>
      </trkpt>
      <trkpt lat="48.73733" lon="-3.44491">
        <ele>23.69</ele>
        <time>2013-05-22T12:07:01Z</time>
      </trkpt>
      <trkpt lat="48.73722" lon="-3.44486">
        <ele>22.25</ele>
        <time>2013-05-22T12:07:02Z</time>
      </trkpt>
      <trkpt lat="48.73712" lon="-3.44479">
        <ele>21.77</ele>
        <time>2013-05-22T12:07:03Z</time>
      </trkpt>
      <trkpt lat="48.73702" lon="-3.44471">
        <ele>21.29</ele>
        <time>2013-05-22T12:07:04Z</time>
      </trkpt>
      <trkpt lat="48.73609" lon="-3.44411">
        <ele>24.17</ele>
        <time>2013-05-22T12:07:14Z</time>
      </trkpt>
      <trkpt lat="48.73601" lon="-3.44409">
        <ele>24.17</ele>
        <time>2013-05-22T12:07:15Z</time>
      </trkpt>
      <trkpt lat="48.73535" lon="-3.44405">
        <ele>27.53</ele>
        <time>2013-05-22T12:07:24Z</time>
      </trkpt>
      <trkpt lat="48.73484" lon="-3.44424">
        <ele>30.9</ele>
        <time>2013-05-22T12:07:32Z</time>
      </trkpt>
      <trkpt lat="48.73473" lon="-3.44431">
        <ele>31.38</ele>
        <time>2013-05-22T12:07:34Z</time>
      </trkpt>
      <trkpt lat="48.73468" lon="-3.44436">
        <ele>31.38</ele>
        <time>2013-05-22T12:07:35Z</time>
      </trkpt>
      <trkpt lat="48.73464" lon="-3.44441">
        <ele>32.34</ele>
        <time>2013-05-22T12:07:36Z</time>
      </trkpt>
      <trkpt lat="48.7346" lon="-3.44447">
        <ele>32.82</ele>
        <time>2013-05-22T12:07:37Z</time>
      </trkpt>
      <trkpt lat="48.73457" lon="-3.44454">
        <ele>32.82</ele>
        <time>2013-05-22T12:07:38Z</time>
      </trkpt>
      <trkpt lat="48.73454" lon="-3.44461">
        <ele>32.82</ele>
        <time>2013-05-22T12:07:39Z</time>
      </trkpt>
      <trkpt lat="48.73446" lon="-3.4448">
        <ele>32.82</ele>
        <time>2013-05-22T12:07:42Z</time>
      </trkpt>
      <trkpt lat="48.73441" lon="-3.44484">
        <ele>32.82</ele>
        <time>2013-05-22T12:07:43Z</time>
      </trkpt>
      <trkpt lat="48.73436" lon="-3.44487">
        <ele>32.82</ele>
        <time>2013-05-22T12:07:44Z</time>
      </trkpt>
      <trkpt lat="48.73431" lon="-3.44488">
        <ele>34.26</ele>
        <time>2013-05-22T12:07:45Z</time>
      </trkpt>
      <trkpt lat="48.73426" lon="-3.44488">
        <ele>33.3</ele>
        <time>2013-05-22T12:07:46Z</time>
      </trkpt>
      <trkpt lat="48.73421" lon="-3.44488">
        <ele>33.3</ele>
        <time>2013-05-22T12:07:47Z</time>
      </trkpt>
      <trkpt lat="48.73416" lon="-3.44489">
        <ele>33.78</ele>
        <time>2013-05-22T12:07:48Z</time>
      </trkpt>
      <trkpt lat="48.7341" lon="-3.44491">
        <ele>33.78</ele>
        <time>2013-05-22T12:07:49Z</time>
      </trkpt>
      <trkpt lat="48.73406" lon="-3.44496">
        <ele>33.78</ele>
        <time>2013-05-22T12:07:50Z</time>
      </trkpt>
      <trkpt lat="48.73401" lon="-3.445">
        <ele>33.78</ele>
        <time>2013-05-22T12:07:51Z</time>
      </trkpt>
      <trkpt lat="48.73375" lon="-3.44519">
        <ele>34.26</ele>
        <time>2013-05-22T12:07:56Z</time>
      </trkpt>
      <trkpt lat="48.7337" lon="-3.4452">
        <ele>34.74</ele>
        <time>2013-05-22T12:07:57Z</time>
      </trkpt>
      <trkpt lat="48.73365" lon="-3.44521">
        <ele>34.74</ele>
        <time>2013-05-22T12:07:58Z</time>
      </trkpt>
      <trkpt lat="48.73359" lon="-3.44521">
        <ele>34.74</ele>
        <time>2013-05-22T12:07:59Z</time>
      </trkpt>
      <trkpt lat="48.73354" lon="-3.44521">
        <ele>34.74</ele>
        <time>2013-05-22T12:08:00Z</time>
      </trkpt>
      <trkpt lat="48.73348" lon="-3.44519">
        <ele>35.23</ele>
        <time>2013-05-22T12:08:01Z</time>
      </trkpt>
      <trkpt lat="48.73343" lon="-3.44517">
        <ele>35.23</ele>
        <time>2013-05-22T12:08:02Z</time>
      </trkpt>
      <trkpt lat="48.73338" lon="-3.44515">
        <ele>35.23</ele>
        <time>2013-05-22T12:08:03Z</time>
      </trkpt>
      <trkpt lat="48.73333" lon="-3.44513">
        <ele>35.23</ele>
        <time>2013-05-22T12:08:04Z</time>
      </trkpt>
      <trkpt lat="48.73328" lon="-3.44509">
        <ele>35.23</ele>
        <time>2013-05-22T12:08:05Z</time>
      </trkpt>
      <trkpt lat="48.73324" lon="-3.44506">
        <ele>35.23</ele>
        <time>2013-05-22T12:08:06Z</time>
      </trkpt>
      <trkpt lat="48.73319" lon="-3.44502">
        <ele>35.71</ele>
        <time>2013-05-22T12:08:07Z</time>
      </trkpt>
      <trkpt lat="48.73315" lon="-3.44498">
        <ele>35.71</ele>
        <time>2013-05-22T12:08:08Z</time>
      </trkpt>
      <trkpt lat="48.73311" lon="-3.44493">
        <ele>36.19</ele>
        <time>2013-05-22T12:08:09Z</time>
      </trkpt>
      <trkpt lat="48.73307" lon="-3.44487">
        <ele>36.19</ele>
        <time>2013-05-22T12:08:10Z</time>
      </trkpt>
      <trkpt lat="48.73262" lon="-3.44423">
        <ele>38.11</ele>
        <time>2013-05-22T12:08:22Z</time>
      </trkpt>
      <trkpt lat="48.73239" lon="-3.44404">
        <ele>39.55</ele>
        <time>2013-05-22T12:08:27Z</time>
      </trkpt>
      <trkpt lat="48.73213" lon="-3.44387">
        <ele>40.51</ele>
        <time>2013-05-22T12:08:33Z</time>
      </trkpt>
      <trkpt lat="48.73209" lon="-3.44386">
        <ele>40.99</ele>
        <time>2013-05-22T12:08:34Z</time>
      </trkpt>
      <trkpt lat="48.73204" lon="-3.44387">
        <ele>40.51</ele>
        <time>2013-05-22T12:08:35Z</time>
      </trkpt>
      <trkpt lat="48.73195" lon="-3.4439">
        <ele>40.51</ele>
        <time>2013-05-22T12:08:37Z</time>
      </trkpt>
      <trkpt lat="48.73191" lon="-3.44393">
        <ele>40.99</ele>
        <time>2013-05-22T12:08:38Z</time>
      </trkpt>
      <trkpt lat="48.73187" lon="-3.44397">
        <ele>40.99</ele>
        <time>2013-05-22T12:08:39Z</time>
      </trkpt>
      <trkpt lat="48.73184" lon="-3.44402">
        <ele>40.99</ele>
        <time>2013-05-22T12:08:40Z</time>
      </trkpt>
      <trkpt lat="48.73181" lon="-3.44408">
        <ele>40.99</ele>
        <time>2013-05-22T12:08:41Z</time>
      </trkpt>
      <trkpt lat="48.73179" lon="-3.44414">
        <ele>40.99</ele>
        <time>2013-05-22T12:08:42Z</time>
      </trkpt>
      <trkpt lat="48.73177" lon="-3.44421">
        <ele>41.47</ele>
        <time>2013-05-22T12:08:43Z</time>
      </trkpt>
      <trkpt lat="48.73175" lon="-3.44428">
        <ele>41.47</ele>
        <time>2013-05-22T12:08:44Z</time>
      </trkpt>
      <trkpt lat="48.73147" lon="-3.44551">
        <ele>40.99</ele>
        <time>2013-05-22T12:08:59Z</time>
      </trkpt>
      <trkpt lat="48.73106" lon="-3.44695">
        <ele>40.99</ele>
        <time>2013-05-22T12:09:17Z</time>
      </trkpt>
      <trkpt lat="48.73104" lon="-3.44703">
        <ele>40.99</ele>
        <time>2013-05-22T12:09:18Z</time>
      </trkpt>
      <trkpt lat="48.73103" lon="-3.44711">
        <ele>40.99</ele>
        <time>2013-05-22T12:09:19Z</time>
      </trkpt>
      <trkpt lat="48.73102" lon="-3.44719">
        <ele>41.47</ele>
        <time>2013-05-22T12:09:20Z</time>
      </trkpt>
      <trkpt lat="48.73101" lon="-3.44726">
        <ele>41.95</ele>
        <time>2013-05-22T12:09:21Z</time>
      </trkpt>
      <trkpt lat="48.73099" lon="-3.44734">
        <ele>41.47</ele>
        <time>2013-05-22T12:09:22Z</time>
      </trkpt>
      <trkpt lat="48.73097" lon="-3.44742">
        <ele>40.99</ele>
        <time>2013-05-22T12:09:23Z</time>
      </trkpt>
      <trkpt lat="48.73053" lon="-3.44876">
        <ele>39.55</ele>
        <time>2013-05-22T12:09:38Z</time>
      </trkpt>
      <trkpt lat="48.73043" lon="-3.44908">
        <ele>39.07</ele>
        <time>2013-05-22T12:09:41Z</time>
      </trkpt>
      <trkpt lat="48.73033" lon="-3.4494">
        <ele>39.07</ele>
        <time>2013-05-22T12:09:44Z</time>
      </trkpt>
      <trkpt lat="48.72997" lon="-3.45057">
        <ele>35.71</ele>
        <time>2013-05-22T12:09:55Z</time>
      </trkpt>
      <trkpt lat="48.7298" lon="-3.45112">
        <ele>34.26</ele>
        <time>2013-05-22T12:10:00Z</time>
      </trkpt>
      <trkpt lat="48.72965" lon="-3.45143">
        <ele>33.3</ele>
        <time>2013-05-22T12:10:04Z</time>
      </trkpt>
      <trkpt lat="48.7296" lon="-3.45156">
        <ele>32.82</ele>
        <time>2013-05-22T12:10:06Z</time>
      </trkpt>
      <trkpt lat="48.72959" lon="-3.45163">
        <ele>32.82</ele>
        <time>2013-05-22T12:10:07Z</time>
      </trkpt>
      <trkpt lat="48.72957" lon="-3.45178">
        <ele>32.82</ele>
        <time>2013-05-22T12:10:09Z</time>
      </trkpt>
      <trkpt lat="48.72957" lon="-3.45185">
        <ele>32.34</ele>
        <time>2013-05-22T12:10:10Z</time>
      </trkpt>
      <trkpt lat="48.72956" lon="-3.45192">
        <ele>32.82</ele>
        <time>2013-05-22T12:10:11Z</time>
      </trkpt>
      <trkpt lat="48.72956" lon="-3.452">
        <ele>32.34</ele>
        <time>2013-05-22T12:10:12Z</time>
      </trkpt>
      <trkpt lat="48.72954" lon="-3.45208">
        <ele>32.82</ele>
        <time>2013-05-22T12:10:13Z</time>
      </trkpt>
      <trkpt lat="48.72953" lon="-3.45215">
        <ele>32.34</ele>
        <time>2013-05-22T12:10:14Z</time>
      </trkpt>
      <trkpt lat="48.72934" lon="-3.45318">
        <ele>29.94</ele>
        <time>2013-05-22T12:10:25Z</time>
      </trkpt>
      <trkpt lat="48.7291" lon="-3.45435">
        <ele>27.05</ele>
        <time>2013-05-22T12:10:36Z</time>
      </trkpt>
      <trkpt lat="48.72898" lon="-3.455">
        <ele>23.69</ele>
        <time>2013-05-22T12:10:43Z</time>
      </trkpt>
      <trkpt lat="48.72886" lon="-3.45571">
        <ele>19.84</ele>
        <time>2013-05-22T12:10:49Z</time>
      </trkpt>
      <trkpt lat="48.72882" lon="-3.45613">
        <ele>15.52</ele>
        <time>2013-05-22T12:10:52Z</time>
      </trkpt>
      <trkpt lat="48.72875" lon="-3.45649">
        <ele>12.15</ele>
        <time>2013-05-22T12:10:55Z</time>
      </trkpt>
      <trkpt lat="48.72871" lon="-3.45659">
        <ele>10.71</ele>
        <time>2013-05-22T12:10:56Z</time>
      </trkpt>
      <trkpt lat="48.72865" lon="-3.45666">
        <ele>9.75</ele>
        <time>2013-05-22T12:10:57Z</time>
      </trkpt>
      <trkpt lat="48.72859" lon="-3.45671">
        <ele>9.27</ele>
        <time>2013-05-22T12:10:58Z</time>
      </trkpt>
      <trkpt lat="48.72853" lon="-3.45676">
        <ele>8.31</ele>
        <time>2013-05-22T12:10:59Z</time>
      </trkpt>
      <trkpt lat="48.72847" lon="-3.45681">
        <ele>7.83</ele>
        <time>2013-05-22T12:11:00Z</time>
      </trkpt>
      <trkpt lat="48.72842" lon="-3.45688">
        <ele>7.83</ele>
        <time>2013-05-22T12:11:01Z</time>
      </trkpt>
      <trkpt lat="48.72837" lon="-3.45696">
        <ele>7.83</ele>
        <time>2013-05-22T12:11:02Z</time>
      </trkpt>
      <trkpt lat="48.72826" lon="-3.45719">
        <ele>5.42</ele>
        <time>2013-05-22T12:11:05Z</time>
      </trkpt>
      <trkpt lat="48.72824" lon="-3.45725">
        <ele>5.42</ele>
        <time>2013-05-22T12:11:06Z</time>
      </trkpt>
      <trkpt lat="48.72814" lon="-3.45753">
        <ele>4.46</ele>
        <time>2013-05-22T12:11:15Z</time>
      </trkpt>
      <trkpt lat="48.72814" lon="-3.45755">
        <ele>4.46</ele>
        <time>2013-05-22T12:11:19Z</time>
      </trkpt>
      <trkpt lat="48.72813" lon="-3.45762">
        <ele>4.94</ele>
        <time>2013-05-22T12:11:21Z</time>
      </trkpt>
      <trkpt lat="48.72813" lon="-3.45766">
        <ele>4.94</ele>
        <time>2013-05-22T12:11:22Z</time>
      </trkpt>
      <trkpt lat="48.72812" lon="-3.4577">
        <ele>4.94</ele>
        <time>2013-05-22T12:11:23Z</time>
      </trkpt>
      <trkpt lat="48.7281" lon="-3.45774">
        <ele>4.94</ele>
        <time>2013-05-22T12:11:24Z</time>
      </trkpt>
      <trkpt lat="48.72808" lon="-3.45779">
        <ele>4.94</ele>
        <time>2013-05-22T12:11:25Z</time>
      </trkpt>
      <trkpt lat="48.72807" lon="-3.45785">
        <ele>5.42</ele>
        <time>2013-05-22T12:11:26Z</time>
      </trkpt>
      <trkpt lat="48.72806" lon="-3.45791">
        <ele>5.91</ele>
        <time>2013-05-22T12:11:27Z</time>
      </trkpt>
      <trkpt lat="48.72804" lon="-3.45797">
        <ele>5.42</ele>
        <time>2013-05-22T12:11:28Z</time>
      </trkpt>
      <trkpt lat="48.72782" lon="-3.45885">
        <ele>5.42</ele>
        <time>2013-05-22T12:11:39Z</time>
      </trkpt>
      <trkpt lat="48.7278" lon="-3.45893">
        <ele>5.42</ele>
        <time>2013-05-22T12:11:40Z</time>
      </trkpt>
      <trkpt lat="48.72776" lon="-3.45915">
        <ele>5.42</ele>
        <time>2013-05-22T12:11:43Z</time>
      </trkpt>
      <trkpt lat="48.72775" lon="-3.45923">
        <ele>5.42</ele>
        <time>2013-05-22T12:11:44Z</time>
      </trkpt>
      <trkpt lat="48.72776" lon="-3.45954">
        <ele>3.98</ele>
        <time>2013-05-22T12:11:52Z</time>
      </trkpt>
      <trkpt lat="48.72773" lon="-3.45957">
        <ele>4.46</ele>
        <time>2013-05-22T12:11:59Z</time>
      </trkpt>
      <trkpt lat="48.72773" lon="-3.45959">
        <ele>4.46</ele>
        <time>2013-05-22T12:12:00Z</time>
      </trkpt>
      <trkpt lat="48.72773" lon="-3.45966">
        <ele>4.46</ele>
        <time>2013-05-22T12:12:03Z</time>
      </trkpt>
      <trkpt lat="48.72773" lon="-3.4597">
        <ele>4.46</ele>
        <time>2013-05-22T12:12:04Z</time>
      </trkpt>
      <trkpt lat="48.72772" lon="-3.45976">
        <ele>4.46</ele>
        <time>2013-05-22T12:12:05Z</time>
      </trkpt>
      <trkpt lat="48.7277" lon="-3.4598">
        <ele>4.46</ele>
        <time>2013-05-22T12:12:06Z</time>
      </trkpt>
      <trkpt lat="48.72767" lon="-3.45982">
        <ele>4.94</ele>
        <time>2013-05-22T12:12:07Z</time>
      </trkpt>
      <trkpt lat="48.72717" lon="-3.46002">
        <ele>6.39</ele>
        <time>2013-05-22T12:12:19Z</time>
      </trkpt>
      <trkpt lat="48.72686" lon="-3.4601">
        <ele>7.35</ele>
        <time>2013-05-22T12:12:26Z</time>
      </trkpt>
      <trkpt lat="48.72668" lon="-3.46011">
        <ele>7.83</ele>
        <time>2013-05-22T12:12:30Z</time>
      </trkpt>
      <trkpt lat="48.72664" lon="-3.46012">
        <ele>8.31</ele>
        <time>2013-05-22T12:12:31Z</time>
      </trkpt>
      <trkpt lat="48.72661" lon="-3.46014">
        <ele>8.31</ele>
        <time>2013-05-22T12:12:32Z</time>
      </trkpt>
      <trkpt lat="48.72657" lon="-3.46014">
        <ele>8.79</ele>
        <time>2013-05-22T12:12:33Z</time>
      </trkpt>
      <trkpt lat="48.72652" lon="-3.46015">
        <ele>9.27</ele>
        <time>2013-05-22T12:12:34Z</time>
      </trkpt>
      <trkpt lat="48.72598" lon="-3.46031">
        <ele>12.15</ele>
        <time>2013-05-22T12:12:47Z</time>
      </trkpt>
      <trkpt lat="48.7254" lon="-3.46038">
        <ele>14.56</ele>
        <time>2013-05-22T12:13:00Z</time>
      </trkpt>
      <trkpt lat="48.72474" lon="-3.4602">
        <ele>17.92</ele>
        <time>2013-05-22T12:13:15Z</time>
      </trkpt>
      <trkpt lat="48.72435" lon="-3.46">
        <ele>19.84</ele>
        <time>2013-05-22T12:13:25Z</time>
      </trkpt>
      <trkpt lat="48.7243" lon="-3.45998">
        <ele>19.84</ele>
        <time>2013-05-22T12:13:26Z</time>
      </trkpt>
      <trkpt lat="48.72424" lon="-3.45997">
        <ele>20.32</ele>
        <time>2013-05-22T12:13:27Z</time>
      </trkpt>
      <trkpt lat="48.72419" lon="-3.45996">
        <ele>20.32</ele>
        <time>2013-05-22T12:13:28Z</time>
      </trkpt>
      <trkpt lat="48.72414" lon="-3.45995">
        <ele>20.32</ele>
        <time>2013-05-22T12:13:29Z</time>
      </trkpt>
      <trkpt lat="48.72384" lon="-3.45999">
        <ele>22.25</ele>
        <time>2013-05-22T12:13:35Z</time>
      </trkpt>
      <trkpt lat="48.72315" lon="-3.46012">
        <ele>25.13</ele>
        <time>2013-05-22T12:13:50Z</time>
      </trkpt>
      <trkpt lat="48.72244" lon="-3.45987">
        <ele>28.02</ele>
        <time>2013-05-22T12:14:06Z</time>
      </trkpt>
      <trkpt lat="48.72177" lon="-3.45957">
        <ele>30.42</ele>
        <time>2013-05-22T12:14:21Z</time>
      </trkpt>
      <trkpt lat="48.72172" lon="-3.45956">
        <ele>30.42</ele>
        <time>2013-05-22T12:14:22Z</time>
      </trkpt>
      <trkpt lat="48.72167" lon="-3.45957">
        <ele>30.9</ele>
        <time>2013-05-22T12:14:23Z</time>
      </trkpt>
      <trkpt lat="48.72104" lon="-3.4599">
        <ele>33.78</ele>
        <time>2013-05-22T12:14:37Z</time>
      </trkpt>
      <trkpt lat="48.7206" lon="-3.46019">
        <ele>36.19</ele>
        <time>2013-05-22T12:14:48Z</time>
      </trkpt>
      <trkpt lat="48.72038" lon="-3.46024">
        <ele>36.67</ele>
        <time>2013-05-22T12:14:53Z</time>
      </trkpt>
      <trkpt lat="48.72034" lon="-3.46024">
        <ele>37.15</ele>
        <time>2013-05-22T12:14:54Z</time>
      </trkpt>
      <trkpt lat="48.71973" lon="-3.45985">
        <ele>39.55</ele>
        <time>2013-05-22T12:15:08Z</time>
      </trkpt>
      <trkpt lat="48.71956" lon="-3.45953">
        <ele>40.51</ele>
        <time>2013-05-22T12:15:14Z</time>
      </trkpt>
      <trkpt lat="48.71954" lon="-3.45948">
        <ele>40.99</ele>
        <time>2013-05-22T12:15:15Z</time>
      </trkpt>
      <trkpt lat="48.71951" lon="-3.45942">
        <ele>40.99</ele>
        <time>2013-05-22T12:15:16Z</time>
      </trkpt>
      <trkpt lat="48.71942" lon="-3.45911">
        <ele>41.95</ele>
        <time>2013-05-22T12:15:21Z</time>
      </trkpt>
      <trkpt lat="48.71939" lon="-3.45884">
        <ele>42.44</ele>
        <time>2013-05-22T12:15:25Z</time>
      </trkpt>
      <trkpt lat="48.71937" lon="-3.45877">
        <ele>42.92</ele>
        <time>2013-05-22T12:15:26Z</time>
      </trkpt>
      <trkpt lat="48.71931" lon="-3.45851">
        <ele>43.4</ele>
        <time>2013-05-22T12:15:30Z</time>
      </trkpt>
      <trkpt lat="48.71929" lon="-3.45845">
        <ele>43.4</ele>
        <time>2013-05-22T12:15:31Z</time>
      </trkpt>
      <trkpt lat="48.71927" lon="-3.4584">
        <ele>43.4</ele>
        <time>2013-05-22T12:15:32Z</time>
      </trkpt>
      <trkpt lat="48.71924" lon="-3.45834">
        <ele>43.4</ele>
        <time>2013-05-22T12:15:33Z</time>
      </trkpt>
      <trkpt lat="48.7192" lon="-3.45829">
        <ele>43.88</ele>
        <time>2013-05-22T12:15:34Z</time>
      </trkpt>
      <trkpt lat="48.71901" lon="-3.45806">
        <ele>44.84</ele>
        <time>2013-05-22T12:15:39Z</time>
      </trkpt>
      <trkpt lat="48.71897" lon="-3.45802">
        <ele>44.84</ele>
        <time>2013-05-22T12:15:40Z</time>
      </trkpt>
      <trkpt lat="48.71866" lon="-3.45772">
        <ele>46.28</ele>
        <time>2013-05-22T12:15:48Z</time>
      </trkpt>
      <trkpt lat="48.71805" lon="-3.45709">
        <ele>49.16</ele>
        <time>2013-05-22T12:16:04Z</time>
      </trkpt>
      <trkpt lat="48.71743" lon="-3.45648">
        <ele>52.53</ele>
        <time>2013-05-22T12:16:20Z</time>
      </trkpt>
      <trkpt lat="48.71715" lon="-3.45621">
        <ele>53.97</ele>
        <time>2013-05-22T12:16:27Z</time>
      </trkpt>
      <trkpt lat="48.71712" lon="-3.45616">
        <ele>53.97</ele>
        <time>2013-05-22T12:16:28Z</time>
      </trkpt>
      <trkpt lat="48.71697" lon="-3.45589">
        <ele>54.93</ele>
        <time>2013-05-22T12:16:33Z</time>
      </trkpt>
      <trkpt lat="48.71651" lon="-3.45471">
        <ele>57.82</ele>
        <time>2013-05-22T12:16:52Z</time>
      </trkpt>
      <trkpt lat="48.71649" lon="-3.45465">
        <ele>57.82</ele>
        <time>2013-05-22T12:16:53Z</time>
      </trkpt>
      <trkpt lat="48.71647" lon="-3.45459">
        <ele>57.82</ele>
        <time>2013-05-22T12:16:54Z</time>
      </trkpt>
      <trkpt lat="48.71615" lon="-3.45378">
        <ele>60.22</ele>
        <time>2013-05-22T12:17:07Z</time>
      </trkpt>
      <trkpt lat="48.71612" lon="-3.45373">
        <ele>60.22</ele>
        <time>2013-05-22T12:17:08Z</time>
      </trkpt>
      <trkpt lat="48.7161" lon="-3.45367">
        <ele>60.22</ele>
        <time>2013-05-22T12:17:09Z</time>
      </trkpt>
      <trkpt lat="48.71607" lon="-3.45361">
        <ele>60.22</ele>
        <time>2013-05-22T12:17:10Z</time>
      </trkpt>
      <trkpt lat="48.71605" lon="-3.45355">
        <ele>60.22</ele>
        <time>2013-05-22T12:17:11Z</time>
      </trkpt>
      <trkpt lat="48.71567" lon="-3.45266">
        <ele>62.62</ele>
        <time>2013-05-22T12:17:26Z</time>
      </trkpt>
      <trkpt lat="48.71564" lon="-3.45261">
        <ele>62.62</ele>
        <time>2013-05-22T12:17:27Z</time>
      </trkpt>
      <trkpt lat="48.71561" lon="-3.45256">
        <ele>62.62</ele>
        <time>2013-05-22T12:17:28Z</time>
      </trkpt>
      <trkpt lat="48.71542" lon="-3.45235">
        <ele>62.62</ele>
        <time>2013-05-22T12:17:33Z</time>
      </trkpt>
      <trkpt lat="48.71538" lon="-3.45232">
        <ele>62.62</ele>
        <time>2013-05-22T12:17:34Z</time>
      </trkpt>
      <trkpt lat="48.71524" lon="-3.45222">
        <ele>63.1</ele>
        <time>2013-05-22T12:17:37Z</time>
      </trkpt>
      <trkpt lat="48.71516" lon="-3.45214">
        <ele>63.1</ele>
        <time>2013-05-22T12:17:39Z</time>
      </trkpt>
      <trkpt lat="48.71488" lon="-3.45194">
        <ele>64.07</ele>
        <time>2013-05-22T12:17:45Z</time>
      </trkpt>
      <trkpt lat="48.71485" lon="-3.45191">
        <ele>64.55</ele>
        <time>2013-05-22T12:17:46Z</time>
      </trkpt>
      <trkpt lat="48.71412" lon="-3.4514">
        <ele>63.58</ele>
        <time>2013-05-22T12:18:00Z</time>
      </trkpt>
      <trkpt lat="48.71317" lon="-3.45083">
        <ele>64.07</ele>
        <time>2013-05-22T12:18:18Z</time>
      </trkpt>
      <trkpt lat="48.7122" lon="-3.45036">
        <ele>64.55</ele>
        <time>2013-05-22T12:18:35Z</time>
      </trkpt>
      <trkpt lat="48.71129" lon="-3.45002">
        <ele>65.51</ele>
        <time>2013-05-22T12:18:51Z</time>
      </trkpt>
      <trkpt lat="48.71055" lon="-3.45001">
        <ele>65.99</ele>
        <time>2013-05-22T12:19:05Z</time>
      </trkpt>
      <trkpt lat="48.71043" lon="-3.45001">
        <ele>65.99</ele>
        <time>2013-05-22T12:19:07Z</time>
      </trkpt>
      <trkpt lat="48.71036" lon="-3.45">
        <ele>65.99</ele>
        <time>2013-05-22T12:19:08Z</time>
      </trkpt>
      <trkpt lat="48.7103" lon="-3.44999">
        <ele>65.99</ele>
        <time>2013-05-22T12:19:09Z</time>
      </trkpt>
      <trkpt lat="48.71002" lon="-3.44993">
        <ele>66.47</ele>
        <time>2013-05-22T12:19:14Z</time>
      </trkpt>
      <trkpt lat="48.70997" lon="-3.44991">
        <ele>66.47</ele>
        <time>2013-05-22T12:19:15Z</time>
      </trkpt>
      <trkpt lat="48.70921" lon="-3.44934">
        <ele>67.91</ele>
        <time>2013-05-22T12:19:30Z</time>
      </trkpt>
      <trkpt lat="48.7082" lon="-3.44862">
        <ele>68.39</ele>
        <time>2013-05-22T12:19:50Z</time>
      </trkpt>
      <trkpt lat="48.70796" lon="-3.44847">
        <ele>69.35</ele>
        <time>2013-05-22T12:19:55Z</time>
      </trkpt>
      <trkpt lat="48.70785" lon="-3.44843">
        <ele>69.83</ele>
        <time>2013-05-22T12:19:57Z</time>
      </trkpt>
      <trkpt lat="48.70747" lon="-3.44823">
        <ele>71.76</ele>
        <time>2013-05-22T12:20:05Z</time>
      </trkpt>
      <trkpt lat="48.70743" lon="-3.44821">
        <ele>72.24</ele>
        <time>2013-05-22T12:20:06Z</time>
      </trkpt>
      <trkpt lat="48.70739" lon="-3.4482">
        <ele>72.24</ele>
        <time>2013-05-22T12:20:07Z</time>
      </trkpt>
      <trkpt lat="48.70724" lon="-3.44816">
        <ele>74.16</ele>
        <time>2013-05-22T12:20:11Z</time>
      </trkpt>
      <trkpt lat="48.70698" lon="-3.44809">
        <ele>76.08</ele>
        <time>2013-05-22T12:20:17Z</time>
      </trkpt>
      <trkpt lat="48.70694" lon="-3.44808">
        <ele>76.08</ele>
        <time>2013-05-22T12:20:18Z</time>
      </trkpt>
      <trkpt lat="48.70659" lon="-3.44806">
        <ele>78.48</ele>
        <time>2013-05-22T12:20:26Z</time>
      </trkpt>
      <trkpt lat="48.7065" lon="-3.44807">
        <ele>79.45</ele>
        <time>2013-05-22T12:20:28Z</time>
      </trkpt>
      <trkpt lat="48.70623" lon="-3.44809">
        <ele>80.89</ele>
        <time>2013-05-22T12:20:34Z</time>
      </trkpt>
      <trkpt lat="48.70619" lon="-3.4481">
        <ele>81.37</ele>
        <time>2013-05-22T12:20:35Z</time>
      </trkpt>
      <trkpt lat="48.70614" lon="-3.44811">
        <ele>81.85</ele>
        <time>2013-05-22T12:20:36Z</time>
      </trkpt>
      <trkpt lat="48.70605" lon="-3.44812">
        <ele>81.85</ele>
        <time>2013-05-22T12:20:38Z</time>
      </trkpt>
      <trkpt lat="48.70575" lon="-3.44822">
        <ele>81.85</ele>
        <time>2013-05-22T12:20:44Z</time>
      </trkpt>
      <trkpt lat="48.70504" lon="-3.4482">
        <ele>81.85</ele>
        <time>2013-05-22T12:20:57Z</time>
      </trkpt>
      <trkpt lat="48.70469" lon="-3.44832">
        <ele>81.37</ele>
        <time>2013-05-22T12:21:07Z</time>
      </trkpt>
      <trkpt lat="48.70446" lon="-3.44844">
        <ele>81.85</ele>
        <time>2013-05-22T12:21:16Z</time>
      </trkpt>
      <trkpt lat="48.70425" lon="-3.44851">
        <ele>81.85</ele>
        <time>2013-05-22T12:21:20Z</time>
      </trkpt>
      <trkpt lat="48.7042" lon="-3.44853">
        <ele>81.85</ele>
        <time>2013-05-22T12:21:21Z</time>
      </trkpt>
      <trkpt lat="48.70414" lon="-3.44855">
        <ele>81.37</ele>
        <time>2013-05-22T12:21:22Z</time>
      </trkpt>
      <trkpt lat="48.7041" lon="-3.44857">
        <ele>81.85</ele>
        <time>2013-05-22T12:21:23Z</time>
      </trkpt>
      <trkpt lat="48.70404" lon="-3.44859">
        <ele>81.37</ele>
        <time>2013-05-22T12:21:24Z</time>
      </trkpt>
      <trkpt lat="48.70399" lon="-3.4486">
        <ele>81.37</ele>
        <time>2013-05-22T12:21:25Z</time>
      </trkpt>
      <trkpt lat="48.70394" lon="-3.4486">
        <ele>81.37</ele>
        <time>2013-05-22T12:21:26Z</time>
      </trkpt>
      <trkpt lat="48.70388" lon="-3.44859">
        <ele>81.37</ele>
        <time>2013-05-22T12:21:27Z</time>
      </trkpt>
      <trkpt lat="48.70382" lon="-3.44857">
        <ele>81.37</ele>
        <time>2013-05-22T12:21:28Z</time>
      </trkpt>
      <trkpt lat="48.70375" lon="-3.44854">
        <ele>81.37</ele>
        <time>2013-05-22T12:21:29Z</time>
      </trkpt>
      <trkpt lat="48.70343" lon="-3.44838">
        <ele>81.37</ele>
        <time>2013-05-22T12:21:34Z</time>
      </trkpt>
      <trkpt lat="48.70317" lon="-3.44831">
        <ele>80.89</ele>
        <time>2013-05-22T12:21:38Z</time>
      </trkpt>
      <trkpt lat="48.70298" lon="-3.44829">
        <ele>80.89</ele>
        <time>2013-05-22T12:21:41Z</time>
      </trkpt>
      <trkpt lat="48.70292" lon="-3.44827">
        <ele>80.41</ele>
        <time>2013-05-22T12:21:42Z</time>
      </trkpt>
      <trkpt lat="48.70213" lon="-3.44819">
        <ele>80.89</ele>
        <time>2013-05-22T12:21:54Z</time>
      </trkpt>
      <trkpt lat="48.70127" lon="-3.44812">
        <ele>81.37</ele>
        <time>2013-05-22T12:22:08Z</time>
      </trkpt>
      <trkpt lat="48.70019" lon="-3.44794">
        <ele>81.85</ele>
        <time>2013-05-22T12:22:25Z</time>
      </trkpt>
      <trkpt lat="48.69931" lon="-3.44782">
        <ele>83.77</ele>
        <time>2013-05-22T12:22:40Z</time>
      </trkpt>
      <trkpt lat="48.69836" lon="-3.4476">
        <ele>84.73</ele>
        <time>2013-05-22T12:22:56Z</time>
      </trkpt>
      <trkpt lat="48.69749" lon="-3.44734">
        <ele>85.69</ele>
        <time>2013-05-22T12:23:11Z</time>
      </trkpt>
      <trkpt lat="48.69675" lon="-3.44694">
        <ele>87.62</ele>
        <time>2013-05-22T12:23:24Z</time>
      </trkpt>
      <trkpt lat="48.69567" lon="-3.44625">
        <ele>89.54</ele>
        <time>2013-05-22T12:23:44Z</time>
      </trkpt>
      <trkpt lat="48.69492" lon="-3.44561">
        <ele>92.9</ele>
        <time>2013-05-22T12:23:59Z</time>
      </trkpt>
      <trkpt lat="48.69421" lon="-3.4452">
        <ele>95.79</ele>
        <time>2013-05-22T12:24:13Z</time>
      </trkpt>
      <trkpt lat="48.69406" lon="-3.44515">
        <ele>96.27</ele>
        <time>2013-05-22T12:24:16Z</time>
      </trkpt>
      <trkpt lat="48.69323" lon="-3.44479">
        <ele>95.79</ele>
        <time>2013-05-22T12:24:30Z</time>
      </trkpt>
      <trkpt lat="48.69237" lon="-3.44485">
        <ele>94.83</ele>
        <time>2013-05-22T12:24:42Z</time>
      </trkpt>
      <trkpt lat="48.69129" lon="-3.44519">
        <ele>94.35</ele>
        <time>2013-05-22T12:24:58Z</time>
      </trkpt>
      <trkpt lat="48.69026" lon="-3.44547">
        <ele>93.39</ele>
        <time>2013-05-22T12:25:13Z</time>
      </trkpt>
      <trkpt lat="48.68909" lon="-3.4457">
        <ele>90.5</ele>
        <time>2013-05-22T12:25:28Z</time>
      </trkpt>
      <trkpt lat="48.68778" lon="-3.44587">
        <ele>90.02</ele>
        <time>2013-05-22T12:25:45Z</time>
      </trkpt>
      <trkpt lat="48.6867" lon="-3.44568">
        <ele>90.5</ele>
        <time>2013-05-22T12:26:00Z</time>
      </trkpt>
      <trkpt lat="48.68598" lon="-3.44548">
        <ele>91.46</ele>
        <time>2013-05-22T12:26:11Z</time>
      </trkpt>
      <trkpt lat="48.68508" lon="-3.4452">
        <ele>91.46</ele>
        <time>2013-05-22T12:26:25Z</time>
      </trkpt>
      <trkpt lat="48.68389" lon="-3.44506">
        <ele>91.94</ele>
        <time>2013-05-22T12:26:43Z</time>
      </trkpt>
      <trkpt lat="48.6827" lon="-3.44472">
        <ele>91.46</ele>
        <time>2013-05-22T12:27:00Z</time>
      </trkpt>
      <trkpt lat="48.68161" lon="-3.44438">
        <ele>91.94</ele>
        <time>2013-05-22T12:27:16Z</time>
      </trkpt>
      <trkpt lat="48.68062" lon="-3.44413">
        <ele>92.9</ele>
        <time>2013-05-22T12:27:31Z</time>
      </trkpt>
      <trkpt lat="48.67968" lon="-3.44383">
        <ele>94.83</ele>
        <time>2013-05-22T12:27:46Z</time>
      </trkpt>
      <trkpt lat="48.67892" lon="-3.44377">
        <ele>95.79</ele>
        <time>2013-05-22T12:27:58Z</time>
      </trkpt>
      <trkpt lat="48.67796" lon="-3.44413">
        <ele>95.79</ele>
        <time>2013-05-22T12:28:13Z</time>
      </trkpt>
      <trkpt lat="48.67689" lon="-3.44479">
        <ele>96.75</ele>
        <time>2013-05-22T12:28:31Z</time>
      </trkpt>
      <trkpt lat="48.67607" lon="-3.44506">
        <ele>97.23</ele>
        <time>2013-05-22T12:28:44Z</time>
      </trkpt>
      <trkpt lat="48.67601" lon="-3.44507">
        <ele>97.23</ele>
        <time>2013-05-22T12:28:45Z</time>
      </trkpt>
      <trkpt lat="48.6749" lon="-3.44509">
        <ele>96.75</ele>
        <time>2013-05-22T12:29:02Z</time>
      </trkpt>
      <trkpt lat="48.6741" lon="-3.44497">
        <ele>96.75</ele>
        <time>2013-05-22T12:29:14Z</time>
      </trkpt>
      <trkpt lat="48.67279" lon="-3.44457">
        <ele>96.75</ele>
        <time>2013-05-22T12:29:34Z</time>
      </trkpt>
      <trkpt lat="48.67161" lon="-3.44443">
        <ele>95.31</ele>
        <time>2013-05-22T12:29:51Z</time>
      </trkpt>
      <trkpt lat="48.67068" lon="-3.44456">
        <ele>95.79</ele>
        <time>2013-05-22T12:30:05Z</time>
      </trkpt>
      <trkpt lat="48.66973" lon="-3.44479">
        <ele>97.23</ele>
        <time>2013-05-22T12:30:20Z</time>
      </trkpt>
      <trkpt lat="48.6687" lon="-3.44474">
        <ele>97.71</ele>
        <time>2013-05-22T12:30:36Z</time>
      </trkpt>
      <trkpt lat="48.66745" lon="-3.44461">
        <ele>99.63</ele>
        <time>2013-05-22T12:30:55Z</time>
      </trkpt>
      <trkpt lat="48.66615" lon="-3.44448">
        <ele>101.08</ele>
        <time>2013-05-22T12:31:15Z</time>
      </trkpt>
      <trkpt lat="48.66506" lon="-3.44449">
        <ele>100.6</ele>
        <time>2013-05-22T12:31:31Z</time>
      </trkpt>
      <trkpt lat="48.66401" lon="-3.44453">
        <ele>100.11</ele>
        <time>2013-05-22T12:31:46Z</time>
      </trkpt>
      <trkpt lat="48.66283" lon="-3.44431">
        <ele>99.15</ele>
        <time>2013-05-22T12:32:02Z</time>
      </trkpt>
      <trkpt lat="48.66125" lon="-3.44391">
        <ele>96.75</ele>
        <time>2013-05-22T12:32:22Z</time>
      </trkpt>
      <trkpt lat="48.66013" lon="-3.44364">
        <ele>95.79</ele>
        <time>2013-05-22T12:32:37Z</time>
      </trkpt>
      <trkpt lat="48.65903" lon="-3.44352">
        <ele>97.71</ele>
        <time>2013-05-22T12:32:54Z</time>
      </trkpt>
      <trkpt lat="48.65802" lon="-3.44368">
        <ele>99.63</ele>
        <time>2013-05-22T12:33:10Z</time>
      </trkpt>
      <trkpt lat="48.65687" lon="-3.44411">
        <ele>102.52</ele>
        <time>2013-05-22T12:33:29Z</time>
      </trkpt>
      <trkpt lat="48.65577" lon="-3.44456">
        <ele>103.96</ele>
        <time>2013-05-22T12:33:47Z</time>
      </trkpt>
      <trkpt lat="48.65465" lon="-3.44497">
        <ele>106.36</ele>
        <time>2013-05-22T12:34:05Z</time>
      </trkpt>
      <trkpt lat="48.65354" lon="-3.44548">
        <ele>107.32</ele>
        <time>2013-05-22T12:34:23Z</time>
      </trkpt>
      <trkpt lat="48.65238" lon="-3.44592">
        <ele>107.81</ele>
        <time>2013-05-22T12:34:41Z</time>
      </trkpt>
      <trkpt lat="48.65119" lon="-3.44626">
        <ele>107.81</ele>
        <time>2013-05-22T12:34:59Z</time>
      </trkpt>
      <trkpt lat="48.64993" lon="-3.44643">
        <ele>107.81</ele>
        <time>2013-05-22T12:35:17Z</time>
      </trkpt>
      <trkpt lat="48.64864" lon="-3.4463">
        <ele>106.36</ele>
        <time>2013-05-22T12:35:35Z</time>
      </trkpt>
      <trkpt lat="48.64719" lon="-3.44599">
        <ele>106.84</ele>
        <time>2013-05-22T12:35:55Z</time>
      </trkpt>
      <trkpt lat="48.64618" lon="-3.44594">
        <ele>108.77</ele>
        <time>2013-05-22T12:36:10Z</time>
      </trkpt>
      <trkpt lat="48.64518" lon="-3.4463">
        <ele>110.69</ele>
        <time>2013-05-22T12:36:26Z</time>
      </trkpt>
      <trkpt lat="48.64417" lon="-3.44715">
        <ele>112.13</ele>
        <time>2013-05-22T12:36:44Z</time>
      </trkpt>
      <trkpt lat="48.64345" lon="-3.44813">
        <ele>113.09</ele>
        <time>2013-05-22T12:36:59Z</time>
      </trkpt>
      <trkpt lat="48.64256" lon="-3.44947">
        <ele>113.09</ele>
        <time>2013-05-22T12:37:18Z</time>
      </trkpt>
      <trkpt lat="48.64169" lon="-3.45074">
        <ele>111.65</ele>
        <time>2013-05-22T12:37:35Z</time>
      </trkpt>
      <trkpt lat="48.64067" lon="-3.45224">
        <ele>110.21</ele>
        <time>2013-05-22T12:37:54Z</time>
      </trkpt>
      <trkpt lat="48.63978" lon="-3.45355">
        <ele>111.65</ele>
        <time>2013-05-22T12:38:12Z</time>
      </trkpt>
      <trkpt lat="48.63894" lon="-3.45483">
        <ele>114.05</ele>
        <time>2013-05-22T12:38:30Z</time>
      </trkpt>
      <trkpt lat="48.63817" lon="-3.45595">
        <ele>114.53</ele>
        <time>2013-05-22T12:38:47Z</time>
      </trkpt>
      <trkpt lat="48.63735" lon="-3.45715">
        <ele>115.5</ele>
        <time>2013-05-22T12:39:05Z</time>
      </trkpt>
      <trkpt lat="48.63639" lon="-3.45834">
        <ele>116.46</ele>
        <time>2013-05-22T12:39:24Z</time>
      </trkpt>
      <trkpt lat="48.63537" lon="-3.45941">
        <ele>117.9</ele>
        <time>2013-05-22T12:39:44Z</time>
      </trkpt>
      <trkpt lat="48.63435" lon="-3.46048">
        <ele>120.3</ele>
        <time>2013-05-22T12:40:04Z</time>
      </trkpt>
      <trkpt lat="48.63399" lon="-3.46086">
        <ele>122.22</ele>
        <time>2013-05-22T12:40:11Z</time>
      </trkpt>
      <trkpt lat="48.63311" lon="-3.46179">
        <ele>122.71</ele>
        <time>2013-05-22T12:40:28Z</time>
      </trkpt>
      <trkpt lat="48.63216" lon="-3.46278">
        <ele>124.15</ele>
        <time>2013-05-22T12:40:46Z</time>
      </trkpt>
      <trkpt lat="48.63131" lon="-3.46368">
        <ele>127.51</ele>
        <time>2013-05-22T12:41:02Z</time>
      </trkpt>
      <trkpt lat="48.63013" lon="-3.46491">
        <ele>127.51</ele>
        <time>2013-05-22T12:41:24Z</time>
      </trkpt>
      <trkpt lat="48.62909" lon="-3.46569">
        <ele>128.95</ele>
        <time>2013-05-22T12:41:42Z</time>
      </trkpt>
      <trkpt lat="48.62802" lon="-3.46602">
        <ele>129.92</ele>
        <time>2013-05-22T12:41:59Z</time>
      </trkpt>
      <trkpt lat="48.62673" lon="-3.46624">
        <ele>131.36</ele>
        <time>2013-05-22T12:42:19Z</time>
      </trkpt>
      <trkpt lat="48.62547" lon="-3.4664">
        <ele>132.8</ele>
        <time>2013-05-22T12:42:38Z</time>
      </trkpt>
      <trkpt lat="48.6245" lon="-3.46655">
        <ele>133.76</ele>
        <time>2013-05-22T12:42:53Z</time>
      </trkpt>
      <trkpt lat="48.6243" lon="-3.4666">
        <ele>133.76</ele>
        <time>2013-05-22T12:42:56Z</time>
      </trkpt>
      <trkpt lat="48.62389" lon="-3.46684">
        <ele>133.76</ele>
        <time>2013-05-22T12:43:03Z</time>
      </trkpt>
      <trkpt lat="48.62384" lon="-3.46688">
        <ele>133.76</ele>
        <time>2013-05-22T12:43:04Z</time>
      </trkpt>
      <trkpt lat="48.62379" lon="-3.46692">
        <ele>133.76</ele>
        <time>2013-05-22T12:43:05Z</time>
      </trkpt>
      <trkpt lat="48.623" lon="-3.46723">
        <ele>131.84</ele>
        <time>2013-05-22T12:43:17Z</time>
      </trkpt>
      <trkpt lat="48.62201" lon="-3.46745">
        <ele>129.43</ele>
        <time>2013-05-22T12:43:30Z</time>
      </trkpt>
      <trkpt lat="48.62097" lon="-3.46789">
        <ele>128.47</ele>
        <time>2013-05-22T12:43:44Z</time>
      </trkpt>
      <trkpt lat="48.62017" lon="-3.46801">
        <ele>127.03</ele>
        <time>2013-05-22T12:43:55Z</time>
      </trkpt>
      <trkpt lat="48.61913" lon="-3.46821">
        <ele>125.59</ele>
        <time>2013-05-22T12:44:09Z</time>
      </trkpt>
      <trkpt lat="48.6188" lon="-3.46826">
        <ele>125.11</ele>
        <time>2013-05-22T12:44:13Z</time>
      </trkpt>
      <trkpt lat="48.61872" lon="-3.46824">
        <ele>125.11</ele>
        <time>2013-05-22T12:44:14Z</time>
      </trkpt>
      <trkpt lat="48.61828" lon="-3.46808">
        <ele>122.71</ele>
        <time>2013-05-22T12:44:19Z</time>
      </trkpt>
      <trkpt lat="48.61757" lon="-3.46802">
        <ele>120.78</ele>
        <time>2013-05-22T12:44:27Z</time>
      </trkpt>
      <trkpt lat="48.61667" lon="-3.46861">
        <ele>117.42</ele>
        <time>2013-05-22T12:44:39Z</time>
      </trkpt>
      <trkpt lat="48.61572" lon="-3.46955">
        <ele>115.98</ele>
        <time>2013-05-22T12:44:53Z</time>
      </trkpt>
      <trkpt lat="48.61529" lon="-3.46993">
        <ele>112.61</ele>
        <time>2013-05-22T12:44:59Z</time>
      </trkpt>
      <trkpt lat="48.6144" lon="-3.47068">
        <ele>112.13</ele>
        <time>2013-05-22T12:45:13Z</time>
      </trkpt>
      <trkpt lat="48.61419" lon="-3.47088">
        <ele>114.05</ele>
        <time>2013-05-22T12:45:18Z</time>
      </trkpt>
      <trkpt lat="48.61415" lon="-3.47092">
        <ele>114.05</ele>
        <time>2013-05-22T12:45:19Z</time>
      </trkpt>
      <trkpt lat="48.61369" lon="-3.47146">
        <ele>116.94</ele>
        <time>2013-05-22T12:45:31Z</time>
      </trkpt>
      <trkpt lat="48.61362" lon="-3.4716">
        <ele>116.46</ele>
        <time>2013-05-22T12:45:40Z</time>
      </trkpt>
      <trkpt lat="48.61362" lon="-3.47161">
        <ele>116.94</ele>
        <time>2013-05-22T12:45:43Z</time>
      </trkpt>
      <trkpt lat="48.6136" lon="-3.47163">
        <ele>116.94</ele>
        <time>2013-05-22T12:45:45Z</time>
      </trkpt>
      <trkpt lat="48.61354" lon="-3.47174">
        <ele>117.42</ele>
        <time>2013-05-22T12:45:54Z</time>
      </trkpt>
      <trkpt lat="48.61338" lon="-3.47204">
        <ele>118.86</ele>
        <time>2013-05-22T12:46:04Z</time>
      </trkpt>
      <trkpt lat="48.61327" lon="-3.47223">
        <ele>120.3</ele>
        <time>2013-05-22T12:46:08Z</time>
      </trkpt>
      <trkpt lat="48.61324" lon="-3.47227">
        <ele>120.3</ele>
        <time>2013-05-22T12:46:09Z</time>
      </trkpt>
      <trkpt lat="48.61317" lon="-3.47237">
        <ele>121.26</ele>
        <time>2013-05-22T12:46:11Z</time>
      </trkpt>
      <trkpt lat="48.61314" lon="-3.47241">
        <ele>121.74</ele>
        <time>2013-05-22T12:46:12Z</time>
      </trkpt>
      <trkpt lat="48.61301" lon="-3.47253">
        <ele>122.71</ele>
        <time>2013-05-22T12:46:16Z</time>
      </trkpt>
      <trkpt lat="48.61297" lon="-3.47254">
        <ele>123.19</ele>
        <time>2013-05-22T12:46:17Z</time>
      </trkpt>
      <trkpt lat="48.61292" lon="-3.47256">
        <ele>123.19</ele>
        <time>2013-05-22T12:46:18Z</time>
      </trkpt>
      <trkpt lat="48.61288" lon="-3.47258">
        <ele>123.19</ele>
        <time>2013-05-22T12:46:19Z</time>
      </trkpt>
      <trkpt lat="48.61283" lon="-3.4726">
        <ele>123.19</ele>
        <time>2013-05-22T12:46:20Z</time>
      </trkpt>
      <trkpt lat="48.61223" lon="-3.47272">
        <ele>122.71</ele>
        <time>2013-05-22T12:46:32Z</time>
      </trkpt>
      <trkpt lat="48.61192" lon="-3.47272">
        <ele>122.22</ele>
        <time>2013-05-22T12:46:37Z</time>
      </trkpt>
      <trkpt lat="48.61171" lon="-3.47266">
        <ele>121.26</ele>
        <time>2013-05-22T12:46:40Z</time>
      </trkpt>
      <trkpt lat="48.61165" lon="-3.47262">
        <ele>121.26</ele>
        <time>2013-05-22T12:46:41Z</time>
      </trkpt>
      <trkpt lat="48.61159" lon="-3.47258">
        <ele>120.78</ele>
        <time>2013-05-22T12:46:42Z</time>
      </trkpt>
      <trkpt lat="48.61079" lon="-3.47194">
        <ele>117.42</ele>
        <time>2013-05-22T12:46:54Z</time>
      </trkpt>
      <trkpt lat="48.61071" lon="-3.47188">
        <ele>116.94</ele>
        <time>2013-05-22T12:46:55Z</time>
      </trkpt>
      <trkpt lat="48.60989" lon="-3.47124">
        <ele>113.57</ele>
        <time>2013-05-22T12:47:05Z</time>
      </trkpt>
      <trkpt lat="48.60936" lon="-3.47088">
        <ele>110.69</ele>
        <time>2013-05-22T12:47:11Z</time>
      </trkpt>
      <trkpt lat="48.60864" lon="-3.47034">
        <ele>112.13</ele>
        <time>2013-05-22T12:47:21Z</time>
      </trkpt>
      <trkpt lat="48.60816" lon="-3.46997">
        <ele>114.05</ele>
        <time>2013-05-22T12:47:30Z</time>
      </trkpt>
      <trkpt lat="48.60811" lon="-3.46993">
        <ele>114.53</ele>
        <time>2013-05-22T12:47:31Z</time>
      </trkpt>
      <trkpt lat="48.60756" lon="-3.46953">
        <ele>117.42</ele>
        <time>2013-05-22T12:47:42Z</time>
      </trkpt>
      <trkpt lat="48.60709" lon="-3.46908">
        <ele>118.86</ele>
        <time>2013-05-22T12:47:53Z</time>
      </trkpt>
      <trkpt lat="48.60706" lon="-3.46902">
        <ele>118.86</ele>
        <time>2013-05-22T12:47:54Z</time>
      </trkpt>
      <trkpt lat="48.60703" lon="-3.46895">
        <ele>118.86</ele>
        <time>2013-05-22T12:47:55Z</time>
      </trkpt>
      <trkpt lat="48.607" lon="-3.46888">
        <ele>119.34</ele>
        <time>2013-05-22T12:47:56Z</time>
      </trkpt>
      <trkpt lat="48.60698" lon="-3.46881">
        <ele>119.82</ele>
        <time>2013-05-22T12:47:57Z</time>
      </trkpt>
      <trkpt lat="48.60688" lon="-3.46836">
        <ele>119.82</ele>
        <time>2013-05-22T12:48:03Z</time>
      </trkpt>
      <trkpt lat="48.6069" lon="-3.468">
        <ele>120.78</ele>
        <time>2013-05-22T12:48:08Z</time>
      </trkpt>
      <trkpt lat="48.6067" lon="-3.46673">
        <ele>122.71</ele>
        <time>2013-05-22T12:48:24Z</time>
      </trkpt>
      <trkpt lat="48.6067" lon="-3.46664">
        <ele>122.22</ele>
        <time>2013-05-22T12:48:25Z</time>
      </trkpt>
      <trkpt lat="48.60669" lon="-3.46657">
        <ele>122.71</ele>
        <time>2013-05-22T12:48:26Z</time>
      </trkpt>
      <trkpt lat="48.60668" lon="-3.46649">
        <ele>122.71</ele>
        <time>2013-05-22T12:48:27Z</time>
      </trkpt>
      <trkpt lat="48.60668" lon="-3.46641">
        <ele>122.71</ele>
        <time>2013-05-22T12:48:28Z</time>
      </trkpt>
      <trkpt lat="48.60667" lon="-3.46633">
        <ele>122.71</ele>
        <time>2013-05-22T12:48:29Z</time>
      </trkpt>
      <trkpt lat="48.60653" lon="-3.46508">
        <ele>121.26</ele>
        <time>2013-05-22T12:48:43Z</time>
      </trkpt>
      <trkpt lat="48.60634" lon="-3.46377">
        <ele>118.86</ele>
        <time>2013-05-22T12:48:56Z</time>
      </trkpt>
      <trkpt lat="48.60624" lon="-3.46349">
        <ele>117.42</ele>
        <time>2013-05-22T12:48:59Z</time>
      </trkpt>
      <trkpt lat="48.6062" lon="-3.46342">
        <ele>117.42</ele>
        <time>2013-05-22T12:49:00Z</time>
      </trkpt>
      <trkpt lat="48.60615" lon="-3.46335">
        <ele>117.42</ele>
        <time>2013-05-22T12:49:01Z</time>
      </trkpt>
      <trkpt lat="48.6061" lon="-3.4633">
        <ele>117.42</ele>
        <time>2013-05-22T12:49:02Z</time>
      </trkpt>
      <trkpt lat="48.60605" lon="-3.46325">
        <ele>117.42</ele>
        <time>2013-05-22T12:49:03Z</time>
      </trkpt>
      <trkpt lat="48.60601" lon="-3.4632">
        <ele>117.9</ele>
        <time>2013-05-22T12:49:04Z</time>
      </trkpt>
      <trkpt lat="48.60595" lon="-3.46318">
        <ele>117.9</ele>
        <time>2013-05-22T12:49:05Z</time>
      </trkpt>
      <trkpt lat="48.60582" lon="-3.46316">
        <ele>117.42</ele>
        <time>2013-05-22T12:49:07Z</time>
      </trkpt>
      <trkpt lat="48.60575" lon="-3.46317">
        <ele>117.42</ele>
        <time>2013-05-22T12:49:08Z</time>
      </trkpt>
      <trkpt lat="48.60569" lon="-3.46319">
        <ele>117.9</ele>
        <time>2013-05-22T12:49:09Z</time>
      </trkpt>
      <trkpt lat="48.60564" lon="-3.46322">
        <ele>117.9</ele>
        <time>2013-05-22T12:49:10Z</time>
      </trkpt>
      <trkpt lat="48.60561" lon="-3.46327">
        <ele>117.9</ele>
        <time>2013-05-22T12:49:11Z</time>
      </trkpt>
      <trkpt lat="48.60558" lon="-3.46333">
        <ele>118.38</ele>
        <time>2013-05-22T12:49:12Z</time>
      </trkpt>
      <trkpt lat="48.60555" lon="-3.46341">
        <ele>118.86</ele>
        <time>2013-05-22T12:49:13Z</time>
      </trkpt>
      <trkpt lat="48.60552" lon="-3.46347">
        <ele>118.86</ele>
        <time>2013-05-22T12:49:14Z</time>
      </trkpt>
      <trkpt lat="48.60549" lon="-3.46354">
        <ele>118.86</ele>
        <time>2013-05-22T12:49:15Z</time>
      </trkpt>
      <trkpt lat="48.60545" lon="-3.4636">
        <ele>119.34</ele>
        <time>2013-05-22T12:49:16Z</time>
      </trkpt>
      <trkpt lat="48.60531" lon="-3.46377">
        <ele>118.86</ele>
        <time>2013-05-22T12:49:19Z</time>
      </trkpt>
      <trkpt lat="48.60525" lon="-3.4638">
        <ele>118.86</ele>
        <time>2013-05-22T12:49:20Z</time>
      </trkpt>
      <trkpt lat="48.60518" lon="-3.4638">
        <ele>118.38</ele>
        <time>2013-05-22T12:49:21Z</time>
      </trkpt>
      <trkpt lat="48.60511" lon="-3.46379">
        <ele>117.9</ele>
        <time>2013-05-22T12:49:22Z</time>
      </trkpt>
      <trkpt lat="48.60503" lon="-3.46375">
        <ele>117.42</ele>
        <time>2013-05-22T12:49:23Z</time>
      </trkpt>
      <trkpt lat="48.60496" lon="-3.4637">
        <ele>116.46</ele>
        <time>2013-05-22T12:49:24Z</time>
      </trkpt>
      <trkpt lat="48.60488" lon="-3.46363">
        <ele>116.46</ele>
        <time>2013-05-22T12:49:25Z</time>
      </trkpt>
      <trkpt lat="48.60482" lon="-3.46357">
        <ele>116.46</ele>
        <time>2013-05-22T12:49:26Z</time>
      </trkpt>
      <trkpt lat="48.60475" lon="-3.4635">
        <ele>116.46</ele>
        <time>2013-05-22T12:49:27Z</time>
      </trkpt>
      <trkpt lat="48.60431" lon="-3.46303">
        <ele>115.98</ele>
        <time>2013-05-22T12:49:34Z</time>
      </trkpt>
      <trkpt lat="48.60424" lon="-3.463">
        <ele>116.46</ele>
        <time>2013-05-22T12:49:35Z</time>
      </trkpt>
      <trkpt lat="48.60333" lon="-3.46265">
        <ele>119.82</ele>
        <time>2013-05-22T12:49:50Z</time>
      </trkpt>
      <trkpt lat="48.60299" lon="-3.46241">
        <ele>119.82</ele>
        <time>2013-05-22T12:49:57Z</time>
      </trkpt>
      <trkpt lat="48.60295" lon="-3.46236">
        <ele>119.82</ele>
        <time>2013-05-22T12:49:58Z</time>
      </trkpt>
      <trkpt lat="48.60292" lon="-3.46231">
        <ele>120.3</ele>
        <time>2013-05-22T12:49:59Z</time>
      </trkpt>
      <trkpt lat="48.60289" lon="-3.46225">
        <ele>120.3</ele>
        <time>2013-05-22T12:50:00Z</time>
      </trkpt>
      <trkpt lat="48.60287" lon="-3.46219">
        <ele>120.78</ele>
        <time>2013-05-22T12:50:01Z</time>
      </trkpt>
      <trkpt lat="48.60285" lon="-3.46213">
        <ele>120.78</ele>
        <time>2013-05-22T12:50:02Z</time>
      </trkpt>
      <trkpt lat="48.60283" lon="-3.46207">
        <ele>120.78</ele>
        <time>2013-05-22T12:50:03Z</time>
      </trkpt>
      <trkpt lat="48.60282" lon="-3.46201">
        <ele>121.26</ele>
        <time>2013-05-22T12:50:04Z</time>
      </trkpt>
      <trkpt lat="48.60282" lon="-3.46196">
        <ele>121.74</ele>
        <time>2013-05-22T12:50:05Z</time>
      </trkpt>
      <trkpt lat="48.60281" lon="-3.46189">
        <ele>121.74</ele>
        <time>2013-05-22T12:50:06Z</time>
      </trkpt>
      <trkpt lat="48.60296" lon="-3.46095">
        <ele>122.22</ele>
        <time>2013-05-22T12:50:18Z</time>
      </trkpt>
      <trkpt lat="48.60296" lon="-3.4598">
        <ele>123.19</ele>
        <time>2013-05-22T12:50:32Z</time>
      </trkpt>
      <trkpt lat="48.60294" lon="-3.45972">
        <ele>123.67</ele>
        <time>2013-05-22T12:50:33Z</time>
      </trkpt>
      <trkpt lat="48.6027" lon="-3.45895">
        <ele>124.63</ele>
        <time>2013-05-22T12:50:43Z</time>
      </trkpt>
      <trkpt lat="48.60245" lon="-3.45847">
        <ele>126.07</ele>
        <time>2013-05-22T12:50:51Z</time>
      </trkpt>
      <trkpt lat="48.60241" lon="-3.45842">
        <ele>126.07</ele>
        <time>2013-05-22T12:50:52Z</time>
      </trkpt>
      <trkpt lat="48.60212" lon="-3.45785">
        <ele>127.03</ele>
        <time>2013-05-22T12:51:03Z</time>
      </trkpt>
      <trkpt lat="48.60162" lon="-3.45715">
        <ele>127.51</ele>
        <time>2013-05-22T12:51:16Z</time>
      </trkpt>
      <trkpt lat="48.60144" lon="-3.45695">
        <ele>127.99</ele>
        <time>2013-05-22T12:51:20Z</time>
      </trkpt>
      <trkpt lat="48.60074" lon="-3.4562">
        <ele>128.95</ele>
        <time>2013-05-22T12:51:32Z</time>
      </trkpt>
      <trkpt lat="48.59987" lon="-3.45509">
        <ele>129.92</ele>
        <time>2013-05-22T12:51:51Z</time>
      </trkpt>
      <trkpt lat="48.59928" lon="-3.45429">
        <ele>133.28</ele>
        <time>2013-05-22T12:52:05Z</time>
      </trkpt>
      <trkpt lat="48.59873" lon="-3.4536">
        <ele>136.64</ele>
        <time>2013-05-22T12:52:18Z</time>
      </trkpt>
      <trkpt lat="48.59789" lon="-3.45253">
        <ele>138.57</ele>
        <time>2013-05-22T12:52:38Z</time>
      </trkpt>
      <trkpt lat="48.59725" lon="-3.45206">
        <ele>138.57</ele>
        <time>2013-05-22T12:52:49Z</time>
      </trkpt>
      <trkpt lat="48.59624" lon="-3.45198">
        <ele>137.13</ele>
        <time>2013-05-22T12:53:04Z</time>
      </trkpt>
      <trkpt lat="48.595" lon="-3.4517">
        <ele>136.16</ele>
        <time>2013-05-22T12:53:22Z</time>
      </trkpt>
      <trkpt lat="48.5946" lon="-3.45167">
        <ele>136.64</ele>
        <time>2013-05-22T12:53:28Z</time>
      </trkpt>
      <trkpt lat="48.59345" lon="-3.45189">
        <ele>138.09</ele>
        <time>2013-05-22T12:53:46Z</time>
      </trkpt>
      <trkpt lat="48.59268" lon="-3.4518">
        <ele>140.01</ele>
        <time>2013-05-22T12:54:00Z</time>
      </trkpt>
      <trkpt lat="48.59256" lon="-3.45175">
        <ele>140.01</ele>
        <time>2013-05-22T12:54:02Z</time>
      </trkpt>
      <trkpt lat="48.5918" lon="-3.45131">
        <ele>141.93</ele>
        <time>2013-05-22T12:54:16Z</time>
      </trkpt>
      <trkpt lat="48.59078" lon="-3.45063">
        <ele>144.34</ele>
        <time>2013-05-22T12:54:35Z</time>
      </trkpt>
      <trkpt lat="48.58985" lon="-3.45043">
        <ele>146.26</ele>
        <time>2013-05-22T12:54:51Z</time>
      </trkpt>
      <trkpt lat="48.5888" lon="-3.45043">
        <ele>149.62</ele>
        <time>2013-05-22T12:55:09Z</time>
      </trkpt>
      <trkpt lat="48.58786" lon="-3.45043">
        <ele>151.54</ele>
        <time>2013-05-22T12:55:26Z</time>
      </trkpt>
      <trkpt lat="48.5869" lon="-3.45042">
        <ele>154.43</ele>
        <time>2013-05-22T12:55:44Z</time>
      </trkpt>
      <trkpt lat="48.58589" lon="-3.45069">
        <ele>155.39</ele>
        <time>2013-05-22T12:56:03Z</time>
      </trkpt>
      <trkpt lat="48.58538" lon="-3.45158">
        <ele>157.31</ele>
        <time>2013-05-22T12:56:17Z</time>
      </trkpt>
      <trkpt lat="48.58496" lon="-3.45306">
        <ele>157.79</ele>
        <time>2013-05-22T12:56:36Z</time>
      </trkpt>
      <trkpt lat="48.58461" lon="-3.45415">
        <ele>161.16</ele>
        <time>2013-05-22T12:56:52Z</time>
      </trkpt>
      <trkpt lat="48.58409" lon="-3.45507">
        <ele>164.04</ele>
        <time>2013-05-22T12:57:09Z</time>
      </trkpt>
      <trkpt lat="48.58364" lon="-3.45555">
        <ele>166.93</ele>
        <time>2013-05-22T12:57:21Z</time>
      </trkpt>
      <trkpt lat="48.58306" lon="-3.45605">
        <ele>169.81</ele>
        <time>2013-05-22T12:57:36Z</time>
      </trkpt>
      <trkpt lat="48.58252" lon="-3.45658">
        <ele>173.17</ele>
        <time>2013-05-22T12:57:50Z</time>
      </trkpt>
      <trkpt lat="48.58188" lon="-3.45736">
        <ele>174.62</ele>
        <time>2013-05-22T12:58:07Z</time>
      </trkpt>
      <trkpt lat="48.58116" lon="-3.45828">
        <ele>177.02</ele>
        <time>2013-05-22T12:58:26Z</time>
      </trkpt>
      <trkpt lat="48.58036" lon="-3.45934">
        <ele>178.94</ele>
        <time>2013-05-22T12:58:46Z</time>
      </trkpt>
      <trkpt lat="48.57976" lon="-3.46022">
        <ele>182.31</ele>
        <time>2013-05-22T12:59:02Z</time>
      </trkpt>
      <trkpt lat="48.57969" lon="-3.46034">
        <ele>182.79</ele>
        <time>2013-05-22T12:59:04Z</time>
      </trkpt>
      <trkpt lat="48.57928" lon="-3.46119">
        <ele>186.15</ele>
        <time>2013-05-22T12:59:18Z</time>
      </trkpt>
      <trkpt lat="48.57908" lon="-3.46161">
        <ele>187.11</ele>
        <time>2013-05-22T12:59:25Z</time>
      </trkpt>
      <trkpt lat="48.5786" lon="-3.46254">
        <ele>190.48</ele>
        <time>2013-05-22T12:59:41Z</time>
      </trkpt>
      <trkpt lat="48.57843" lon="-3.4629">
        <ele>191.44</ele>
        <time>2013-05-22T12:59:47Z</time>
      </trkpt>
      <trkpt lat="48.57829" lon="-3.4631">
        <ele>193.36</ele>
        <time>2013-05-22T12:59:51Z</time>
      </trkpt>
      <trkpt lat="48.57817" lon="-3.46322">
        <ele>192.88</ele>
        <time>2013-05-22T12:59:54Z</time>
      </trkpt>
      <trkpt lat="48.57813" lon="-3.46325">
        <ele>192.88</ele>
        <time>2013-05-22T12:59:55Z</time>
      </trkpt>
      <trkpt lat="48.57794" lon="-3.46335">
        <ele>193.36</ele>
        <time>2013-05-22T12:59:59Z</time>
      </trkpt>
      <trkpt lat="48.5777" lon="-3.46342">
        <ele>193.36</ele>
        <time>2013-05-22T13:00:04Z</time>
      </trkpt>
      <trkpt lat="48.57765" lon="-3.46343">
        <ele>193.36</ele>
        <time>2013-05-22T13:00:05Z</time>
      </trkpt>
      <trkpt lat="48.5776" lon="-3.46342">
        <ele>193.36</ele>
        <time>2013-05-22T13:00:06Z</time>
      </trkpt>
      <trkpt lat="48.57679" lon="-3.46326">
        <ele>193.84</ele>
        <time>2013-05-22T13:00:21Z</time>
      </trkpt>
      <trkpt lat="48.57586" lon="-3.46305">
        <ele>195.28</ele>
        <time>2013-05-22T13:00:38Z</time>
      </trkpt>
      <trkpt lat="48.57489" lon="-3.4628">
        <ele>195.77</ele>
        <time>2013-05-22T13:00:55Z</time>
      </trkpt>
      <trkpt lat="48.57386" lon="-3.46256">
        <ele>194.8</ele>
        <time>2013-05-22T13:01:12Z</time>
      </trkpt>
      <trkpt lat="48.57267" lon="-3.46229">
        <ele>191.92</ele>
        <time>2013-05-22T13:01:28Z</time>
      </trkpt>
      <trkpt lat="48.57204" lon="-3.46213">
        <ele>191.44</ele>
        <time>2013-05-22T13:01:37Z</time>
      </trkpt>
      <trkpt lat="48.57105" lon="-3.46164">
        <ele>192.4</ele>
        <time>2013-05-22T13:01:53Z</time>
      </trkpt>
      <trkpt lat="48.57032" lon="-3.46108">
        <ele>191.92</ele>
        <time>2013-05-22T13:02:05Z</time>
      </trkpt>
      <trkpt lat="48.56933" lon="-3.46025">
        <ele>190.48</ele>
        <time>2013-05-22T13:02:21Z</time>
      </trkpt>
      <trkpt lat="48.56849" lon="-3.4594">
        <ele>192.88</ele>
        <time>2013-05-22T13:02:37Z</time>
      </trkpt>
      <trkpt lat="48.56771" lon="-3.45839">
        <ele>192.4</ele>
        <time>2013-05-22T13:02:54Z</time>
      </trkpt>
      <trkpt lat="48.56722" lon="-3.4578">
        <ele>191.92</ele>
        <time>2013-05-22T13:03:03Z</time>
      </trkpt>
      <trkpt lat="48.56654" lon="-3.45686">
        <ele>191.92</ele>
        <time>2013-05-22T13:03:17Z</time>
      </trkpt>
      <trkpt lat="48.56584" lon="-3.45601">
        <ele>188.56</ele>
        <time>2013-05-22T13:03:29Z</time>
      </trkpt>
      <trkpt lat="48.56565" lon="-3.45569">
        <ele>187.11</ele>
        <time>2013-05-22T13:03:32Z</time>
      </trkpt>
      <trkpt lat="48.56536" lon="-3.45517">
        <ele>187.11</ele>
        <time>2013-05-22T13:03:37Z</time>
      </trkpt>
      <trkpt lat="48.5653" lon="-3.4551">
        <ele>186.63</ele>
        <time>2013-05-22T13:03:38Z</time>
      </trkpt>
      <trkpt lat="48.56524" lon="-3.45505">
        <ele>187.11</ele>
        <time>2013-05-22T13:03:39Z</time>
      </trkpt>
      <trkpt lat="48.56518" lon="-3.45501">
        <ele>187.11</ele>
        <time>2013-05-22T13:03:40Z</time>
      </trkpt>
      <trkpt lat="48.56512" lon="-3.45497">
        <ele>187.59</ele>
        <time>2013-05-22T13:03:41Z</time>
      </trkpt>
      <trkpt lat="48.56493" lon="-3.45488">
        <ele>188.08</ele>
        <time>2013-05-22T13:03:44Z</time>
      </trkpt>
      <trkpt lat="48.56392" lon="-3.45474">
        <ele>187.11</ele>
        <time>2013-05-22T13:03:59Z</time>
      </trkpt>
      <trkpt lat="48.56323" lon="-3.4544">
        <ele>184.71</ele>
        <time>2013-05-22T13:04:08Z</time>
      </trkpt>
      <trkpt lat="48.56314" lon="-3.45438">
        <ele>184.23</ele>
        <time>2013-05-22T13:04:09Z</time>
      </trkpt>
      <trkpt lat="48.56305" lon="-3.45439">
        <ele>183.75</ele>
        <time>2013-05-22T13:04:10Z</time>
      </trkpt>
      <trkpt lat="48.56253" lon="-3.45448">
        <ele>182.79</ele>
        <time>2013-05-22T13:04:16Z</time>
      </trkpt>
      <trkpt lat="48.56245" lon="-3.45447">
        <ele>182.79</ele>
        <time>2013-05-22T13:04:17Z</time>
      </trkpt>
      <trkpt lat="48.56238" lon="-3.45443">
        <ele>183.27</ele>
        <time>2013-05-22T13:04:18Z</time>
      </trkpt>
      <trkpt lat="48.56231" lon="-3.45438">
        <ele>183.27</ele>
        <time>2013-05-22T13:04:19Z</time>
      </trkpt>
      <trkpt lat="48.56225" lon="-3.45432">
        <ele>183.75</ele>
        <time>2013-05-22T13:04:20Z</time>
      </trkpt>
      <trkpt lat="48.56221" lon="-3.45425">
        <ele>184.71</ele>
        <time>2013-05-22T13:04:21Z</time>
      </trkpt>
      <trkpt lat="48.56217" lon="-3.45418">
        <ele>184.71</ele>
        <time>2013-05-22T13:04:22Z</time>
      </trkpt>
      <trkpt lat="48.56166" lon="-3.4533">
        <ele>182.79</ele>
        <time>2013-05-22T13:04:33Z</time>
      </trkpt>
      <trkpt lat="48.56109" lon="-3.45246">
        <ele>182.31</ele>
        <time>2013-05-22T13:04:44Z</time>
      </trkpt>
      <trkpt lat="48.56075" lon="-3.45208">
        <ele>184.71</ele>
        <time>2013-05-22T13:04:52Z</time>
      </trkpt>
      <trkpt lat="48.5607" lon="-3.45205">
        <ele>184.71</ele>
        <time>2013-05-22T13:04:53Z</time>
      </trkpt>
      <trkpt lat="48.56003" lon="-3.4517">
        <ele>187.59</ele>
        <time>2013-05-22T13:05:07Z</time>
      </trkpt>
      <trkpt lat="48.55953" lon="-3.45133">
        <ele>190.96</ele>
        <time>2013-05-22T13:05:18Z</time>
      </trkpt>
      <trkpt lat="48.55917" lon="-3.45103">
        <ele>193.84</ele>
        <time>2013-05-22T13:05:27Z</time>
      </trkpt>
      <trkpt lat="48.55871" lon="-3.45057">
        <ele>196.73</ele>
        <time>2013-05-22T13:05:39Z</time>
      </trkpt>
      <trkpt lat="48.55811" lon="-3.4497">
        <ele>199.61</ele>
        <time>2013-05-22T13:05:55Z</time>
      </trkpt>
      <trkpt lat="48.55808" lon="-3.44964">
        <ele>199.61</ele>
        <time>2013-05-22T13:05:56Z</time>
      </trkpt>
      <trkpt lat="48.55794" lon="-3.44933">
        <ele>200.57</ele>
        <time>2013-05-22T13:06:01Z</time>
      </trkpt>
      <trkpt lat="48.55792" lon="-3.44927">
        <ele>201.05</ele>
        <time>2013-05-22T13:06:02Z</time>
      </trkpt>
      <trkpt lat="48.55745" lon="-3.44814">
        <ele>203.94</ele>
        <time>2013-05-22T13:06:20Z</time>
      </trkpt>
      <trkpt lat="48.55717" lon="-3.44728">
        <ele>205.86</ele>
        <time>2013-05-22T13:06:34Z</time>
      </trkpt>
      <trkpt lat="48.5571" lon="-3.44722">
        <ele>205.86</ele>
        <time>2013-05-22T13:06:36Z</time>
      </trkpt>
      <trkpt lat="48.55708" lon="-3.44716">
        <ele>205.86</ele>
        <time>2013-05-22T13:06:37Z</time>
      </trkpt>
      <trkpt lat="48.55707" lon="-3.44709">
        <ele>205.86</ele>
        <time>2013-05-22T13:06:38Z</time>
      </trkpt>
      <trkpt lat="48.55706" lon="-3.44686">
        <ele>205.38</ele>
        <time>2013-05-22T13:06:41Z</time>
      </trkpt>
      <trkpt lat="48.55704" lon="-3.44679">
        <ele>205.38</ele>
        <time>2013-05-22T13:06:42Z</time>
      </trkpt>
      <trkpt lat="48.55665" lon="-3.44553">
        <ele>207.78</ele>
        <time>2013-05-22T13:06:59Z</time>
      </trkpt>
      <trkpt lat="48.55635" lon="-3.44461">
        <ele>209.22</ele>
        <time>2013-05-22T13:07:12Z</time>
      </trkpt>
      <trkpt lat="48.55608" lon="-3.44377">
        <ele>206.34</ele>
        <time>2013-05-22T13:07:24Z</time>
      </trkpt>
      <trkpt lat="48.55584" lon="-3.44315">
        <ele>204.42</ele>
        <time>2013-05-22T13:07:33Z</time>
      </trkpt>
      <trkpt lat="48.55552" lon="-3.44169">
        <ele>201.53</ele>
        <time>2013-05-22T13:07:46Z</time>
      </trkpt>
      <trkpt lat="48.55542" lon="-3.44114">
        <ele>199.61</ele>
        <time>2013-05-22T13:07:51Z</time>
      </trkpt>
      <trkpt lat="48.55538" lon="-3.44107">
        <ele>200.57</ele>
        <time>2013-05-22T13:07:52Z</time>
      </trkpt>
      <trkpt lat="48.55535" lon="-3.44101">
        <ele>199.13</ele>
        <time>2013-05-22T13:07:53Z</time>
      </trkpt>
      <trkpt lat="48.5553" lon="-3.44097">
        <ele>199.13</ele>
        <time>2013-05-22T13:07:54Z</time>
      </trkpt>
      <trkpt lat="48.55524" lon="-3.44097">
        <ele>199.13</ele>
        <time>2013-05-22T13:07:55Z</time>
      </trkpt>
      <trkpt lat="48.55517" lon="-3.44099">
        <ele>198.65</ele>
        <time>2013-05-22T13:07:56Z</time>
      </trkpt>
      <trkpt lat="48.55511" lon="-3.44102">
        <ele>198.65</ele>
        <time>2013-05-22T13:07:57Z</time>
      </trkpt>
      <trkpt lat="48.55497" lon="-3.44109">
        <ele>197.69</ele>
        <time>2013-05-22T13:07:59Z</time>
      </trkpt>
      <trkpt lat="48.55402" lon="-3.44139">
        <ele>195.28</ele>
        <time>2013-05-22T13:08:12Z</time>
      </trkpt>
      <trkpt lat="48.55394" lon="-3.44137">
        <ele>194.8</ele>
        <time>2013-05-22T13:08:13Z</time>
      </trkpt>
      <trkpt lat="48.55365" lon="-3.44129">
        <ele>194.32</ele>
        <time>2013-05-22T13:08:17Z</time>
      </trkpt>
      <trkpt lat="48.55312" lon="-3.4413">
        <ele>193.36</ele>
        <time>2013-05-22T13:08:24Z</time>
      </trkpt>
      <trkpt lat="48.55304" lon="-3.44132">
        <ele>192.88</ele>
        <time>2013-05-22T13:08:25Z</time>
      </trkpt>
      <trkpt lat="48.55275" lon="-3.44144">
        <ele>192.88</ele>
        <time>2013-05-22T13:08:29Z</time>
      </trkpt>
      <trkpt lat="48.55268" lon="-3.44146">
        <ele>192.4</ele>
        <time>2013-05-22T13:08:30Z</time>
      </trkpt>
      <trkpt lat="48.55261" lon="-3.44147">
        <ele>192.4</ele>
        <time>2013-05-22T13:08:31Z</time>
      </trkpt>
      <trkpt lat="48.55254" lon="-3.44146">
        <ele>192.4</ele>
        <time>2013-05-22T13:08:32Z</time>
      </trkpt>
      <trkpt lat="48.55247" lon="-3.44146">
        <ele>191.44</ele>
        <time>2013-05-22T13:08:33Z</time>
      </trkpt>
      <trkpt lat="48.55233" lon="-3.44142">
        <ele>191.44</ele>
        <time>2013-05-22T13:08:35Z</time>
      </trkpt>
      <trkpt lat="48.5514" lon="-3.44093">
        <ele>189.04</ele>
        <time>2013-05-22T13:08:49Z</time>
      </trkpt>
      <trkpt lat="48.55133" lon="-3.44092">
        <ele>189.04</ele>
        <time>2013-05-22T13:08:50Z</time>
      </trkpt>
      <trkpt lat="48.55127" lon="-3.44092">
        <ele>189.04</ele>
        <time>2013-05-22T13:08:51Z</time>
      </trkpt>
      <trkpt lat="48.5512" lon="-3.44093">
        <ele>189.04</ele>
        <time>2013-05-22T13:08:52Z</time>
      </trkpt>
      <trkpt lat="48.55054" lon="-3.44112">
        <ele>187.59</ele>
        <time>2013-05-22T13:09:04Z</time>
      </trkpt>
      <trkpt lat="48.55052" lon="-3.44113">
        <ele>187.11</ele>
        <time>2013-05-22T13:09:15Z</time>
      </trkpt>
      <trkpt lat="48.55051" lon="-3.44113">
        <ele>187.11</ele>
        <time>2013-05-22T13:09:21Z</time>
      </trkpt>
      <trkpt lat="48.55049" lon="-3.44112">
        <ele>187.11</ele>
        <time>2013-05-22T13:09:22Z</time>
      </trkpt>
      <trkpt lat="48.55048" lon="-3.44111">
        <ele>187.11</ele>
        <time>2013-05-22T13:09:23Z</time>
      </trkpt>
      <trkpt lat="48.55046" lon="-3.44111">
        <ele>187.11</ele>
        <time>2013-05-22T13:09:24Z</time>
      </trkpt>
      <trkpt lat="48.55043" lon="-3.44111">
        <ele>187.11</ele>
        <time>2013-05-22T13:09:25Z</time>
      </trkpt>
      <trkpt lat="48.5504" lon="-3.44111">
        <ele>187.11</ele>
        <time>2013-05-22T13:09:26Z</time>
      </trkpt>
      <trkpt lat="48.55036" lon="-3.4411">
        <ele>187.11</ele>
        <time>2013-05-22T13:09:27Z</time>
      </trkpt>
      <trkpt lat="48.55032" lon="-3.44109">
        <ele>187.11</ele>
        <time>2013-05-22T13:09:28Z</time>
      </trkpt>
      <trkpt lat="48.54953" lon="-3.44103">
        <ele>187.59</ele>
        <time>2013-05-22T13:09:43Z</time>
      </trkpt>
      <trkpt lat="48.54884" lon="-3.44107">
        <ele>187.59</ele>
        <time>2013-05-22T13:09:55Z</time>
      </trkpt>
      <trkpt lat="48.54792" lon="-3.44109">
        <ele>187.11</ele>
        <time>2013-05-22T13:10:10Z</time>
      </trkpt>
      <trkpt lat="48.54781" lon="-3.44107">
        <ele>187.11</ele>
        <time>2013-05-22T13:10:12Z</time>
      </trkpt>
      <trkpt lat="48.54775" lon="-3.44106">
        <ele>186.63</ele>
        <time>2013-05-22T13:10:13Z</time>
      </trkpt>
      <trkpt lat="48.54684" lon="-3.44098">
        <ele>187.59</ele>
        <time>2013-05-22T13:10:29Z</time>
      </trkpt>
      <trkpt lat="48.5461" lon="-3.44097">
        <ele>188.56</ele>
        <time>2013-05-22T13:10:42Z</time>
      </trkpt>
      <trkpt lat="48.54526" lon="-3.44106">
        <ele>189.52</ele>
        <time>2013-05-22T13:10:57Z</time>
      </trkpt>
      <trkpt lat="48.54455" lon="-3.44119">
        <ele>189.52</ele>
        <time>2013-05-22T13:11:10Z</time>
      </trkpt>
      <trkpt lat="48.5442" lon="-3.4413">
        <ele>189.52</ele>
        <time>2013-05-22T13:11:16Z</time>
      </trkpt>
      <trkpt lat="48.54339" lon="-3.44186">
        <ele>187.11</ele>
        <time>2013-05-22T13:11:30Z</time>
      </trkpt>
      <trkpt lat="48.54213" lon="-3.44284">
        <ele>185.19</ele>
        <time>2013-05-22T13:11:48Z</time>
      </trkpt>
      <trkpt lat="48.54111" lon="-3.44359">
        <ele>182.79</ele>
        <time>2013-05-22T13:12:04Z</time>
      </trkpt>
      <trkpt lat="48.54015" lon="-3.44441">
        <ele>181.35</ele>
        <time>2013-05-22T13:12:19Z</time>
      </trkpt>
      <trkpt lat="48.53927" lon="-3.44565">
        <ele>178.94</ele>
        <time>2013-05-22T13:12:35Z</time>
      </trkpt>
      <trkpt lat="48.53815" lon="-3.44703">
        <ele>177.02</ele>
        <time>2013-05-22T13:12:53Z</time>
      </trkpt>
      <trkpt lat="48.53719" lon="-3.44819">
        <ele>176.06</ele>
        <time>2013-05-22T13:13:09Z</time>
      </trkpt>
      <trkpt lat="48.53625" lon="-3.44938">
        <ele>176.06</ele>
        <time>2013-05-22T13:13:26Z</time>
      </trkpt>
      <trkpt lat="48.53602" lon="-3.44971">
        <ele>175.1</ele>
        <time>2013-05-22T13:13:30Z</time>
      </trkpt>
      <trkpt lat="48.53597" lon="-3.44982">
        <ele>174.62</ele>
        <time>2013-05-22T13:13:31Z</time>
      </trkpt>
      <trkpt lat="48.53593" lon="-3.44993">
        <ele>175.1</ele>
        <time>2013-05-22T13:13:32Z</time>
      </trkpt>
      <trkpt lat="48.53591" lon="-3.45005">
        <ele>173.66</ele>
        <time>2013-05-22T13:13:33Z</time>
      </trkpt>
      <trkpt lat="48.53592" lon="-3.45017">
        <ele>173.66</ele>
        <time>2013-05-22T13:13:34Z</time>
      </trkpt>
      <trkpt lat="48.53595" lon="-3.45029">
        <ele>173.17</ele>
        <time>2013-05-22T13:13:35Z</time>
      </trkpt>
      <trkpt lat="48.536" lon="-3.4504">
        <ele>172.69</ele>
        <time>2013-05-22T13:13:36Z</time>
      </trkpt>
      <trkpt lat="48.53605" lon="-3.4505">
        <ele>172.21</ele>
        <time>2013-05-22T13:13:37Z</time>
      </trkpt>
      <trkpt lat="48.53612" lon="-3.45059">
        <ele>171.73</ele>
        <time>2013-05-22T13:13:38Z</time>
      </trkpt>
      <trkpt lat="48.53618" lon="-3.45067">
        <ele>171.25</ele>
        <time>2013-05-22T13:13:39Z</time>
      </trkpt>
      <trkpt lat="48.53638" lon="-3.4509">
        <ele>169.33</ele>
        <time>2013-05-22T13:13:42Z</time>
      </trkpt>
      <trkpt lat="48.53672" lon="-3.45134">
        <ele>168.37</ele>
        <time>2013-05-22T13:13:47Z</time>
      </trkpt>
      <trkpt lat="48.53677" lon="-3.45144">
        <ele>167.89</ele>
        <time>2013-05-22T13:13:48Z</time>
      </trkpt>
      <trkpt lat="48.53682" lon="-3.45156">
        <ele>166.93</ele>
        <time>2013-05-22T13:13:49Z</time>
      </trkpt>
      <trkpt lat="48.53689" lon="-3.45179">
        <ele>165.96</ele>
        <time>2013-05-22T13:13:51Z</time>
      </trkpt>
      <trkpt lat="48.53692" lon="-3.45191">
        <ele>166.45</ele>
        <time>2013-05-22T13:13:52Z</time>
      </trkpt>
      <trkpt lat="48.53699" lon="-3.45244">
        <ele>164.04</ele>
        <time>2013-05-22T13:13:56Z</time>
      </trkpt>
      <trkpt lat="48.53709" lon="-3.45323">
        <ele>161.16</ele>
        <time>2013-05-22T13:14:02Z</time>
      </trkpt>
      <trkpt lat="48.53714" lon="-3.4535">
        <ele>160.2</ele>
        <time>2013-05-22T13:14:04Z</time>
      </trkpt>
      <trkpt lat="48.53721" lon="-3.45375">
        <ele>158.75</ele>
        <time>2013-05-22T13:14:06Z</time>
      </trkpt>
      <trkpt lat="48.53726" lon="-3.45387">
        <ele>157.79</ele>
        <time>2013-05-22T13:14:07Z</time>
      </trkpt>
      <trkpt lat="48.53732" lon="-3.45399">
        <ele>157.79</ele>
        <time>2013-05-22T13:14:08Z</time>
      </trkpt>
      <trkpt lat="48.53764" lon="-3.45452">
        <ele>155.39</ele>
        <time>2013-05-22T13:14:13Z</time>
      </trkpt>
      <trkpt lat="48.53799" lon="-3.45535">
        <ele>152.03</ele>
        <time>2013-05-22T13:14:20Z</time>
      </trkpt>
      <trkpt lat="48.53811" lon="-3.45602">
        <ele>148.66</ele>
        <time>2013-05-22T13:14:25Z</time>
      </trkpt>
      <trkpt lat="48.53812" lon="-3.45617">
        <ele>148.18</ele>
        <time>2013-05-22T13:14:26Z</time>
      </trkpt>
      <trkpt lat="48.53811" lon="-3.45631">
        <ele>147.7</ele>
        <time>2013-05-22T13:14:27Z</time>
      </trkpt>
      <trkpt lat="48.5381" lon="-3.45646">
        <ele>146.26</ele>
        <time>2013-05-22T13:14:28Z</time>
      </trkpt>
      <trkpt lat="48.53808" lon="-3.4566">
        <ele>146.26</ele>
        <time>2013-05-22T13:14:29Z</time>
      </trkpt>
      <trkpt lat="48.53766" lon="-3.45786">
        <ele>144.82</ele>
        <time>2013-05-22T13:14:40Z</time>
      </trkpt>
      <trkpt lat="48.53676" lon="-3.45933">
        <ele>143.85</ele>
        <time>2013-05-22T13:14:58Z</time>
      </trkpt>
      <trkpt lat="48.53584" lon="-3.46082">
        <ele>141.93</ele>
        <time>2013-05-22T13:15:16Z</time>
      </trkpt>
      <trkpt lat="48.53503" lon="-3.46263">
        <ele>140.01</ele>
        <time>2013-05-22T13:15:35Z</time>
      </trkpt>
      <trkpt lat="48.53463" lon="-3.46349">
        <ele>137.13</ele>
        <time>2013-05-22T13:15:44Z</time>
      </trkpt>
      <trkpt lat="48.53408" lon="-3.4654">
        <ele>136.16</ele>
        <time>2013-05-22T13:16:02Z</time>
      </trkpt>
      <trkpt lat="48.53395" lon="-3.4658">
        <ele>136.16</ele>
        <time>2013-05-22T13:16:06Z</time>
      </trkpt>
      <trkpt lat="48.53343" lon="-3.46752">
        <ele>136.16</ele>
        <time>2013-05-22T13:16:24Z</time>
      </trkpt>
      <trkpt lat="48.53295" lon="-3.46937">
        <ele>137.13</ele>
        <time>2013-05-22T13:16:43Z</time>
      </trkpt>
      <trkpt lat="48.5327" lon="-3.47122">
        <ele>137.61</ele>
        <time>2013-05-22T13:17:02Z</time>
      </trkpt>
      <trkpt lat="48.5325" lon="-3.47275">
        <ele>138.09</ele>
        <time>2013-05-22T13:17:19Z</time>
      </trkpt>
      <trkpt lat="48.53229" lon="-3.47431">
        <ele>140.01</ele>
        <time>2013-05-22T13:17:37Z</time>
      </trkpt>
      <trkpt lat="48.53211" lon="-3.47522">
        <ele>141.93</ele>
        <time>2013-05-22T13:17:49Z</time>
      </trkpt>
      <trkpt lat="48.53209" lon="-3.47537">
        <ele>141.93</ele>
        <time>2013-05-22T13:17:51Z</time>
      </trkpt>
      <trkpt lat="48.53193" lon="-3.47617">
        <ele>144.34</ele>
        <time>2013-05-22T13:18:02Z</time>
      </trkpt>
      <trkpt lat="48.53188" lon="-3.47656">
        <ele>144.82</ele>
        <time>2013-05-22T13:18:07Z</time>
      </trkpt>
      <trkpt lat="48.53186" lon="-3.47663">
        <ele>144.82</ele>
        <time>2013-05-22T13:18:08Z</time>
      </trkpt>
      <trkpt lat="48.53137" lon="-3.47756">
        <ele>147.22</ele>
        <time>2013-05-22T13:18:23Z</time>
      </trkpt>
      <trkpt lat="48.5308" lon="-3.47815">
        <ele>150.1</ele>
        <time>2013-05-22T13:18:37Z</time>
      </trkpt>
      <trkpt lat="48.53072" lon="-3.47822">
        <ele>150.58</ele>
        <time>2013-05-22T13:18:39Z</time>
      </trkpt>
      <trkpt lat="48.53067" lon="-3.47824">
        <ele>150.58</ele>
        <time>2013-05-22T13:18:40Z</time>
      </trkpt>
      <trkpt lat="48.53062" lon="-3.47827">
        <ele>151.06</ele>
        <time>2013-05-22T13:18:41Z</time>
      </trkpt>
      <trkpt lat="48.53058" lon="-3.47828">
        <ele>151.06</ele>
        <time>2013-05-22T13:18:42Z</time>
      </trkpt>
      <trkpt lat="48.53053" lon="-3.47829">
        <ele>151.06</ele>
        <time>2013-05-22T13:18:43Z</time>
      </trkpt>
      <trkpt lat="48.53048" lon="-3.4783">
        <ele>151.06</ele>
        <time>2013-05-22T13:18:44Z</time>
      </trkpt>
      <trkpt lat="48.52964" lon="-3.47833">
        <ele>152.03</ele>
        <time>2013-05-22T13:18:59Z</time>
      </trkpt>
      <trkpt lat="48.52874" lon="-3.4784">
        <ele>151.54</ele>
        <time>2013-05-22T13:19:15Z</time>
      </trkpt>
      <trkpt lat="48.52807" lon="-3.47865">
        <ele>152.51</ele>
        <time>2013-05-22T13:19:28Z</time>
      </trkpt>
      <trkpt lat="48.52734" lon="-3.47904">
        <ele>152.99</ele>
        <time>2013-05-22T13:19:41Z</time>
      </trkpt>
      <trkpt lat="48.52677" lon="-3.47964">
        <ele>152.99</ele>
        <time>2013-05-22T13:19:53Z</time>
      </trkpt>
      <trkpt lat="48.52634" lon="-3.48063">
        <ele>153.47</ele>
        <time>2013-05-22T13:20:06Z</time>
      </trkpt>
      <trkpt lat="48.52616" lon="-3.48131">
        <ele>152.99</ele>
        <time>2013-05-22T13:20:14Z</time>
      </trkpt>
      <trkpt lat="48.52612" lon="-3.48138">
        <ele>152.51</ele>
        <time>2013-05-22T13:20:15Z</time>
      </trkpt>
      <trkpt lat="48.52536" lon="-3.48212">
        <ele>152.03</ele>
        <time>2013-05-22T13:20:30Z</time>
      </trkpt>
      <trkpt lat="48.52488" lon="-3.48256">
        <ele>152.03</ele>
        <time>2013-05-22T13:20:40Z</time>
      </trkpt>
      <trkpt lat="48.52407" lon="-3.48369">
        <ele>152.03</ele>
        <time>2013-05-22T13:20:58Z</time>
      </trkpt>
      <trkpt lat="48.52324" lon="-3.48482">
        <ele>152.51</ele>
        <time>2013-05-22T13:21:16Z</time>
      </trkpt>
      <trkpt lat="48.52266" lon="-3.48609">
        <ele>153.95</ele>
        <time>2013-05-22T13:21:33Z</time>
      </trkpt>
      <trkpt lat="48.52255" lon="-3.48626">
        <ele>153.47</ele>
        <time>2013-05-22T13:21:36Z</time>
      </trkpt>
      <trkpt lat="48.52235" lon="-3.48654">
        <ele>152.99</ele>
        <time>2013-05-22T13:21:43Z</time>
      </trkpt>
      <trkpt lat="48.52234" lon="-3.48654">
        <ele>152.51</ele>
        <time>2013-05-22T13:21:44Z</time>
      </trkpt>
      <trkpt lat="48.52233" lon="-3.48657">
        <ele>152.51</ele>
        <time>2013-05-22T13:21:55Z</time>
      </trkpt>
      <trkpt lat="48.52233" lon="-3.48658">
        <ele>152.03</ele>
        <time>2013-05-22T13:22:09Z</time>
      </trkpt>
      <trkpt lat="48.52232" lon="-3.48656">
        <ele>152.51</ele>
        <time>2013-05-22T13:22:30Z</time>
      </trkpt>
      <trkpt lat="48.52231" lon="-3.48656">
        <ele>152.03</ele>
        <time>2013-05-22T13:22:54Z</time>
      </trkpt>
      <trkpt lat="48.52231" lon="-3.48657">
        <ele>152.51</ele>
        <time>2013-05-22T13:23:07Z</time>
      </trkpt>
      <trkpt lat="48.52231" lon="-3.48659">
        <ele>152.51</ele>
        <time>2013-05-22T13:23:21Z</time>
      </trkpt>
      <trkpt lat="48.52231" lon="-3.48664">
        <ele>152.51</ele>
        <time>2013-05-22T13:23:46Z</time>
      </trkpt>
      <trkpt lat="48.52229" lon="-3.48662">
        <ele>152.51</ele>
        <time>2013-05-22T13:23:58Z</time>
      </trkpt>
      <trkpt lat="48.52229" lon="-3.48662">
        <ele>152.99</ele>
        <time>2013-05-22T13:24:10Z</time>
      </trkpt>
      <trkpt lat="48.5223" lon="-3.48664">
        <ele>152.99</ele>
        <time>2013-05-22T13:24:11Z</time>
      </trkpt>
      <trkpt lat="48.5223" lon="-3.48667">
        <ele>152.99</ele>
        <time>2013-05-22T13:24:12Z</time>
      </trkpt>
      <trkpt lat="48.52229" lon="-3.4867">
        <ele>152.99</ele>
        <time>2013-05-22T13:24:13Z</time>
      </trkpt>
      <trkpt lat="48.52228" lon="-3.48674">
        <ele>153.47</ele>
        <time>2013-05-22T13:24:14Z</time>
      </trkpt>
      <trkpt lat="48.52226" lon="-3.48678">
        <ele>153.47</ele>
        <time>2013-05-22T13:24:15Z</time>
      </trkpt>
      <trkpt lat="48.52224" lon="-3.48683">
        <ele>153.47</ele>
        <time>2013-05-22T13:24:16Z</time>
      </trkpt>
      <trkpt lat="48.52213" lon="-3.48703">
        <ele>153.47</ele>
        <time>2013-05-22T13:24:20Z</time>
      </trkpt>
      <trkpt lat="48.52209" lon="-3.48707">
        <ele>153.47</ele>
        <time>2013-05-22T13:24:21Z</time>
      </trkpt>
      <trkpt lat="48.52197" lon="-3.48721">
        <ele>153.47</ele>
        <time>2013-05-22T13:24:24Z</time>
      </trkpt>
      <trkpt lat="48.5217" lon="-3.48776">
        <ele>154.43</ele>
        <time>2013-05-22T13:24:33Z</time>
      </trkpt>
      <trkpt lat="48.52166" lon="-3.48781">
        <ele>154.43</ele>
        <time>2013-05-22T13:24:34Z</time>
      </trkpt>
      <trkpt lat="48.52162" lon="-3.48785">
        <ele>154.43</ele>
        <time>2013-05-22T13:24:35Z</time>
      </trkpt>
      <trkpt lat="48.52158" lon="-3.48787">
        <ele>154.91</ele>
        <time>2013-05-22T13:24:36Z</time>
      </trkpt>
      <trkpt lat="48.52153" lon="-3.48786">
        <ele>154.91</ele>
        <time>2013-05-22T13:24:37Z</time>
      </trkpt>
      <trkpt lat="48.52149" lon="-3.48785">
        <ele>154.91</ele>
        <time>2013-05-22T13:24:38Z</time>
      </trkpt>
      <trkpt lat="48.52089" lon="-3.48765">
        <ele>155.87</ele>
        <time>2013-05-22T13:24:51Z</time>
      </trkpt>
      <trkpt lat="48.52071" lon="-3.4876">
        <ele>156.83</ele>
        <time>2013-05-22T13:24:55Z</time>
      </trkpt>
      <trkpt lat="48.52059" lon="-3.48761">
        <ele>157.79</ele>
        <time>2013-05-22T13:24:58Z</time>
      </trkpt>
      <trkpt lat="48.52055" lon="-3.48764">
        <ele>157.79</ele>
        <time>2013-05-22T13:24:59Z</time>
      </trkpt>
      <trkpt lat="48.52051" lon="-3.48768">
        <ele>157.79</ele>
        <time>2013-05-22T13:25:00Z</time>
      </trkpt>
      <trkpt lat="48.52047" lon="-3.48773">
        <ele>157.79</ele>
        <time>2013-05-22T13:25:01Z</time>
      </trkpt>
      <trkpt lat="48.52044" lon="-3.48778">
        <ele>157.79</ele>
        <time>2013-05-22T13:25:02Z</time>
      </trkpt>
      <trkpt lat="48.52025" lon="-3.48801">
        <ele>158.75</ele>
        <time>2013-05-22T13:25:07Z</time>
      </trkpt>
      <trkpt lat="48.5196" lon="-3.48866">
        <ele>161.64</ele>
        <time>2013-05-22T13:25:24Z</time>
      </trkpt>
      <trkpt lat="48.51895" lon="-3.48934">
        <ele>164.52</ele>
        <time>2013-05-22T13:25:41Z</time>
      </trkpt>
      <trkpt lat="48.51846" lon="-3.48999">
        <ele>166.45</ele>
        <time>2013-05-22T13:25:55Z</time>
      </trkpt>
      <trkpt lat="48.51824" lon="-3.49095">
        <ele>167.89</ele>
        <time>2013-05-22T13:26:09Z</time>
      </trkpt>
      <trkpt lat="48.51822" lon="-3.49102">
        <ele>167.89</ele>
        <time>2013-05-22T13:26:10Z</time>
      </trkpt>
      <trkpt lat="48.51807" lon="-3.49152">
        <ele>170.29</ele>
        <time>2013-05-22T13:26:18Z</time>
      </trkpt>
      <trkpt lat="48.51804" lon="-3.49157">
        <ele>170.29</ele>
        <time>2013-05-22T13:26:19Z</time>
      </trkpt>
      <trkpt lat="48.51781" lon="-3.49188">
        <ele>171.73</ele>
        <time>2013-05-22T13:26:26Z</time>
      </trkpt>
      <trkpt lat="48.51715" lon="-3.49233">
        <ele>174.14</ele>
        <time>2013-05-22T13:26:41Z</time>
      </trkpt>
      <trkpt lat="48.51647" lon="-3.49265">
        <ele>176.06</ele>
        <time>2013-05-22T13:26:56Z</time>
      </trkpt>
      <trkpt lat="48.51632" lon="-3.49268">
        <ele>176.54</ele>
        <time>2013-05-22T13:26:59Z</time>
      </trkpt>
      <trkpt lat="48.51622" lon="-3.49268">
        <ele>176.54</ele>
        <time>2013-05-22T13:27:01Z</time>
      </trkpt>
      <trkpt lat="48.51617" lon="-3.49267">
        <ele>176.54</ele>
        <time>2013-05-22T13:27:02Z</time>
      </trkpt>
      <trkpt lat="48.51599" lon="-3.49259">
        <ele>177.5</ele>
        <time>2013-05-22T13:27:06Z</time>
      </trkpt>
      <trkpt lat="48.5159" lon="-3.49253">
        <ele>177.5</ele>
        <time>2013-05-22T13:27:08Z</time>
      </trkpt>
      <trkpt lat="48.51586" lon="-3.4925">
        <ele>177.5</ele>
        <time>2013-05-22T13:27:09Z</time>
      </trkpt>
      <trkpt lat="48.51521" lon="-3.49168">
        <ele>180.87</ele>
        <time>2013-05-22T13:27:27Z</time>
      </trkpt>
      <trkpt lat="48.51461" lon="-3.49088">
        <ele>183.75</ele>
        <time>2013-05-22T13:27:44Z</time>
      </trkpt>
      <trkpt lat="48.51408" lon="-3.49017">
        <ele>187.11</ele>
        <time>2013-05-22T13:27:59Z</time>
      </trkpt>
      <trkpt lat="48.51345" lon="-3.48929">
        <ele>190</ele>
        <time>2013-05-22T13:28:17Z</time>
      </trkpt>
      <trkpt lat="48.5129" lon="-3.48868">
        <ele>192.4</ele>
        <time>2013-05-22T13:28:31Z</time>
      </trkpt>
      <trkpt lat="48.51237" lon="-3.48838">
        <ele>196.25</ele>
        <time>2013-05-22T13:28:43Z</time>
      </trkpt>
      <trkpt lat="48.51154" lon="-3.48803">
        <ele>199.13</ele>
        <time>2013-05-22T13:29:01Z</time>
      </trkpt>
      <trkpt lat="48.5108" lon="-3.4875">
        <ele>202.01</ele>
        <time>2013-05-22T13:29:18Z</time>
      </trkpt>
      <trkpt lat="48.51024" lon="-3.48708">
        <ele>204.42</ele>
        <time>2013-05-22T13:29:31Z</time>
      </trkpt>
      <trkpt lat="48.5101" lon="-3.48702">
        <ele>204.42</ele>
        <time>2013-05-22T13:29:34Z</time>
      </trkpt>
      <trkpt lat="48.51005" lon="-3.48701">
        <ele>204.42</ele>
        <time>2013-05-22T13:29:35Z</time>
      </trkpt>
      <trkpt lat="48.50996" lon="-3.487">
        <ele>205.38</ele>
        <time>2013-05-22T13:29:37Z</time>
      </trkpt>
      <trkpt lat="48.50991" lon="-3.487">
        <ele>205.38</ele>
        <time>2013-05-22T13:29:38Z</time>
      </trkpt>
      <trkpt lat="48.50986" lon="-3.48702">
        <ele>205.86</ele>
        <time>2013-05-22T13:29:39Z</time>
      </trkpt>
      <trkpt lat="48.50933" lon="-3.4873">
        <ele>208.26</ele>
        <time>2013-05-22T13:29:51Z</time>
      </trkpt>
      <trkpt lat="48.50921" lon="-3.48738">
        <ele>209.22</ele>
        <time>2013-05-22T13:29:54Z</time>
      </trkpt>
      <trkpt lat="48.50893" lon="-3.48756">
        <ele>210.19</ele>
        <time>2013-05-22T13:30:01Z</time>
      </trkpt>
      <trkpt lat="48.50841" lon="-3.48783">
        <ele>213.07</ele>
        <time>2013-05-22T13:30:14Z</time>
      </trkpt>
      <trkpt lat="48.50837" lon="-3.48786">
        <ele>213.07</ele>
        <time>2013-05-22T13:30:15Z</time>
      </trkpt>
      <trkpt lat="48.50773" lon="-3.48837">
        <ele>213.55</ele>
        <time>2013-05-22T13:30:30Z</time>
      </trkpt>
      <trkpt lat="48.50758" lon="-3.48847">
        <ele>213.55</ele>
        <time>2013-05-22T13:30:33Z</time>
      </trkpt>
      <trkpt lat="48.50683" lon="-3.48897">
        <ele>215.47</ele>
        <time>2013-05-22T13:30:49Z</time>
      </trkpt>
      <trkpt lat="48.50615" lon="-3.48943">
        <ele>215.95</ele>
        <time>2013-05-22T13:31:04Z</time>
      </trkpt>
      <trkpt lat="48.50611" lon="-3.48947">
        <ele>216.43</ele>
        <time>2013-05-22T13:31:05Z</time>
      </trkpt>
      <trkpt lat="48.50562" lon="-3.49">
        <ele>217.88</ele>
        <time>2013-05-22T13:31:17Z</time>
      </trkpt>
      <trkpt lat="48.50553" lon="-3.49008">
        <ele>217.4</ele>
        <time>2013-05-22T13:31:19Z</time>
      </trkpt>
      <trkpt lat="48.50471" lon="-3.49074">
        <ele>217.4</ele>
        <time>2013-05-22T13:31:36Z</time>
      </trkpt>
      <trkpt lat="48.50423" lon="-3.49127">
        <ele>216.43</ele>
        <time>2013-05-22T13:31:46Z</time>
      </trkpt>
      <trkpt lat="48.50418" lon="-3.49132">
        <ele>216.43</ele>
        <time>2013-05-22T13:31:47Z</time>
      </trkpt>
      <trkpt lat="48.5032" lon="-3.49175">
        <ele>213.07</ele>
        <time>2013-05-22T13:32:01Z</time>
      </trkpt>
      <trkpt lat="48.50228" lon="-3.49209">
        <ele>210.67</ele>
        <time>2013-05-22T13:32:12Z</time>
      </trkpt>
      <trkpt lat="48.50169" lon="-3.49232">
        <ele>208.74</ele>
        <time>2013-05-22T13:32:20Z</time>
      </trkpt>
      <trkpt lat="48.50165" lon="-3.49236">
        <ele>208.26</ele>
        <time>2013-05-22T13:32:21Z</time>
      </trkpt>
      <trkpt lat="48.50163" lon="-3.49241">
        <ele>207.78</ele>
        <time>2013-05-22T13:32:22Z</time>
      </trkpt>
      <trkpt lat="48.50163" lon="-3.49249">
        <ele>207.78</ele>
        <time>2013-05-22T13:32:23Z</time>
      </trkpt>
      <trkpt lat="48.50164" lon="-3.49258">
        <ele>208.26</ele>
        <time>2013-05-22T13:32:24Z</time>
      </trkpt>
      <trkpt lat="48.50164" lon="-3.49266">
        <ele>208.26</ele>
        <time>2013-05-22T13:32:25Z</time>
      </trkpt>
      <trkpt lat="48.50164" lon="-3.49275">
        <ele>207.3</ele>
        <time>2013-05-22T13:32:26Z</time>
      </trkpt>
      <trkpt lat="48.5016" lon="-3.49412">
        <ele>209.7</ele>
        <time>2013-05-22T13:32:42Z</time>
      </trkpt>
      <trkpt lat="48.50159" lon="-3.49453">
        <ele>210.19</ele>
        <time>2013-05-22T13:32:47Z</time>
      </trkpt>
      <trkpt lat="48.50158" lon="-3.49628">
        <ele>211.15</ele>
        <time>2013-05-22T13:33:08Z</time>
      </trkpt>
      <trkpt lat="48.50169" lon="-3.49792">
        <ele>210.67</ele>
        <time>2013-05-22T13:33:27Z</time>
      </trkpt>
      <trkpt lat="48.50155" lon="-3.49919">
        <ele>208.74</ele>
        <time>2013-05-22T13:33:40Z</time>
      </trkpt>
      <trkpt lat="48.50152" lon="-3.49928">
        <ele>208.26</ele>
        <time>2013-05-22T13:33:41Z</time>
      </trkpt>
      <trkpt lat="48.50148" lon="-3.49937">
        <ele>208.26</ele>
        <time>2013-05-22T13:33:42Z</time>
      </trkpt>
      <trkpt lat="48.50089" lon="-3.50065">
        <ele>205.86</ele>
        <time>2013-05-22T13:33:57Z</time>
      </trkpt>
      <trkpt lat="48.5007" lon="-3.50154">
        <ele>203.94</ele>
        <time>2013-05-22T13:34:05Z</time>
      </trkpt>
      <trkpt lat="48.50044" lon="-3.50273">
        <ele>200.57</ele>
        <time>2013-05-22T13:34:15Z</time>
      </trkpt>
      <trkpt lat="48.50002" lon="-3.50398">
        <ele>197.21</ele>
        <time>2013-05-22T13:34:26Z</time>
      </trkpt>
      <trkpt lat="48.49993" lon="-3.5042">
        <ele>195.77</ele>
        <time>2013-05-22T13:34:28Z</time>
      </trkpt>
      <trkpt lat="48.4999" lon="-3.50432">
        <ele>194.8</ele>
        <time>2013-05-22T13:34:29Z</time>
      </trkpt>
      <trkpt lat="48.49987" lon="-3.50445">
        <ele>193.84</ele>
        <time>2013-05-22T13:34:30Z</time>
      </trkpt>
      <trkpt lat="48.49986" lon="-3.5046">
        <ele>192.88</ele>
        <time>2013-05-22T13:34:31Z</time>
      </trkpt>
      <trkpt lat="48.49986" lon="-3.50476">
        <ele>191.92</ele>
        <time>2013-05-22T13:34:32Z</time>
      </trkpt>
      <trkpt lat="48.49987" lon="-3.50509">
        <ele>190.48</ele>
        <time>2013-05-22T13:34:34Z</time>
      </trkpt>
      <trkpt lat="48.49986" lon="-3.50524">
        <ele>189.52</ele>
        <time>2013-05-22T13:34:35Z</time>
      </trkpt>
      <trkpt lat="48.49984" lon="-3.50539">
        <ele>189.04</ele>
        <time>2013-05-22T13:34:36Z</time>
      </trkpt>
      <trkpt lat="48.49982" lon="-3.50553">
        <ele>188.08</ele>
        <time>2013-05-22T13:34:37Z</time>
      </trkpt>
      <trkpt lat="48.49978" lon="-3.50565">
        <ele>188.08</ele>
        <time>2013-05-22T13:34:38Z</time>
      </trkpt>
      <trkpt lat="48.49974" lon="-3.50576">
        <ele>187.59</ele>
        <time>2013-05-22T13:34:39Z</time>
      </trkpt>
      <trkpt lat="48.4997" lon="-3.50585">
        <ele>188.08</ele>
        <time>2013-05-22T13:34:40Z</time>
      </trkpt>
      <trkpt lat="48.49965" lon="-3.50593">
        <ele>188.56</ele>
        <time>2013-05-22T13:34:41Z</time>
      </trkpt>
      <trkpt lat="48.49961" lon="-3.506">
        <ele>188.56</ele>
        <time>2013-05-22T13:34:42Z</time>
      </trkpt>
      <trkpt lat="48.49956" lon="-3.50607">
        <ele>189.04</ele>
        <time>2013-05-22T13:34:43Z</time>
      </trkpt>
      <trkpt lat="48.49942" lon="-3.50628">
        <ele>190</ele>
        <time>2013-05-22T13:34:47Z</time>
      </trkpt>
      <trkpt lat="48.49939" lon="-3.50633">
        <ele>190.96</ele>
        <time>2013-05-22T13:34:48Z</time>
      </trkpt>
      <trkpt lat="48.49937" lon="-3.50638">
        <ele>190.96</ele>
        <time>2013-05-22T13:34:49Z</time>
      </trkpt>
      <trkpt lat="48.49933" lon="-3.50653">
        <ele>192.88</ele>
        <time>2013-05-22T13:34:52Z</time>
      </trkpt>
      <trkpt lat="48.49927" lon="-3.50694">
        <ele>196.25</ele>
        <time>2013-05-22T13:35:00Z</time>
      </trkpt>
      <trkpt lat="48.49928" lon="-3.50751">
        <ele>198.65</ele>
        <time>2013-05-22T13:35:11Z</time>
      </trkpt>
      <trkpt lat="48.49927" lon="-3.50825">
        <ele>202.01</ele>
        <time>2013-05-22T13:35:25Z</time>
      </trkpt>
      <trkpt lat="48.49924" lon="-3.50888">
        <ele>205.38</ele>
        <time>2013-05-22T13:35:37Z</time>
      </trkpt>
      <trkpt lat="48.49921" lon="-3.50944">
        <ele>208.74</ele>
        <time>2013-05-22T13:35:47Z</time>
      </trkpt>
      <trkpt lat="48.4992" lon="-3.5095">
        <ele>208.74</ele>
        <time>2013-05-22T13:35:48Z</time>
      </trkpt>
      <trkpt lat="48.49914" lon="-3.50993">
        <ele>212.11</ele>
        <time>2013-05-22T13:35:56Z</time>
      </trkpt>
      <trkpt lat="48.49906" lon="-3.51052">
        <ele>212.59</ele>
        <time>2013-05-22T13:36:06Z</time>
      </trkpt>
      <trkpt lat="48.49905" lon="-3.51059">
        <ele>212.59</ele>
        <time>2013-05-22T13:36:07Z</time>
      </trkpt>
      <trkpt lat="48.49892" lon="-3.51153">
        <ele>215.47</ele>
        <time>2013-05-22T13:36:22Z</time>
      </trkpt>
      <trkpt lat="48.49882" lon="-3.5126">
        <ele>218.36</ele>
        <time>2013-05-22T13:36:39Z</time>
      </trkpt>
      <trkpt lat="48.49872" lon="-3.51356">
        <ele>218.36</ele>
        <time>2013-05-22T13:36:53Z</time>
      </trkpt>
      <trkpt lat="48.49859" lon="-3.51503">
        <ele>217.4</ele>
        <time>2013-05-22T13:37:09Z</time>
      </trkpt>
      <trkpt lat="48.49866" lon="-3.51586">
        <ele>218.36</ele>
        <time>2013-05-22T13:37:19Z</time>
      </trkpt>
      <trkpt lat="48.49884" lon="-3.51665">
        <ele>221.24</ele>
        <time>2013-05-22T13:37:31Z</time>
      </trkpt>
      <trkpt lat="48.49885" lon="-3.51671">
        <ele>221.72</ele>
        <time>2013-05-22T13:37:32Z</time>
      </trkpt>
      <trkpt lat="48.49886" lon="-3.51677">
        <ele>222.2</ele>
        <time>2013-05-22T13:37:33Z</time>
      </trkpt>
      <trkpt lat="48.49879" lon="-3.51787">
        <ele>221.72</ele>
        <time>2013-05-22T13:37:48Z</time>
      </trkpt>
      <trkpt lat="48.49854" lon="-3.5189">
        <ele>218.36</ele>
        <time>2013-05-22T13:37:58Z</time>
      </trkpt>
      <trkpt lat="48.49847" lon="-3.51914">
        <ele>217.88</ele>
        <time>2013-05-22T13:38:00Z</time>
      </trkpt>
      <trkpt lat="48.49832" lon="-3.51966">
        <ele>214.51</ele>
        <time>2013-05-22T13:38:04Z</time>
      </trkpt>
      <trkpt lat="48.49803" lon="-3.52074">
        <ele>210.67</ele>
        <time>2013-05-22T13:38:12Z</time>
      </trkpt>
      <trkpt lat="48.49787" lon="-3.52135">
        <ele>209.22</ele>
        <time>2013-05-22T13:38:17Z</time>
      </trkpt>
      <trkpt lat="48.49776" lon="-3.52224">
        <ele>211.15</ele>
        <time>2013-05-22T13:38:27Z</time>
      </trkpt>
      <trkpt lat="48.49772" lon="-3.52261">
        <ele>212.59</ele>
        <time>2013-05-22T13:38:33Z</time>
      </trkpt>
      <trkpt lat="48.49763" lon="-3.52323">
        <ele>215.47</ele>
        <time>2013-05-22T13:38:44Z</time>
      </trkpt>
      <trkpt lat="48.49756" lon="-3.52362">
        <ele>218.36</ele>
        <time>2013-05-22T13:38:51Z</time>
      </trkpt>
      <trkpt lat="48.49748" lon="-3.52427">
        <ele>221.72</ele>
        <time>2013-05-22T13:39:03Z</time>
      </trkpt>
      <trkpt lat="48.49761" lon="-3.52496">
        <ele>224.12</ele>
        <time>2013-05-22T13:39:15Z</time>
      </trkpt>
      <trkpt lat="48.4977" lon="-3.52518">
        <ele>224.61</ele>
        <time>2013-05-22T13:39:19Z</time>
      </trkpt>
      <trkpt lat="48.49774" lon="-3.52532">
        <ele>224.61</ele>
        <time>2013-05-22T13:39:21Z</time>
      </trkpt>
      <trkpt lat="48.49778" lon="-3.52553">
        <ele>224.61</ele>
        <time>2013-05-22T13:39:24Z</time>
      </trkpt>
      <trkpt lat="48.49779" lon="-3.52561">
        <ele>224.61</ele>
        <time>2013-05-22T13:39:25Z</time>
      </trkpt>
      <trkpt lat="48.49778" lon="-3.5268">
        <ele>225.57</ele>
        <time>2013-05-22T13:39:41Z</time>
      </trkpt>
      <trkpt lat="48.49774" lon="-3.52792">
        <ele>225.09</ele>
        <time>2013-05-22T13:39:55Z</time>
      </trkpt>
      <trkpt lat="48.49775" lon="-3.528">
        <ele>226.53</ele>
        <time>2013-05-22T13:39:56Z</time>
      </trkpt>
      <trkpt lat="48.49781" lon="-3.5285">
        <ele>225.57</ele>
        <time>2013-05-22T13:40:02Z</time>
      </trkpt>
      <trkpt lat="48.49781" lon="-3.52858">
        <ele>225.57</ele>
        <time>2013-05-22T13:40:03Z</time>
      </trkpt>
      <trkpt lat="48.49774" lon="-3.52961">
        <ele>227.01</ele>
        <time>2013-05-22T13:40:18Z</time>
      </trkpt>
      <trkpt lat="48.49774" lon="-3.52968">
        <ele>227.49</ele>
        <time>2013-05-22T13:40:19Z</time>
      </trkpt>
      <trkpt lat="48.49774" lon="-3.52975">
        <ele>227.01</ele>
        <time>2013-05-22T13:40:20Z</time>
      </trkpt>
      <trkpt lat="48.49774" lon="-3.52981">
        <ele>227.49</ele>
        <time>2013-05-22T13:40:21Z</time>
      </trkpt>
      <trkpt lat="48.49773" lon="-3.52988">
        <ele>227.49</ele>
        <time>2013-05-22T13:40:22Z</time>
      </trkpt>
      <trkpt lat="48.49773" lon="-3.52995">
        <ele>227.49</ele>
        <time>2013-05-22T13:40:23Z</time>
      </trkpt>
      <trkpt lat="48.49773" lon="-3.53003">
        <ele>227.97</ele>
        <time>2013-05-22T13:40:24Z</time>
      </trkpt>
      <trkpt lat="48.49763" lon="-3.53125">
        <ele>229.89</ele>
        <time>2013-05-22T13:40:40Z</time>
      </trkpt>
      <trkpt lat="48.49744" lon="-3.53283">
        <ele>228.93</ele>
        <time>2013-05-22T13:40:58Z</time>
      </trkpt>
      <trkpt lat="48.49739" lon="-3.53316">
        <ele>227.49</ele>
        <time>2013-05-22T13:41:01Z</time>
      </trkpt>
      <trkpt lat="48.49739" lon="-3.53328">
        <ele>227.01</ele>
        <time>2013-05-22T13:41:02Z</time>
      </trkpt>
      <trkpt lat="48.4974" lon="-3.53339">
        <ele>226.53</ele>
        <time>2013-05-22T13:41:03Z</time>
      </trkpt>
      <trkpt lat="48.49742" lon="-3.53351">
        <ele>226.53</ele>
        <time>2013-05-22T13:41:04Z</time>
      </trkpt>
      <trkpt lat="48.49745" lon="-3.53364">
        <ele>226.53</ele>
        <time>2013-05-22T13:41:05Z</time>
      </trkpt>
      <trkpt lat="48.49769" lon="-3.53451">
        <ele>224.12</ele>
        <time>2013-05-22T13:41:12Z</time>
      </trkpt>
      <trkpt lat="48.49771" lon="-3.53464">
        <ele>223.16</ele>
        <time>2013-05-22T13:41:13Z</time>
      </trkpt>
      <trkpt lat="48.49773" lon="-3.53479">
        <ele>222.2</ele>
        <time>2013-05-22T13:41:14Z</time>
      </trkpt>
      <trkpt lat="48.49774" lon="-3.53494">
        <ele>222.2</ele>
        <time>2013-05-22T13:41:15Z</time>
      </trkpt>
      <trkpt lat="48.49774" lon="-3.53509">
        <ele>221.24</ele>
        <time>2013-05-22T13:41:16Z</time>
      </trkpt>
      <trkpt lat="48.49773" lon="-3.53524">
        <ele>221.24</ele>
        <time>2013-05-22T13:41:17Z</time>
      </trkpt>
      <trkpt lat="48.49771" lon="-3.53539">
        <ele>221.72</ele>
        <time>2013-05-22T13:41:18Z</time>
      </trkpt>
      <trkpt lat="48.49767" lon="-3.53553">
        <ele>220.28</ele>
        <time>2013-05-22T13:41:19Z</time>
      </trkpt>
      <trkpt lat="48.4976" lon="-3.53581">
        <ele>219.32</ele>
        <time>2013-05-22T13:41:21Z</time>
      </trkpt>
      <trkpt lat="48.49747" lon="-3.53643">
        <ele>216.43</ele>
        <time>2013-05-22T13:41:26Z</time>
      </trkpt>
      <trkpt lat="48.49743" lon="-3.53679">
        <ele>214.99</ele>
        <time>2013-05-22T13:41:30Z</time>
      </trkpt>
      <trkpt lat="48.49745" lon="-3.53688">
        <ele>214.51</ele>
        <time>2013-05-22T13:41:31Z</time>
      </trkpt>
      <trkpt lat="48.49791" lon="-3.53831">
        <ele>215.47</ele>
        <time>2013-05-22T13:41:47Z</time>
      </trkpt>
      <trkpt lat="48.49794" lon="-3.53838">
        <ele>215.95</ele>
        <time>2013-05-22T13:41:48Z</time>
      </trkpt>
      <trkpt lat="48.49797" lon="-3.53844">
        <ele>215.95</ele>
        <time>2013-05-22T13:41:49Z</time>
      </trkpt>
      <trkpt lat="48.498" lon="-3.5385">
        <ele>216.43</ele>
        <time>2013-05-22T13:41:50Z</time>
      </trkpt>
      <trkpt lat="48.49804" lon="-3.53855">
        <ele>216.43</ele>
        <time>2013-05-22T13:41:51Z</time>
      </trkpt>
      <trkpt lat="48.49808" lon="-3.5386">
        <ele>215.95</ele>
        <time>2013-05-22T13:41:52Z</time>
      </trkpt>
      <trkpt lat="48.49812" lon="-3.53864">
        <ele>216.43</ele>
        <time>2013-05-22T13:41:53Z</time>
      </trkpt>
      <trkpt lat="48.49824" lon="-3.53873">
        <ele>218.36</ele>
        <time>2013-05-22T13:41:56Z</time>
      </trkpt>
      <trkpt lat="48.49828" lon="-3.53876">
        <ele>218.36</ele>
        <time>2013-05-22T13:41:57Z</time>
      </trkpt>
      <trkpt lat="48.49865" lon="-3.53904">
        <ele>221.24</ele>
        <time>2013-05-22T13:42:07Z</time>
      </trkpt>
      <trkpt lat="48.49869" lon="-3.53907">
        <ele>221.72</ele>
        <time>2013-05-22T13:42:08Z</time>
      </trkpt>
      <trkpt lat="48.49913" lon="-3.53942">
        <ele>224.61</ele>
        <time>2013-05-22T13:42:20Z</time>
      </trkpt>
      <trkpt lat="48.49916" lon="-3.53946">
        <ele>224.61</ele>
        <time>2013-05-22T13:42:21Z</time>
      </trkpt>
      <trkpt lat="48.49927" lon="-3.53958">
        <ele>226.05</ele>
        <time>2013-05-22T13:42:24Z</time>
      </trkpt>
      <trkpt lat="48.49948" lon="-3.53993">
        <ele>225.57</ele>
        <time>2013-05-22T13:42:31Z</time>
      </trkpt>
      <trkpt lat="48.49951" lon="-3.53999">
        <ele>225.57</ele>
        <time>2013-05-22T13:42:32Z</time>
      </trkpt>
      <trkpt lat="48.4999" lon="-3.54098">
        <ele>227.49</ele>
        <time>2013-05-22T13:42:48Z</time>
      </trkpt>
      <trkpt lat="48.50027" lon="-3.54219">
        <ele>230.37</ele>
        <time>2013-05-22T13:43:06Z</time>
      </trkpt>
      <trkpt lat="48.50046" lon="-3.54314">
        <ele>231.33</ele>
        <time>2013-05-22T13:43:20Z</time>
      </trkpt>
      <trkpt lat="48.50048" lon="-3.54321">
        <ele>231.33</ele>
        <time>2013-05-22T13:43:21Z</time>
      </trkpt>
      <trkpt lat="48.5005" lon="-3.54328">
        <ele>231.81</ele>
        <time>2013-05-22T13:43:22Z</time>
      </trkpt>
      <trkpt lat="48.50073" lon="-3.54439">
        <ele>234.22</ele>
        <time>2013-05-22T13:43:39Z</time>
      </trkpt>
      <trkpt lat="48.50075" lon="-3.54446">
        <ele>234.7</ele>
        <time>2013-05-22T13:43:40Z</time>
      </trkpt>
      <trkpt lat="48.50091" lon="-3.54524">
        <ele>237.58</ele>
        <time>2013-05-22T13:43:53Z</time>
      </trkpt>
      <trkpt lat="48.50106" lon="-3.546">
        <ele>240.95</ele>
        <time>2013-05-22T13:44:06Z</time>
      </trkpt>
      <trkpt lat="48.50121" lon="-3.5467">
        <ele>243.83</ele>
        <time>2013-05-22T13:44:18Z</time>
      </trkpt>
      <trkpt lat="48.50135" lon="-3.54737">
        <ele>246.23</ele>
        <time>2013-05-22T13:44:30Z</time>
      </trkpt>
      <trkpt lat="48.5014" lon="-3.54761">
        <ele>246.72</ele>
        <time>2013-05-22T13:44:34Z</time>
      </trkpt>
      <trkpt lat="48.50141" lon="-3.54767">
        <ele>247.2</ele>
        <time>2013-05-22T13:44:35Z</time>
      </trkpt>
      <trkpt lat="48.5015" lon="-3.54813">
        <ele>247.68</ele>
        <time>2013-05-22T13:44:43Z</time>
      </trkpt>
      <trkpt lat="48.50173" lon="-3.54923">
        <ele>250.08</ele>
        <time>2013-05-22T13:45:00Z</time>
      </trkpt>
      <trkpt lat="48.50199" lon="-3.5505">
        <ele>250.56</ele>
        <time>2013-05-22T13:45:17Z</time>
      </trkpt>
      <trkpt lat="48.50209" lon="-3.55195">
        <ele>248.16</ele>
        <time>2013-05-22T13:45:32Z</time>
      </trkpt>
      <trkpt lat="48.50215" lon="-3.55341">
        <ele>246.23</ele>
        <time>2013-05-22T13:45:45Z</time>
      </trkpt>
      <trkpt lat="48.50221" lon="-3.55532">
        <ele>244.31</ele>
        <time>2013-05-22T13:46:02Z</time>
      </trkpt>
      <trkpt lat="48.50228" lon="-3.55707">
        <ele>243.35</ele>
        <time>2013-05-22T13:46:19Z</time>
      </trkpt>
      <trkpt lat="48.50228" lon="-3.55716">
        <ele>243.83</ele>
        <time>2013-05-22T13:46:20Z</time>
      </trkpt>
      <trkpt lat="48.50233" lon="-3.55826">
        <ele>243.35</ele>
        <time>2013-05-22T13:46:32Z</time>
      </trkpt>
      <trkpt lat="48.5026" lon="-3.55949">
        <ele>246.23</ele>
        <time>2013-05-22T13:46:48Z</time>
      </trkpt>
      <trkpt lat="48.50313" lon="-3.56058">
        <ele>246.72</ele>
        <time>2013-05-22T13:47:05Z</time>
      </trkpt>
      <trkpt lat="48.50367" lon="-3.56159">
        <ele>246.72</ele>
        <time>2013-05-22T13:47:20Z</time>
      </trkpt>
      <trkpt lat="48.50437" lon="-3.5629">
        <ele>244.79</ele>
        <time>2013-05-22T13:47:38Z</time>
      </trkpt>
      <trkpt lat="48.50516" lon="-3.56417">
        <ele>242.39</ele>
        <time>2013-05-22T13:47:56Z</time>
      </trkpt>
      <trkpt lat="48.50572" lon="-3.56468">
        <ele>239.02</ele>
        <time>2013-05-22T13:48:05Z</time>
      </trkpt>
      <trkpt lat="48.50687" lon="-3.5652">
        <ele>236.62</ele>
        <time>2013-05-22T13:48:21Z</time>
      </trkpt>
      <trkpt lat="48.50781" lon="-3.56562">
        <ele>233.74</ele>
        <time>2013-05-22T13:48:34Z</time>
      </trkpt>
      <trkpt lat="48.50889" lon="-3.56609">
        <ele>230.85</ele>
        <time>2013-05-22T13:48:47Z</time>
      </trkpt>
      <trkpt lat="48.50934" lon="-3.56629">
        <ele>230.37</ele>
        <time>2013-05-22T13:48:54Z</time>
      </trkpt>
      <trkpt lat="48.50982" lon="-3.56646">
        <ele>230.37</ele>
        <time>2013-05-22T13:49:03Z</time>
      </trkpt>
      <trkpt lat="48.50987" lon="-3.5665">
        <ele>230.37</ele>
        <time>2013-05-22T13:49:04Z</time>
      </trkpt>
      <trkpt lat="48.50992" lon="-3.56654">
        <ele>230.37</ele>
        <time>2013-05-22T13:49:05Z</time>
      </trkpt>
      <trkpt lat="48.50997" lon="-3.56659">
        <ele>230.37</ele>
        <time>2013-05-22T13:49:06Z</time>
      </trkpt>
      <trkpt lat="48.51001" lon="-3.56665">
        <ele>230.85</ele>
        <time>2013-05-22T13:49:07Z</time>
      </trkpt>
      <trkpt lat="48.51004" lon="-3.56672">
        <ele>230.37</ele>
        <time>2013-05-22T13:49:08Z</time>
      </trkpt>
      <trkpt lat="48.51008" lon="-3.56679">
        <ele>230.37</ele>
        <time>2013-05-22T13:49:09Z</time>
      </trkpt>
      <trkpt lat="48.51011" lon="-3.56686">
        <ele>230.37</ele>
        <time>2013-05-22T13:49:10Z</time>
      </trkpt>
      <trkpt lat="48.51013" lon="-3.56694">
        <ele>230.85</ele>
        <time>2013-05-22T13:49:11Z</time>
      </trkpt>
      <trkpt lat="48.51015" lon="-3.56701">
        <ele>230.85</ele>
        <time>2013-05-22T13:49:12Z</time>
      </trkpt>
      <trkpt lat="48.51016" lon="-3.56709">
        <ele>231.33</ele>
        <time>2013-05-22T13:49:13Z</time>
      </trkpt>
      <trkpt lat="48.51017" lon="-3.56716">
        <ele>231.81</ele>
        <time>2013-05-22T13:49:14Z</time>
      </trkpt>
      <trkpt lat="48.51017" lon="-3.56731">
        <ele>231.33</ele>
        <time>2013-05-22T13:49:16Z</time>
      </trkpt>
      <trkpt lat="48.51017" lon="-3.56739">
        <ele>231.81</ele>
        <time>2013-05-22T13:49:17Z</time>
      </trkpt>
      <trkpt lat="48.51009" lon="-3.56895">
        <ele>230.37</ele>
        <time>2013-05-22T13:49:35Z</time>
      </trkpt>
      <trkpt lat="48.51011" lon="-3.56904">
        <ele>229.89</ele>
        <time>2013-05-22T13:49:36Z</time>
      </trkpt>
      <trkpt lat="48.51013" lon="-3.56912">
        <ele>228.93</ele>
        <time>2013-05-22T13:49:37Z</time>
      </trkpt>
      <trkpt lat="48.51016" lon="-3.5692">
        <ele>228.45</ele>
        <time>2013-05-22T13:49:38Z</time>
      </trkpt>
      <trkpt lat="48.51021" lon="-3.56928">
        <ele>228.45</ele>
        <time>2013-05-22T13:49:39Z</time>
      </trkpt>
      <trkpt lat="48.51026" lon="-3.56934">
        <ele>227.97</ele>
        <time>2013-05-22T13:49:40Z</time>
      </trkpt>
      <trkpt lat="48.51032" lon="-3.5694">
        <ele>227.97</ele>
        <time>2013-05-22T13:49:41Z</time>
      </trkpt>
      <trkpt lat="48.51039" lon="-3.56944">
        <ele>227.97</ele>
        <time>2013-05-22T13:49:42Z</time>
      </trkpt>
      <trkpt lat="48.51045" lon="-3.56948">
        <ele>227.49</ele>
        <time>2013-05-22T13:49:43Z</time>
      </trkpt>
      <trkpt lat="48.51104" lon="-3.57006">
        <ele>224.12</ele>
        <time>2013-05-22T13:49:52Z</time>
      </trkpt>
      <trkpt lat="48.51123" lon="-3.57029">
        <ele>223.16</ele>
        <time>2013-05-22T13:49:55Z</time>
      </trkpt>
      <trkpt lat="48.51129" lon="-3.57038">
        <ele>222.68</ele>
        <time>2013-05-22T13:49:56Z</time>
      </trkpt>
      <trkpt lat="48.51134" lon="-3.57048">
        <ele>222.68</ele>
        <time>2013-05-22T13:49:57Z</time>
      </trkpt>
      <trkpt lat="48.5114" lon="-3.57059">
        <ele>221.24</ele>
        <time>2013-05-22T13:49:58Z</time>
      </trkpt>
      <trkpt lat="48.51156" lon="-3.57109">
        <ele>219.32</ele>
        <time>2013-05-22T13:50:02Z</time>
      </trkpt>
      <trkpt lat="48.51163" lon="-3.57162">
        <ele>217.4</ele>
        <time>2013-05-22T13:50:06Z</time>
      </trkpt>
      <trkpt lat="48.51163" lon="-3.57177">
        <ele>216.91</ele>
        <time>2013-05-22T13:50:07Z</time>
      </trkpt>
      <trkpt lat="48.51155" lon="-3.57239">
        <ele>213.55</ele>
        <time>2013-05-22T13:50:11Z</time>
      </trkpt>
      <trkpt lat="48.51153" lon="-3.57254">
        <ele>213.55</ele>
        <time>2013-05-22T13:50:12Z</time>
      </trkpt>
      <trkpt lat="48.5115" lon="-3.57284">
        <ele>212.11</ele>
        <time>2013-05-22T13:50:14Z</time>
      </trkpt>
      <trkpt lat="48.51151" lon="-3.57297">
        <ele>211.63</ele>
        <time>2013-05-22T13:50:15Z</time>
      </trkpt>
      <trkpt lat="48.51153" lon="-3.5731">
        <ele>210.67</ele>
        <time>2013-05-22T13:50:16Z</time>
      </trkpt>
      <trkpt lat="48.51157" lon="-3.57324">
        <ele>210.19</ele>
        <time>2013-05-22T13:50:17Z</time>
      </trkpt>
      <trkpt lat="48.51163" lon="-3.57339">
        <ele>209.22</ele>
        <time>2013-05-22T13:50:18Z</time>
      </trkpt>
      <trkpt lat="48.51169" lon="-3.57355">
        <ele>209.22</ele>
        <time>2013-05-22T13:50:19Z</time>
      </trkpt>
      <trkpt lat="48.51187" lon="-3.57396">
        <ele>207.3</ele>
        <time>2013-05-22T13:50:22Z</time>
      </trkpt>
      <trkpt lat="48.51215" lon="-3.57446">
        <ele>204.42</ele>
        <time>2013-05-22T13:50:26Z</time>
      </trkpt>
      <trkpt lat="48.51223" lon="-3.57455">
        <ele>203.94</ele>
        <time>2013-05-22T13:50:27Z</time>
      </trkpt>
      <trkpt lat="48.51232" lon="-3.57463">
        <ele>203.46</ele>
        <time>2013-05-22T13:50:28Z</time>
      </trkpt>
      <trkpt lat="48.51242" lon="-3.57468">
        <ele>202.98</ele>
        <time>2013-05-22T13:50:29Z</time>
      </trkpt>
      <trkpt lat="48.51253" lon="-3.57472">
        <ele>202.98</ele>
        <time>2013-05-22T13:50:30Z</time>
      </trkpt>
      <trkpt lat="48.51264" lon="-3.57475">
        <ele>202.49</ele>
        <time>2013-05-22T13:50:31Z</time>
      </trkpt>
      <trkpt lat="48.51325" lon="-3.57496">
        <ele>198.65</ele>
        <time>2013-05-22T13:50:37Z</time>
      </trkpt>
      <trkpt lat="48.51361" lon="-3.57513">
        <ele>196.25</ele>
        <time>2013-05-22T13:50:41Z</time>
      </trkpt>
      <trkpt lat="48.51437" lon="-3.57561">
        <ele>196.73</ele>
        <time>2013-05-22T13:50:53Z</time>
      </trkpt>
      <trkpt lat="48.51466" lon="-3.57583">
        <ele>199.61</ele>
        <time>2013-05-22T13:51:00Z</time>
      </trkpt>
      <trkpt lat="48.5147" lon="-3.57587">
        <ele>199.61</ele>
        <time>2013-05-22T13:51:01Z</time>
      </trkpt>
      <trkpt lat="48.51474" lon="-3.57591">
        <ele>200.09</ele>
        <time>2013-05-22T13:51:02Z</time>
      </trkpt>
      <trkpt lat="48.51496" lon="-3.57624">
        <ele>200.09</ele>
        <time>2013-05-22T13:51:09Z</time>
      </trkpt>
      <trkpt lat="48.51516" lon="-3.57686">
        <ele>202.98</ele>
        <time>2013-05-22T13:51:19Z</time>
      </trkpt>
      <trkpt lat="48.51518" lon="-3.57753">
        <ele>206.34</ele>
        <time>2013-05-22T13:51:29Z</time>
      </trkpt>
      <trkpt lat="48.51525" lon="-3.57845">
        <ele>208.74</ele>
        <time>2013-05-22T13:51:42Z</time>
      </trkpt>
      <trkpt lat="48.51551" lon="-3.57919">
        <ele>212.11</ele>
        <time>2013-05-22T13:51:54Z</time>
      </trkpt>
      <trkpt lat="48.51569" lon="-3.57949">
        <ele>213.07</ele>
        <time>2013-05-22T13:52:00Z</time>
      </trkpt>
      <trkpt lat="48.51576" lon="-3.57958">
        <ele>213.07</ele>
        <time>2013-05-22T13:52:02Z</time>
      </trkpt>
      <trkpt lat="48.51579" lon="-3.57963">
        <ele>213.55</ele>
        <time>2013-05-22T13:52:03Z</time>
      </trkpt>
      <trkpt lat="48.51627" lon="-3.58049">
        <ele>215.95</ele>
        <time>2013-05-22T13:52:19Z</time>
      </trkpt>
      <trkpt lat="48.51656" lon="-3.5817">
        <ele>213.07</ele>
        <time>2013-05-22T13:52:33Z</time>
      </trkpt>
      <trkpt lat="48.5168" lon="-3.58287">
        <ele>209.7</ele>
        <time>2013-05-22T13:52:43Z</time>
      </trkpt>
      <trkpt lat="48.51688" lon="-3.58322">
        <ele>207.78</ele>
        <time>2013-05-22T13:52:46Z</time>
      </trkpt>
      <trkpt lat="48.51725" lon="-3.58499">
        <ele>205.38</ele>
        <time>2013-05-22T13:53:03Z</time>
      </trkpt>
      <trkpt lat="48.51727" lon="-3.58508">
        <ele>204.9</ele>
        <time>2013-05-22T13:53:04Z</time>
      </trkpt>
      <trkpt lat="48.51744" lon="-3.58607">
        <ele>205.86</ele>
        <time>2013-05-22T13:53:16Z</time>
      </trkpt>
      <trkpt lat="48.51745" lon="-3.58625">
        <ele>205.86</ele>
        <time>2013-05-22T13:53:18Z</time>
      </trkpt>
      <trkpt lat="48.51744" lon="-3.58633">
        <ele>206.34</ele>
        <time>2013-05-22T13:53:19Z</time>
      </trkpt>
      <trkpt lat="48.51735" lon="-3.58705">
        <ele>208.74</ele>
        <time>2013-05-22T13:53:29Z</time>
      </trkpt>
      <trkpt lat="48.51733" lon="-3.5871">
        <ele>208.74</ele>
        <time>2013-05-22T13:53:30Z</time>
      </trkpt>
      <trkpt lat="48.51732" lon="-3.58716">
        <ele>209.22</ele>
        <time>2013-05-22T13:53:31Z</time>
      </trkpt>
      <trkpt lat="48.51732" lon="-3.58724">
        <ele>209.7</ele>
        <time>2013-05-22T13:53:32Z</time>
      </trkpt>
      <trkpt lat="48.51733" lon="-3.58731">
        <ele>210.19</ele>
        <time>2013-05-22T13:53:33Z</time>
      </trkpt>
      <trkpt lat="48.51733" lon="-3.58738">
        <ele>210.67</ele>
        <time>2013-05-22T13:53:34Z</time>
      </trkpt>
      <trkpt lat="48.51732" lon="-3.58744">
        <ele>211.15</ele>
        <time>2013-05-22T13:53:35Z</time>
      </trkpt>
      <trkpt lat="48.51731" lon="-3.58749">
        <ele>211.63</ele>
        <time>2013-05-22T13:53:36Z</time>
      </trkpt>
      <trkpt lat="48.51729" lon="-3.58761">
        <ele>212.11</ele>
        <time>2013-05-22T13:53:38Z</time>
      </trkpt>
      <trkpt lat="48.51728" lon="-3.58774">
        <ele>212.59</ele>
        <time>2013-05-22T13:53:40Z</time>
      </trkpt>
      <trkpt lat="48.51721" lon="-3.58824">
        <ele>214.03</ele>
        <time>2013-05-22T13:53:48Z</time>
      </trkpt>
      <trkpt lat="48.5172" lon="-3.5883">
        <ele>214.03</ele>
        <time>2013-05-22T13:53:49Z</time>
      </trkpt>
      <trkpt lat="48.5172" lon="-3.58837">
        <ele>214.51</ele>
        <time>2013-05-22T13:53:50Z</time>
      </trkpt>
      <trkpt lat="48.51719" lon="-3.58844">
        <ele>214.99</ele>
        <time>2013-05-22T13:53:51Z</time>
      </trkpt>
      <trkpt lat="48.51719" lon="-3.58851">
        <ele>214.51</ele>
        <time>2013-05-22T13:53:52Z</time>
      </trkpt>
      <trkpt lat="48.51717" lon="-3.58897">
        <ele>216.91</ele>
        <time>2013-05-22T13:53:59Z</time>
      </trkpt>
      <trkpt lat="48.51716" lon="-3.58922">
        <ele>217.88</ele>
        <time>2013-05-22T13:54:03Z</time>
      </trkpt>
      <trkpt lat="48.51716" lon="-3.58929">
        <ele>218.36</ele>
        <time>2013-05-22T13:54:04Z</time>
      </trkpt>
      <trkpt lat="48.51715" lon="-3.58936">
        <ele>218.36</ele>
        <time>2013-05-22T13:54:05Z</time>
      </trkpt>
      <trkpt lat="48.51714" lon="-3.59025">
        <ele>220.76</ele>
        <time>2013-05-22T13:54:19Z</time>
      </trkpt>
      <trkpt lat="48.51714" lon="-3.59031">
        <ele>221.24</ele>
        <time>2013-05-22T13:54:20Z</time>
      </trkpt>
      <trkpt lat="48.51716" lon="-3.59037">
        <ele>221.72</ele>
        <time>2013-05-22T13:54:21Z</time>
      </trkpt>
      <trkpt lat="48.51718" lon="-3.59041">
        <ele>221.72</ele>
        <time>2013-05-22T13:54:22Z</time>
      </trkpt>
      <trkpt lat="48.51722" lon="-3.59044">
        <ele>221.72</ele>
        <time>2013-05-22T13:54:23Z</time>
      </trkpt>
      <trkpt lat="48.51725" lon="-3.59046">
        <ele>222.2</ele>
        <time>2013-05-22T13:54:24Z</time>
      </trkpt>
      <trkpt lat="48.51729" lon="-3.59046">
        <ele>222.2</ele>
        <time>2013-05-22T13:54:25Z</time>
      </trkpt>
      <trkpt lat="48.51733" lon="-3.59047">
        <ele>222.68</ele>
        <time>2013-05-22T13:54:26Z</time>
      </trkpt>
      <trkpt lat="48.51741" lon="-3.59048">
        <ele>222.68</ele>
        <time>2013-05-22T13:54:28Z</time>
      </trkpt>
      <trkpt lat="48.51753" lon="-3.59051">
        <ele>222.2</ele>
        <time>2013-05-22T13:54:31Z</time>
      </trkpt>
      <trkpt lat="48.51767" lon="-3.5905">
        <ele>222.2</ele>
        <time>2013-05-22T13:54:34Z</time>
      </trkpt>
      <trkpt lat="48.51772" lon="-3.59048">
        <ele>222.68</ele>
        <time>2013-05-22T13:54:35Z</time>
      </trkpt>
      <trkpt lat="48.51777" lon="-3.59046">
        <ele>222.2</ele>
        <time>2013-05-22T13:54:36Z</time>
      </trkpt>
      <trkpt lat="48.5182" lon="-3.5902">
        <ele>221.24</ele>
        <time>2013-05-22T13:54:44Z</time>
      </trkpt>
      <trkpt lat="48.51826" lon="-3.59018">
        <ele>220.76</ele>
        <time>2013-05-22T13:54:45Z</time>
      </trkpt>
      <trkpt lat="48.51831" lon="-3.59016">
        <ele>221.24</ele>
        <time>2013-05-22T13:54:46Z</time>
      </trkpt>
      <trkpt lat="48.51837" lon="-3.59015">
        <ele>221.24</ele>
        <time>2013-05-22T13:54:47Z</time>
      </trkpt>
      <trkpt lat="48.51842" lon="-3.59015">
        <ele>221.24</ele>
        <time>2013-05-22T13:54:48Z</time>
      </trkpt>
      <trkpt lat="48.51895" lon="-3.59009">
        <ele>223.64</ele>
        <time>2013-05-22T13:54:59Z</time>
      </trkpt>
      <trkpt lat="48.51899" lon="-3.59009">
        <ele>223.64</ele>
        <time>2013-05-22T13:55:00Z</time>
      </trkpt>
      <trkpt lat="48.51948" lon="-3.59006">
        <ele>227.01</ele>
        <time>2013-05-22T13:55:11Z</time>
      </trkpt>
      <trkpt lat="48.51961" lon="-3.59007">
        <ele>227.01</ele>
        <time>2013-05-22T13:55:14Z</time>
      </trkpt>
      <trkpt lat="48.52021" lon="-3.59028">
        <ele>230.37</ele>
        <time>2013-05-22T13:55:28Z</time>
      </trkpt>
      <trkpt lat="48.52083" lon="-3.59064">
        <ele>233.74</ele>
        <time>2013-05-22T13:55:44Z</time>
      </trkpt>
      <trkpt lat="48.52135" lon="-3.59096">
        <ele>237.58</ele>
        <time>2013-05-22T13:55:58Z</time>
      </trkpt>
      <trkpt lat="48.52198" lon="-3.59134">
        <ele>239.99</ele>
        <time>2013-05-22T13:56:15Z</time>
      </trkpt>
      <trkpt lat="48.52263" lon="-3.59173">
        <ele>243.35</ele>
        <time>2013-05-22T13:56:31Z</time>
      </trkpt>
      <trkpt lat="48.52344" lon="-3.59218">
        <ele>246.72</ele>
        <time>2013-05-22T13:56:50Z</time>
      </trkpt>
      <trkpt lat="48.52425" lon="-3.59275">
        <ele>248.64</ele>
        <time>2013-05-22T13:57:10Z</time>
      </trkpt>
      <trkpt lat="48.52493" lon="-3.59347">
        <ele>249.6</ele>
        <time>2013-05-22T13:57:27Z</time>
      </trkpt>
      <trkpt lat="48.52546" lon="-3.59408">
        <ele>252</ele>
        <time>2013-05-22T13:57:42Z</time>
      </trkpt>
      <trkpt lat="48.526" lon="-3.59471">
        <ele>254.41</ele>
        <time>2013-05-22T13:57:58Z</time>
      </trkpt>
      <trkpt lat="48.52666" lon="-3.59548">
        <ele>257.29</ele>
        <time>2013-05-22T13:58:17Z</time>
      </trkpt>
      <trkpt lat="48.52739" lon="-3.59632">
        <ele>258.73</ele>
        <time>2013-05-22T13:58:38Z</time>
      </trkpt>
      <trkpt lat="48.52811" lon="-3.59714">
        <ele>258.73</ele>
        <time>2013-05-22T13:58:56Z</time>
      </trkpt>
      <trkpt lat="48.52895" lon="-3.59793">
        <ele>256.81</ele>
        <time>2013-05-22T13:59:14Z</time>
      </trkpt>
      <trkpt lat="48.53009" lon="-3.59849">
        <ele>255.37</ele>
        <time>2013-05-22T13:59:35Z</time>
      </trkpt>
      <trkpt lat="48.5314" lon="-3.59855">
        <ele>252.48</ele>
        <time>2013-05-22T13:59:56Z</time>
      </trkpt>
      <trkpt lat="48.53249" lon="-3.59819">
        <ele>251.52</ele>
        <time>2013-05-22T14:00:12Z</time>
      </trkpt>
      <trkpt lat="48.53357" lon="-3.59776">
        <ele>249.12</ele>
        <time>2013-05-22T14:00:28Z</time>
      </trkpt>
      <trkpt lat="48.53446" lon="-3.59774">
        <ele>247.2</ele>
        <time>2013-05-22T14:00:41Z</time>
      </trkpt>
      <trkpt lat="48.53466" lon="-3.59775">
        <ele>247.2</ele>
        <time>2013-05-22T14:00:44Z</time>
      </trkpt>
      <trkpt lat="48.53473" lon="-3.59774">
        <ele>247.68</ele>
        <time>2013-05-22T14:00:45Z</time>
      </trkpt>
      <trkpt lat="48.53479" lon="-3.59772">
        <ele>247.2</ele>
        <time>2013-05-22T14:00:46Z</time>
      </trkpt>
      <trkpt lat="48.53485" lon="-3.59769">
        <ele>247.2</ele>
        <time>2013-05-22T14:00:47Z</time>
      </trkpt>
      <trkpt lat="48.53491" lon="-3.59765">
        <ele>246.23</ele>
        <time>2013-05-22T14:00:48Z</time>
      </trkpt>
      <trkpt lat="48.53496" lon="-3.59761">
        <ele>246.23</ele>
        <time>2013-05-22T14:00:49Z</time>
      </trkpt>
      <trkpt lat="48.53502" lon="-3.59756">
        <ele>245.75</ele>
        <time>2013-05-22T14:00:50Z</time>
      </trkpt>
      <trkpt lat="48.53507" lon="-3.5975">
        <ele>245.27</ele>
        <time>2013-05-22T14:00:51Z</time>
      </trkpt>
      <trkpt lat="48.53512" lon="-3.59743">
        <ele>245.27</ele>
        <time>2013-05-22T14:00:52Z</time>
      </trkpt>
      <trkpt lat="48.53571" lon="-3.59671">
        <ele>243.35</ele>
        <time>2013-05-22T14:01:03Z</time>
      </trkpt>
      <trkpt lat="48.5362" lon="-3.59647">
        <ele>240.95</ele>
        <time>2013-05-22T14:01:10Z</time>
      </trkpt>
      <trkpt lat="48.53731" lon="-3.59655">
        <ele>238.06</ele>
        <time>2013-05-22T14:01:24Z</time>
      </trkpt>
      <trkpt lat="48.53777" lon="-3.59652">
        <ele>237.58</ele>
        <time>2013-05-22T14:01:30Z</time>
      </trkpt>
      <trkpt lat="48.53785" lon="-3.59648">
        <ele>237.1</ele>
        <time>2013-05-22T14:01:31Z</time>
      </trkpt>
      <trkpt lat="48.53792" lon="-3.59643">
        <ele>237.1</ele>
        <time>2013-05-22T14:01:32Z</time>
      </trkpt>
      <trkpt lat="48.53798" lon="-3.59638">
        <ele>236.62</ele>
        <time>2013-05-22T14:01:33Z</time>
      </trkpt>
      <trkpt lat="48.53805" lon="-3.59631">
        <ele>236.62</ele>
        <time>2013-05-22T14:01:34Z</time>
      </trkpt>
      <trkpt lat="48.5381" lon="-3.59623">
        <ele>236.14</ele>
        <time>2013-05-22T14:01:35Z</time>
      </trkpt>
      <trkpt lat="48.53815" lon="-3.59615">
        <ele>236.14</ele>
        <time>2013-05-22T14:01:36Z</time>
      </trkpt>
      <trkpt lat="48.5382" lon="-3.59606">
        <ele>236.14</ele>
        <time>2013-05-22T14:01:37Z</time>
      </trkpt>
      <trkpt lat="48.53824" lon="-3.59596">
        <ele>236.14</ele>
        <time>2013-05-22T14:01:38Z</time>
      </trkpt>
      <trkpt lat="48.53851" lon="-3.59542">
        <ele>234.7</ele>
        <time>2013-05-22T14:01:44Z</time>
      </trkpt>
      <trkpt lat="48.53857" lon="-3.59535">
        <ele>234.7</ele>
        <time>2013-05-22T14:01:45Z</time>
      </trkpt>
      <trkpt lat="48.53863" lon="-3.59528">
        <ele>234.7</ele>
        <time>2013-05-22T14:01:46Z</time>
      </trkpt>
      <trkpt lat="48.5387" lon="-3.59523">
        <ele>234.7</ele>
        <time>2013-05-22T14:01:47Z</time>
      </trkpt>
      <trkpt lat="48.53877" lon="-3.59519">
        <ele>234.7</ele>
        <time>2013-05-22T14:01:48Z</time>
      </trkpt>
      <trkpt lat="48.53884" lon="-3.59516">
        <ele>234.7</ele>
        <time>2013-05-22T14:01:49Z</time>
      </trkpt>
      <trkpt lat="48.53891" lon="-3.59513">
        <ele>234.22</ele>
        <time>2013-05-22T14:01:50Z</time>
      </trkpt>
      <trkpt lat="48.53898" lon="-3.59511">
        <ele>234.22</ele>
        <time>2013-05-22T14:01:51Z</time>
      </trkpt>
      <trkpt lat="48.53906" lon="-3.5951">
        <ele>234.7</ele>
        <time>2013-05-22T14:01:52Z</time>
      </trkpt>
      <trkpt lat="48.53913" lon="-3.5951">
        <ele>234.22</ele>
        <time>2013-05-22T14:01:53Z</time>
      </trkpt>
      <trkpt lat="48.53976" lon="-3.59524">
        <ele>233.26</ele>
        <time>2013-05-22T14:02:02Z</time>
      </trkpt>
      <trkpt lat="48.53983" lon="-3.59529">
        <ele>233.26</ele>
        <time>2013-05-22T14:02:03Z</time>
      </trkpt>
      <trkpt lat="48.53989" lon="-3.59534">
        <ele>232.78</ele>
        <time>2013-05-22T14:02:04Z</time>
      </trkpt>
      <trkpt lat="48.53995" lon="-3.5954">
        <ele>232.3</ele>
        <time>2013-05-22T14:02:05Z</time>
      </trkpt>
      <trkpt lat="48.54" lon="-3.59548">
        <ele>232.3</ele>
        <time>2013-05-22T14:02:06Z</time>
      </trkpt>
      <trkpt lat="48.54005" lon="-3.59556">
        <ele>232.3</ele>
        <time>2013-05-22T14:02:07Z</time>
      </trkpt>
      <trkpt lat="48.5401" lon="-3.59564">
        <ele>231.81</ele>
        <time>2013-05-22T14:02:08Z</time>
      </trkpt>
      <trkpt lat="48.54014" lon="-3.59574">
        <ele>231.81</ele>
        <time>2013-05-22T14:02:09Z</time>
      </trkpt>
      <trkpt lat="48.54017" lon="-3.59584">
        <ele>231.81</ele>
        <time>2013-05-22T14:02:10Z</time>
      </trkpt>
      <trkpt lat="48.5402" lon="-3.59594">
        <ele>231.33</ele>
        <time>2013-05-22T14:02:11Z</time>
      </trkpt>
      <trkpt lat="48.54038" lon="-3.59647">
        <ele>230.85</ele>
        <time>2013-05-22T14:02:16Z</time>
      </trkpt>
      <trkpt lat="48.54042" lon="-3.59656">
        <ele>230.37</ele>
        <time>2013-05-22T14:02:17Z</time>
      </trkpt>
      <trkpt lat="48.54048" lon="-3.59665">
        <ele>229.89</ele>
        <time>2013-05-22T14:02:18Z</time>
      </trkpt>
      <trkpt lat="48.54054" lon="-3.59672">
        <ele>229.89</ele>
        <time>2013-05-22T14:02:19Z</time>
      </trkpt>
      <trkpt lat="48.5406" lon="-3.59678">
        <ele>229.89</ele>
        <time>2013-05-22T14:02:20Z</time>
      </trkpt>
      <trkpt lat="48.54067" lon="-3.59683">
        <ele>228.93</ele>
        <time>2013-05-22T14:02:21Z</time>
      </trkpt>
      <trkpt lat="48.54074" lon="-3.59685">
        <ele>228.45</ele>
        <time>2013-05-22T14:02:22Z</time>
      </trkpt>
      <trkpt lat="48.54081" lon="-3.59687">
        <ele>227.97</ele>
        <time>2013-05-22T14:02:23Z</time>
      </trkpt>
      <trkpt lat="48.54088" lon="-3.59688">
        <ele>227.49</ele>
        <time>2013-05-22T14:02:24Z</time>
      </trkpt>
      <trkpt lat="48.54122" lon="-3.59681">
        <ele>225.57</ele>
        <time>2013-05-22T14:02:28Z</time>
      </trkpt>
      <trkpt lat="48.54131" lon="-3.59677">
        <ele>225.57</ele>
        <time>2013-05-22T14:02:29Z</time>
      </trkpt>
      <trkpt lat="48.54139" lon="-3.5967">
        <ele>225.57</ele>
        <time>2013-05-22T14:02:30Z</time>
      </trkpt>
      <trkpt lat="48.54147" lon="-3.59661">
        <ele>224.12</ele>
        <time>2013-05-22T14:02:31Z</time>
      </trkpt>
      <trkpt lat="48.54153" lon="-3.59651">
        <ele>223.64</ele>
        <time>2013-05-22T14:02:32Z</time>
      </trkpt>
      <trkpt lat="48.54158" lon="-3.5964">
        <ele>223.16</ele>
        <time>2013-05-22T14:02:33Z</time>
      </trkpt>
      <trkpt lat="48.54162" lon="-3.59627">
        <ele>222.68</ele>
        <time>2013-05-22T14:02:34Z</time>
      </trkpt>
      <trkpt lat="48.54165" lon="-3.59614">
        <ele>222.2</ele>
        <time>2013-05-22T14:02:35Z</time>
      </trkpt>
      <trkpt lat="48.54167" lon="-3.596">
        <ele>222.2</ele>
        <time>2013-05-22T14:02:36Z</time>
      </trkpt>
      <trkpt lat="48.54167" lon="-3.59586">
        <ele>221.72</ele>
        <time>2013-05-22T14:02:37Z</time>
      </trkpt>
      <trkpt lat="48.54171" lon="-3.59436">
        <ele>220.28</ele>
        <time>2013-05-22T14:02:49Z</time>
      </trkpt>
      <trkpt lat="48.54175" lon="-3.59413">
        <ele>219.8</ele>
        <time>2013-05-22T14:02:51Z</time>
      </trkpt>
      <trkpt lat="48.54178" lon="-3.59402">
        <ele>220.28</ele>
        <time>2013-05-22T14:02:52Z</time>
      </trkpt>
      <trkpt lat="48.54182" lon="-3.59392">
        <ele>220.28</ele>
        <time>2013-05-22T14:02:53Z</time>
      </trkpt>
      <trkpt lat="48.54186" lon="-3.59383">
        <ele>220.28</ele>
        <time>2013-05-22T14:02:54Z</time>
      </trkpt>
      <trkpt lat="48.54191" lon="-3.59375">
        <ele>220.28</ele>
        <time>2013-05-22T14:02:55Z</time>
      </trkpt>
      <trkpt lat="48.54196" lon="-3.59367">
        <ele>220.28</ele>
        <time>2013-05-22T14:02:56Z</time>
      </trkpt>
      <trkpt lat="48.54202" lon="-3.5936">
        <ele>220.76</ele>
        <time>2013-05-22T14:02:57Z</time>
      </trkpt>
      <trkpt lat="48.54208" lon="-3.59354">
        <ele>220.76</ele>
        <time>2013-05-22T14:02:58Z</time>
      </trkpt>
      <trkpt lat="48.54214" lon="-3.59348">
        <ele>220.76</ele>
        <time>2013-05-22T14:02:59Z</time>
      </trkpt>
      <trkpt lat="48.54329" lon="-3.59269">
        <ele>218.84</ele>
        <time>2013-05-22T14:03:17Z</time>
      </trkpt>
      <trkpt lat="48.54431" lon="-3.59232">
        <ele>218.36</ele>
        <time>2013-05-22T14:03:32Z</time>
      </trkpt>
      <trkpt lat="48.54501" lon="-3.59205">
        <ele>215.95</ele>
        <time>2013-05-22T14:03:42Z</time>
      </trkpt>
      <trkpt lat="48.54508" lon="-3.59201">
        <ele>215.95</ele>
        <time>2013-05-22T14:03:43Z</time>
      </trkpt>
      <trkpt lat="48.54515" lon="-3.59195">
        <ele>215.95</ele>
        <time>2013-05-22T14:03:44Z</time>
      </trkpt>
      <trkpt lat="48.54528" lon="-3.59182">
        <ele>215.47</ele>
        <time>2013-05-22T14:03:46Z</time>
      </trkpt>
      <trkpt lat="48.54533" lon="-3.59173">
        <ele>214.99</ele>
        <time>2013-05-22T14:03:47Z</time>
      </trkpt>
      <trkpt lat="48.54538" lon="-3.59163">
        <ele>214.03</ele>
        <time>2013-05-22T14:03:48Z</time>
      </trkpt>
      <trkpt lat="48.54542" lon="-3.59152">
        <ele>214.03</ele>
        <time>2013-05-22T14:03:49Z</time>
      </trkpt>
      <trkpt lat="48.54545" lon="-3.59141">
        <ele>213.55</ele>
        <time>2013-05-22T14:03:50Z</time>
      </trkpt>
      <trkpt lat="48.54548" lon="-3.5913">
        <ele>213.07</ele>
        <time>2013-05-22T14:03:51Z</time>
      </trkpt>
      <trkpt lat="48.54556" lon="-3.59096">
        <ele>212.59</ele>
        <time>2013-05-22T14:03:54Z</time>
      </trkpt>
      <trkpt lat="48.54561" lon="-3.59086">
        <ele>212.59</ele>
        <time>2013-05-22T14:03:55Z</time>
      </trkpt>
      <trkpt lat="48.54567" lon="-3.59078">
        <ele>212.11</ele>
        <time>2013-05-22T14:03:56Z</time>
      </trkpt>
      <trkpt lat="48.5458" lon="-3.59062">
        <ele>211.63</ele>
        <time>2013-05-22T14:03:58Z</time>
      </trkpt>
      <trkpt lat="48.54588" lon="-3.59055">
        <ele>212.11</ele>
        <time>2013-05-22T14:03:59Z</time>
      </trkpt>
      <trkpt lat="48.54617" lon="-3.5901">
        <ele>209.22</ele>
        <time>2013-05-22T14:04:04Z</time>
      </trkpt>
      <trkpt lat="48.54627" lon="-3.58992">
        <ele>209.22</ele>
        <time>2013-05-22T14:04:06Z</time>
      </trkpt>
      <trkpt lat="48.54637" lon="-3.58979">
        <ele>208.26</ele>
        <time>2013-05-22T14:04:08Z</time>
      </trkpt>
      <trkpt lat="48.54644" lon="-3.58974">
        <ele>207.78</ele>
        <time>2013-05-22T14:04:09Z</time>
      </trkpt>
      <trkpt lat="48.5465" lon="-3.5897">
        <ele>207.78</ele>
        <time>2013-05-22T14:04:10Z</time>
      </trkpt>
      <trkpt lat="48.54657" lon="-3.58968">
        <ele>207.3</ele>
        <time>2013-05-22T14:04:11Z</time>
      </trkpt>
      <trkpt lat="48.54664" lon="-3.58967">
        <ele>207.3</ele>
        <time>2013-05-22T14:04:12Z</time>
      </trkpt>
      <trkpt lat="48.5467" lon="-3.58967">
        <ele>207.3</ele>
        <time>2013-05-22T14:04:13Z</time>
      </trkpt>
      <trkpt lat="48.54676" lon="-3.58968">
        <ele>207.78</ele>
        <time>2013-05-22T14:04:14Z</time>
      </trkpt>
      <trkpt lat="48.54682" lon="-3.5897">
        <ele>207.3</ele>
        <time>2013-05-22T14:04:15Z</time>
      </trkpt>
      <trkpt lat="48.54688" lon="-3.58973">
        <ele>207.78</ele>
        <time>2013-05-22T14:04:16Z</time>
      </trkpt>
      <trkpt lat="48.54721" lon="-3.58991">
        <ele>208.74</ele>
        <time>2013-05-22T14:04:22Z</time>
      </trkpt>
      <trkpt lat="48.5479" lon="-3.58991">
        <ele>211.15</ele>
        <time>2013-05-22T14:04:35Z</time>
      </trkpt>
      <trkpt lat="48.54795" lon="-3.58989">
        <ele>211.15</ele>
        <time>2013-05-22T14:04:36Z</time>
      </trkpt>
      <trkpt lat="48.548" lon="-3.58988">
        <ele>211.15</ele>
        <time>2013-05-22T14:04:37Z</time>
      </trkpt>
      <trkpt lat="48.54827" lon="-3.5898">
        <ele>212.11</ele>
        <time>2013-05-22T14:04:43Z</time>
      </trkpt>
      <trkpt lat="48.54879" lon="-3.58964">
        <ele>213.55</ele>
        <time>2013-05-22T14:04:53Z</time>
      </trkpt>
      <trkpt lat="48.54921" lon="-3.58947">
        <ele>212.59</ele>
        <time>2013-05-22T14:05:01Z</time>
      </trkpt>
      <trkpt lat="48.54985" lon="-3.58906">
        <ele>210.19</ele>
        <time>2013-05-22T14:05:11Z</time>
      </trkpt>
      <trkpt lat="48.54991" lon="-3.589">
        <ele>210.19</ele>
        <time>2013-05-22T14:05:12Z</time>
      </trkpt>
      <trkpt lat="48.54997" lon="-3.58893">
        <ele>209.7</ele>
        <time>2013-05-22T14:05:13Z</time>
      </trkpt>
      <trkpt lat="48.55003" lon="-3.58886">
        <ele>208.74</ele>
        <time>2013-05-22T14:05:14Z</time>
      </trkpt>
      <trkpt lat="48.55009" lon="-3.58877">
        <ele>207.78</ele>
        <time>2013-05-22T14:05:15Z</time>
      </trkpt>
      <trkpt lat="48.55046" lon="-3.58791">
        <ele>204.42</ele>
        <time>2013-05-22T14:05:23Z</time>
      </trkpt>
      <trkpt lat="48.55072" lon="-3.58724">
        <ele>202.98</ele>
        <time>2013-05-22T14:05:29Z</time>
      </trkpt>
      <trkpt lat="48.55117" lon="-3.586">
        <ele>201.53</ele>
        <time>2013-05-22T14:05:42Z</time>
      </trkpt>
      <trkpt lat="48.55173" lon="-3.58489">
        <ele>201.53</ele>
        <time>2013-05-22T14:05:56Z</time>
      </trkpt>
      <trkpt lat="48.55183" lon="-3.58475">
        <ele>201.53</ele>
        <time>2013-05-22T14:05:58Z</time>
      </trkpt>
      <trkpt lat="48.55261" lon="-3.58362">
        <ele>198.17</ele>
        <time>2013-05-22T14:06:13Z</time>
      </trkpt>
      <trkpt lat="48.55322" lon="-3.58259">
        <ele>195.77</ele>
        <time>2013-05-22T14:06:25Z</time>
      </trkpt>
      <trkpt lat="48.55326" lon="-3.58248">
        <ele>195.28</ele>
        <time>2013-05-22T14:06:26Z</time>
      </trkpt>
      <trkpt lat="48.55328" lon="-3.58236">
        <ele>194.8</ele>
        <time>2013-05-22T14:06:27Z</time>
      </trkpt>
      <trkpt lat="48.5533" lon="-3.58224">
        <ele>195.28</ele>
        <time>2013-05-22T14:06:28Z</time>
      </trkpt>
      <trkpt lat="48.55332" lon="-3.58212">
        <ele>194.8</ele>
        <time>2013-05-22T14:06:29Z</time>
      </trkpt>
      <trkpt lat="48.55333" lon="-3.582">
        <ele>194.32</ele>
        <time>2013-05-22T14:06:30Z</time>
      </trkpt>
      <trkpt lat="48.55333" lon="-3.58187">
        <ele>194.8</ele>
        <time>2013-05-22T14:06:31Z</time>
      </trkpt>
      <trkpt lat="48.55333" lon="-3.58175">
        <ele>194.8</ele>
        <time>2013-05-22T14:06:32Z</time>
      </trkpt>
      <trkpt lat="48.55331" lon="-3.58078">
        <ele>192.4</ele>
        <time>2013-05-22T14:06:41Z</time>
      </trkpt>
      <trkpt lat="48.55342" lon="-3.58009">
        <ele>192.88</ele>
        <time>2013-05-22T14:06:48Z</time>
      </trkpt>
      <trkpt lat="48.55345" lon="-3.58">
        <ele>192.88</ele>
        <time>2013-05-22T14:06:49Z</time>
      </trkpt>
      <trkpt lat="48.554" lon="-3.57873">
        <ele>194.32</ele>
        <time>2013-05-22T14:07:05Z</time>
      </trkpt>
      <trkpt lat="48.5547" lon="-3.57779">
        <ele>193.84</ele>
        <time>2013-05-22T14:07:19Z</time>
      </trkpt>
      <trkpt lat="48.55481" lon="-3.57767">
        <ele>193.84</ele>
        <time>2013-05-22T14:07:21Z</time>
      </trkpt>
      <trkpt lat="48.55527" lon="-3.57715">
        <ele>193.84</ele>
        <time>2013-05-22T14:07:30Z</time>
      </trkpt>
      <trkpt lat="48.55533" lon="-3.57709">
        <ele>193.84</ele>
        <time>2013-05-22T14:07:31Z</time>
      </trkpt>
      <trkpt lat="48.55577" lon="-3.57656">
        <ele>192.88</ele>
        <time>2013-05-22T14:07:39Z</time>
      </trkpt>
      <trkpt lat="48.55583" lon="-3.57649">
        <ele>192.4</ele>
        <time>2013-05-22T14:07:40Z</time>
      </trkpt>
      <trkpt lat="48.55656" lon="-3.57561">
        <ele>191.92</ele>
        <time>2013-05-22T14:07:53Z</time>
      </trkpt>
      <trkpt lat="48.55741" lon="-3.57483">
        <ele>190</ele>
        <time>2013-05-22T14:08:06Z</time>
      </trkpt>
      <trkpt lat="48.55781" lon="-3.57444">
        <ele>189.04</ele>
        <time>2013-05-22T14:08:12Z</time>
      </trkpt>
      <trkpt lat="48.5583" lon="-3.574">
        <ele>190</ele>
        <time>2013-05-22T14:08:20Z</time>
      </trkpt>
      <trkpt lat="48.55886" lon="-3.57348">
        <ele>191.44</ele>
        <time>2013-05-22T14:08:31Z</time>
      </trkpt>
      <trkpt lat="48.55954" lon="-3.57287">
        <ele>191.92</ele>
        <time>2013-05-22T14:08:44Z</time>
      </trkpt>
      <trkpt lat="48.56019" lon="-3.57223">
        <ele>193.36</ele>
        <time>2013-05-22T14:08:57Z</time>
      </trkpt>
      <trkpt lat="48.5608" lon="-3.57163">
        <ele>193.36</ele>
        <time>2013-05-22T14:09:09Z</time>
      </trkpt>
      <trkpt lat="48.56085" lon="-3.57159">
        <ele>193.36</ele>
        <time>2013-05-22T14:09:10Z</time>
      </trkpt>
      <trkpt lat="48.56131" lon="-3.57118">
        <ele>192.88</ele>
        <time>2013-05-22T14:09:18Z</time>
      </trkpt>
      <trkpt lat="48.56198" lon="-3.57052">
        <ele>193.36</ele>
        <time>2013-05-22T14:09:30Z</time>
      </trkpt>
      <trkpt lat="48.56271" lon="-3.56986">
        <ele>193.36</ele>
        <time>2013-05-22T14:09:43Z</time>
      </trkpt>
      <trkpt lat="48.56307" lon="-3.56949">
        <ele>192.88</ele>
        <time>2013-05-22T14:09:50Z</time>
      </trkpt>
      <trkpt lat="48.56371" lon="-3.56897">
        <ele>190.96</ele>
        <time>2013-05-22T14:10:01Z</time>
      </trkpt>
      <trkpt lat="48.56377" lon="-3.56892">
        <ele>190.48</ele>
        <time>2013-05-22T14:10:02Z</time>
      </trkpt>
      <trkpt lat="48.56464" lon="-3.56822">
        <ele>189.04</ele>
        <time>2013-05-22T14:10:14Z</time>
      </trkpt>
      <trkpt lat="48.56547" lon="-3.56753">
        <ele>190</ele>
        <time>2013-05-22T14:10:28Z</time>
      </trkpt>
      <trkpt lat="48.56589" lon="-3.56735">
        <ele>189.52</ele>
        <time>2013-05-22T14:10:35Z</time>
      </trkpt>
      <trkpt lat="48.56627" lon="-3.5673">
        <ele>186.63</ele>
        <time>2013-05-22T14:10:44Z</time>
      </trkpt>
      <trkpt lat="48.56642" lon="-3.56734">
        <ele>186.63</ele>
        <time>2013-05-22T14:10:48Z</time>
      </trkpt>
      <trkpt lat="48.56657" lon="-3.56738">
        <ele>186.15</ele>
        <time>2013-05-22T14:10:51Z</time>
      </trkpt>
      <trkpt lat="48.56681" lon="-3.56753">
        <ele>185.67</ele>
        <time>2013-05-22T14:10:55Z</time>
      </trkpt>
      <trkpt lat="48.56769" lon="-3.56815">
        <ele>183.27</ele>
        <time>2013-05-22T14:11:09Z</time>
      </trkpt>
      <trkpt lat="48.56857" lon="-3.5688">
        <ele>182.79</ele>
        <time>2013-05-22T14:11:23Z</time>
      </trkpt>
      <trkpt lat="48.56911" lon="-3.56973">
        <ele>184.71</ele>
        <time>2013-05-22T14:11:36Z</time>
      </trkpt>
      <trkpt lat="48.56955" lon="-3.57084">
        <ele>185.67</ele>
        <time>2013-05-22T14:11:51Z</time>
      </trkpt>
      <trkpt lat="48.56966" lon="-3.57103">
        <ele>186.15</ele>
        <time>2013-05-22T14:11:54Z</time>
      </trkpt>
      <trkpt lat="48.57037" lon="-3.57172">
        <ele>186.15</ele>
        <time>2013-05-22T14:12:09Z</time>
      </trkpt>
      <trkpt lat="48.57092" lon="-3.57207">
        <ele>186.15</ele>
        <time>2013-05-22T14:12:19Z</time>
      </trkpt>
      <trkpt lat="48.57196" lon="-3.57261">
        <ele>183.27</ele>
        <time>2013-05-22T14:12:35Z</time>
      </trkpt>
      <trkpt lat="48.57302" lon="-3.57296">
        <ele>180.87</ele>
        <time>2013-05-22T14:12:49Z</time>
      </trkpt>
      <trkpt lat="48.57346" lon="-3.57306">
        <ele>179.42</ele>
        <time>2013-05-22T14:12:54Z</time>
      </trkpt>
      <trkpt lat="48.57435" lon="-3.57326">
        <ele>176.54</ele>
        <time>2013-05-22T14:13:04Z</time>
      </trkpt>
      <trkpt lat="48.57461" lon="-3.57325">
        <ele>173.66</ele>
        <time>2013-05-22T14:13:07Z</time>
      </trkpt>
      <trkpt lat="48.57469" lon="-3.57322">
        <ele>173.66</ele>
        <time>2013-05-22T14:13:08Z</time>
      </trkpt>
      <trkpt lat="48.57533" lon="-3.57275">
        <ele>170.77</ele>
        <time>2013-05-22T14:13:16Z</time>
      </trkpt>
      <trkpt lat="48.57624" lon="-3.57192">
        <ele>168.85</ele>
        <time>2013-05-22T14:13:29Z</time>
      </trkpt>
      <trkpt lat="48.57705" lon="-3.57116">
        <ele>168.85</ele>
        <time>2013-05-22T14:13:44Z</time>
      </trkpt>
      <trkpt lat="48.57786" lon="-3.5704">
        <ele>170.29</ele>
        <time>2013-05-22T14:14:00Z</time>
      </trkpt>
      <trkpt lat="48.57862" lon="-3.56966">
        <ele>171.25</ele>
        <time>2013-05-22T14:14:15Z</time>
      </trkpt>
      <trkpt lat="48.57939" lon="-3.56894">
        <ele>171.73</ele>
        <time>2013-05-22T14:14:31Z</time>
      </trkpt>
      <trkpt lat="48.58003" lon="-3.56814">
        <ele>171.73</ele>
        <time>2013-05-22T14:14:45Z</time>
      </trkpt>
      <trkpt lat="48.5806" lon="-3.56741">
        <ele>170.77</ele>
        <time>2013-05-22T14:14:57Z</time>
      </trkpt>
      <trkpt lat="48.58066" lon="-3.56737">
        <ele>170.77</ele>
        <time>2013-05-22T14:14:58Z</time>
      </trkpt>
      <trkpt lat="48.58114" lon="-3.56707">
        <ele>170.77</ele>
        <time>2013-05-22T14:15:07Z</time>
      </trkpt>
      <trkpt lat="48.58126" lon="-3.56704">
        <ele>169.81</ele>
        <time>2013-05-22T14:15:09Z</time>
      </trkpt>
      <trkpt lat="48.58132" lon="-3.567">
        <ele>169.33</ele>
        <time>2013-05-22T14:15:10Z</time>
      </trkpt>
      <trkpt lat="48.58137" lon="-3.56695">
        <ele>169.81</ele>
        <time>2013-05-22T14:15:11Z</time>
      </trkpt>
      <trkpt lat="48.58143" lon="-3.56691">
        <ele>169.81</ele>
        <time>2013-05-22T14:15:12Z</time>
      </trkpt>
      <trkpt lat="48.58149" lon="-3.56687">
        <ele>170.29</ele>
        <time>2013-05-22T14:15:13Z</time>
      </trkpt>
      <trkpt lat="48.58155" lon="-3.56683">
        <ele>169.33</ele>
        <time>2013-05-22T14:15:14Z</time>
      </trkpt>
      <trkpt lat="48.58203" lon="-3.56665">
        <ele>165.96</ele>
        <time>2013-05-22T14:15:24Z</time>
      </trkpt>
      <trkpt lat="48.58247" lon="-3.56661">
        <ele>165.96</ele>
        <time>2013-05-22T14:15:34Z</time>
      </trkpt>
      <trkpt lat="48.58253" lon="-3.56662">
        <ele>165.96</ele>
        <time>2013-05-22T14:15:35Z</time>
      </trkpt>
      <trkpt lat="48.58263" lon="-3.56661">
        <ele>165.96</ele>
        <time>2013-05-22T14:15:37Z</time>
      </trkpt>
      <trkpt lat="48.58267" lon="-3.56658">
        <ele>165.48</ele>
        <time>2013-05-22T14:15:38Z</time>
      </trkpt>
      <trkpt lat="48.58275" lon="-3.56645">
        <ele>165</ele>
        <time>2013-05-22T14:15:40Z</time>
      </trkpt>
      <trkpt lat="48.58324" lon="-3.56532">
        <ele>165.96</ele>
        <time>2013-05-22T14:15:55Z</time>
      </trkpt>
      <trkpt lat="48.58372" lon="-3.56414">
        <ele>165</ele>
        <time>2013-05-22T14:16:10Z</time>
      </trkpt>
      <trkpt lat="48.58428" lon="-3.5628">
        <ele>162.6</ele>
        <time>2013-05-22T14:16:25Z</time>
      </trkpt>
      <trkpt lat="48.58493" lon="-3.56122">
        <ele>160.68</ele>
        <time>2013-05-22T14:16:42Z</time>
      </trkpt>
      <trkpt lat="48.58551" lon="-3.55978">
        <ele>160.68</ele>
        <time>2013-05-22T14:16:58Z</time>
      </trkpt>
      <trkpt lat="48.58616" lon="-3.55826">
        <ele>160.68</ele>
        <time>2013-05-22T14:17:16Z</time>
      </trkpt>
      <trkpt lat="48.58684" lon="-3.55698">
        <ele>161.16</ele>
        <time>2013-05-22T14:17:33Z</time>
      </trkpt>
      <trkpt lat="48.5877" lon="-3.55598">
        <ele>161.16</ele>
        <time>2013-05-22T14:17:50Z</time>
      </trkpt>
      <trkpt lat="48.58849" lon="-3.55508">
        <ele>160.68</ele>
        <time>2013-05-22T14:18:05Z</time>
      </trkpt>
      <trkpt lat="48.58916" lon="-3.55373">
        <ele>159.24</ele>
        <time>2013-05-22T14:18:22Z</time>
      </trkpt>
      <trkpt lat="48.5898" lon="-3.55232">
        <ele>159.24</ele>
        <time>2013-05-22T14:18:38Z</time>
      </trkpt>
      <trkpt lat="48.59049" lon="-3.55145">
        <ele>156.83</ele>
        <time>2013-05-22T14:18:50Z</time>
      </trkpt>
      <trkpt lat="48.59127" lon="-3.55068">
        <ele>153.47</ele>
        <time>2013-05-22T14:19:01Z</time>
      </trkpt>
      <trkpt lat="48.59201" lon="-3.54991">
        <ele>151.54</ele>
        <time>2013-05-22T14:19:12Z</time>
      </trkpt>
      <trkpt lat="48.59247" lon="-3.54947">
        <ele>150.58</ele>
        <time>2013-05-22T14:19:20Z</time>
      </trkpt>
      <trkpt lat="48.59253" lon="-3.54943">
        <ele>150.58</ele>
        <time>2013-05-22T14:19:21Z</time>
      </trkpt>
      <trkpt lat="48.59331" lon="-3.54908">
        <ele>148.66</ele>
        <time>2013-05-22T14:19:32Z</time>
      </trkpt>
      <trkpt lat="48.59337" lon="-3.54902">
        <ele>148.18</ele>
        <time>2013-05-22T14:19:33Z</time>
      </trkpt>
      <trkpt lat="48.59343" lon="-3.54895">
        <ele>147.7</ele>
        <time>2013-05-22T14:19:34Z</time>
      </trkpt>
      <trkpt lat="48.59349" lon="-3.54886">
        <ele>147.7</ele>
        <time>2013-05-22T14:19:35Z</time>
      </trkpt>
      <trkpt lat="48.59354" lon="-3.54877">
        <ele>147.22</ele>
        <time>2013-05-22T14:19:36Z</time>
      </trkpt>
      <trkpt lat="48.59359" lon="-3.54867">
        <ele>147.22</ele>
        <time>2013-05-22T14:19:37Z</time>
      </trkpt>
      <trkpt lat="48.59363" lon="-3.54856">
        <ele>146.74</ele>
        <time>2013-05-22T14:19:38Z</time>
      </trkpt>
      <trkpt lat="48.59366" lon="-3.54845">
        <ele>146.74</ele>
        <time>2013-05-22T14:19:39Z</time>
      </trkpt>
      <trkpt lat="48.59368" lon="-3.54834">
        <ele>146.74</ele>
        <time>2013-05-22T14:19:40Z</time>
      </trkpt>
      <trkpt lat="48.5937" lon="-3.54823">
        <ele>146.74</ele>
        <time>2013-05-22T14:19:41Z</time>
      </trkpt>
      <trkpt lat="48.59375" lon="-3.54684">
        <ele>146.74</ele>
        <time>2013-05-22T14:19:54Z</time>
      </trkpt>
      <trkpt lat="48.59385" lon="-3.54541">
        <ele>147.7</ele>
        <time>2013-05-22T14:20:08Z</time>
      </trkpt>
      <trkpt lat="48.59417" lon="-3.54455">
        <ele>148.18</ele>
        <time>2013-05-22T14:20:19Z</time>
      </trkpt>
      <trkpt lat="48.59421" lon="-3.54449">
        <ele>148.18</ele>
        <time>2013-05-22T14:20:20Z</time>
      </trkpt>
      <trkpt lat="48.59492" lon="-3.54369">
        <ele>150.58</ele>
        <time>2013-05-22T14:20:36Z</time>
      </trkpt>
      <trkpt lat="48.59561" lon="-3.54293">
        <ele>151.54</ele>
        <time>2013-05-22T14:20:52Z</time>
      </trkpt>
      <trkpt lat="48.59609" lon="-3.54241">
        <ele>153.95</ele>
        <time>2013-05-22T14:21:03Z</time>
      </trkpt>
      <trkpt lat="48.59682" lon="-3.54173">
        <ele>155.87</ele>
        <time>2013-05-22T14:21:19Z</time>
      </trkpt>
      <trkpt lat="48.59758" lon="-3.54106">
        <ele>158.27</ele>
        <time>2013-05-22T14:21:36Z</time>
      </trkpt>
      <trkpt lat="48.59828" lon="-3.54023">
        <ele>160.68</ele>
        <time>2013-05-22T14:21:53Z</time>
      </trkpt>
      <trkpt lat="48.59888" lon="-3.53946">
        <ele>163.56</ele>
        <time>2013-05-22T14:22:08Z</time>
      </trkpt>
      <trkpt lat="48.59946" lon="-3.53882">
        <ele>165.48</ele>
        <time>2013-05-22T14:22:22Z</time>
      </trkpt>
      <trkpt lat="48.60031" lon="-3.53842">
        <ele>165</ele>
        <time>2013-05-22T14:22:38Z</time>
      </trkpt>
      <trkpt lat="48.60104" lon="-3.53843">
        <ele>164.52</ele>
        <time>2013-05-22T14:22:50Z</time>
      </trkpt>
      <trkpt lat="48.60115" lon="-3.53845">
        <ele>164.04</ele>
        <time>2013-05-22T14:22:52Z</time>
      </trkpt>
      <trkpt lat="48.60219" lon="-3.53852">
        <ele>163.08</ele>
        <time>2013-05-22T14:23:09Z</time>
      </trkpt>
      <trkpt lat="48.60331" lon="-3.53861">
        <ele>162.6</ele>
        <time>2013-05-22T14:23:27Z</time>
      </trkpt>
      <trkpt lat="48.60412" lon="-3.53857">
        <ele>163.56</ele>
        <time>2013-05-22T14:23:41Z</time>
      </trkpt>
      <trkpt lat="48.60417" lon="-3.53856">
        <ele>163.56</ele>
        <time>2013-05-22T14:23:42Z</time>
      </trkpt>
      <trkpt lat="48.60514" lon="-3.53838">
        <ele>164.52</ele>
        <time>2013-05-22T14:23:59Z</time>
      </trkpt>
      <trkpt lat="48.60592" lon="-3.53824">
        <ele>164.52</ele>
        <time>2013-05-22T14:24:14Z</time>
      </trkpt>
      <trkpt lat="48.60602" lon="-3.53821">
        <ele>164.04</ele>
        <time>2013-05-22T14:24:16Z</time>
      </trkpt>
      <trkpt lat="48.60661" lon="-3.53809">
        <ele>161.64</ele>
        <time>2013-05-22T14:24:26Z</time>
      </trkpt>
      <trkpt lat="48.60725" lon="-3.53798">
        <ele>159.24</ele>
        <time>2013-05-22T14:24:35Z</time>
      </trkpt>
      <trkpt lat="48.60823" lon="-3.53772">
        <ele>155.87</ele>
        <time>2013-05-22T14:24:48Z</time>
      </trkpt>
      <trkpt lat="48.60875" lon="-3.53763">
        <ele>153.47</ele>
        <time>2013-05-22T14:24:55Z</time>
      </trkpt>
      <trkpt lat="48.6097" lon="-3.53764">
        <ele>150.1</ele>
        <time>2013-05-22T14:25:07Z</time>
      </trkpt>
      <trkpt lat="48.61053" lon="-3.53765">
        <ele>147.7</ele>
        <time>2013-05-22T14:25:18Z</time>
      </trkpt>
      <trkpt lat="48.61171" lon="-3.53742">
        <ele>146.74</ele>
        <time>2013-05-22T14:25:34Z</time>
      </trkpt>
      <trkpt lat="48.61286" lon="-3.53687">
        <ele>143.37</ele>
        <time>2013-05-22T14:25:50Z</time>
      </trkpt>
      <trkpt lat="48.61317" lon="-3.53672">
        <ele>141.45</ele>
        <time>2013-05-22T14:25:54Z</time>
      </trkpt>
      <trkpt lat="48.61407" lon="-3.53631">
        <ele>138.09</ele>
        <time>2013-05-22T14:26:05Z</time>
      </trkpt>
      <trkpt lat="48.61486" lon="-3.53603">
        <ele>135.68</ele>
        <time>2013-05-22T14:26:15Z</time>
      </trkpt>
      <trkpt lat="48.61502" lon="-3.53605">
        <ele>135.2</ele>
        <time>2013-05-22T14:26:17Z</time>
      </trkpt>
      <trkpt lat="48.61553" lon="-3.53614">
        <ele>131.84</ele>
        <time>2013-05-22T14:26:23Z</time>
      </trkpt>
      <trkpt lat="48.61621" lon="-3.53648">
        <ele>128.47</ele>
        <time>2013-05-22T14:26:31Z</time>
      </trkpt>
      <trkpt lat="48.61629" lon="-3.53654">
        <ele>128.47</ele>
        <time>2013-05-22T14:26:32Z</time>
      </trkpt>
      <trkpt lat="48.61689" lon="-3.53687">
        <ele>125.11</ele>
        <time>2013-05-22T14:26:39Z</time>
      </trkpt>
      <trkpt lat="48.61757" lon="-3.53741">
        <ele>121.74</ele>
        <time>2013-05-22T14:26:48Z</time>
      </trkpt>
      <trkpt lat="48.61802" lon="-3.53788">
        <ele>120.78</ele>
        <time>2013-05-22T14:26:55Z</time>
      </trkpt>
      <trkpt lat="48.61809" lon="-3.53793">
        <ele>120.78</ele>
        <time>2013-05-22T14:26:56Z</time>
      </trkpt>
      <trkpt lat="48.61816" lon="-3.53796">
        <ele>120.78</ele>
        <time>2013-05-22T14:26:57Z</time>
      </trkpt>
      <trkpt lat="48.61824" lon="-3.53798">
        <ele>119.82</ele>
        <time>2013-05-22T14:26:58Z</time>
      </trkpt>
      <trkpt lat="48.61831" lon="-3.538">
        <ele>120.3</ele>
        <time>2013-05-22T14:26:59Z</time>
      </trkpt>
      <trkpt lat="48.61918" lon="-3.53821">
        <ele>119.34</ele>
        <time>2013-05-22T14:27:12Z</time>
      </trkpt>
      <trkpt lat="48.61924" lon="-3.5382">
        <ele>118.86</ele>
        <time>2013-05-22T14:27:13Z</time>
      </trkpt>
      <trkpt lat="48.61929" lon="-3.53815">
        <ele>118.38</ele>
        <time>2013-05-22T14:27:14Z</time>
      </trkpt>
      <trkpt lat="48.61934" lon="-3.53808">
        <ele>118.38</ele>
        <time>2013-05-22T14:27:15Z</time>
      </trkpt>
      <trkpt lat="48.61938" lon="-3.53801">
        <ele>118.38</ele>
        <time>2013-05-22T14:27:16Z</time>
      </trkpt>
      <trkpt lat="48.61943" lon="-3.53795">
        <ele>118.38</ele>
        <time>2013-05-22T14:27:17Z</time>
      </trkpt>
      <trkpt lat="48.61948" lon="-3.53789">
        <ele>118.38</ele>
        <time>2013-05-22T14:27:18Z</time>
      </trkpt>
      <trkpt lat="48.61953" lon="-3.53785">
        <ele>118.38</ele>
        <time>2013-05-22T14:27:19Z</time>
      </trkpt>
      <trkpt lat="48.61965" lon="-3.53777">
        <ele>117.42</ele>
        <time>2013-05-22T14:27:21Z</time>
      </trkpt>
      <trkpt lat="48.6197" lon="-3.53769">
        <ele>116.94</ele>
        <time>2013-05-22T14:27:22Z</time>
      </trkpt>
      <trkpt lat="48.61973" lon="-3.53759">
        <ele>115.98</ele>
        <time>2013-05-22T14:27:23Z</time>
      </trkpt>
      <trkpt lat="48.6198" lon="-3.53737">
        <ele>115.5</ele>
        <time>2013-05-22T14:27:25Z</time>
      </trkpt>
      <trkpt lat="48.62007" lon="-3.5365">
        <ele>112.13</ele>
        <time>2013-05-22T14:27:32Z</time>
      </trkpt>
      <trkpt lat="48.6201" lon="-3.53638">
        <ele>112.13</ele>
        <time>2013-05-22T14:27:33Z</time>
      </trkpt>
      <trkpt lat="48.62028" lon="-3.53551">
        <ele>114.53</ele>
        <time>2013-05-22T14:27:43Z</time>
      </trkpt>
      <trkpt lat="48.6203" lon="-3.53543">
        <ele>115.01</ele>
        <time>2013-05-22T14:27:44Z</time>
      </trkpt>
      <trkpt lat="48.6204" lon="-3.53431">
        <ele>117.42</ele>
        <time>2013-05-22T14:27:58Z</time>
      </trkpt>
      <trkpt lat="48.62038" lon="-3.53416">
        <ele>117.9</ele>
        <time>2013-05-22T14:28:00Z</time>
      </trkpt>
      <trkpt lat="48.62011" lon="-3.53325">
        <ele>121.26</ele>
        <time>2013-05-22T14:28:13Z</time>
      </trkpt>
      <trkpt lat="48.62009" lon="-3.53319">
        <ele>121.26</ele>
        <time>2013-05-22T14:28:14Z</time>
      </trkpt>
      <trkpt lat="48.62008" lon="-3.53311">
        <ele>121.26</ele>
        <time>2013-05-22T14:28:15Z</time>
      </trkpt>
      <trkpt lat="48.62" lon="-3.53263">
        <ele>120.78</ele>
        <time>2013-05-22T14:28:21Z</time>
      </trkpt>
      <trkpt lat="48.61998" lon="-3.53254">
        <ele>120.78</ele>
        <time>2013-05-22T14:28:22Z</time>
      </trkpt>
      <trkpt lat="48.61992" lon="-3.53237">
        <ele>120.78</ele>
        <time>2013-05-22T14:28:24Z</time>
      </trkpt>
      <trkpt lat="48.61989" lon="-3.5323">
        <ele>121.26</ele>
        <time>2013-05-22T14:28:25Z</time>
      </trkpt>
      <trkpt lat="48.61968" lon="-3.53195">
        <ele>121.26</ele>
        <time>2013-05-22T14:28:31Z</time>
      </trkpt>
      <trkpt lat="48.61963" lon="-3.53192">
        <ele>121.26</ele>
        <time>2013-05-22T14:28:32Z</time>
      </trkpt>
      <trkpt lat="48.61877" lon="-3.53159">
        <ele>123.19</ele>
        <time>2013-05-22T14:28:48Z</time>
      </trkpt>
      <trkpt lat="48.61816" lon="-3.53133">
        <ele>125.59</ele>
        <time>2013-05-22T14:29:00Z</time>
      </trkpt>
      <trkpt lat="48.61806" lon="-3.5313">
        <ele>125.59</ele>
        <time>2013-05-22T14:29:02Z</time>
      </trkpt>
      <trkpt lat="48.61728" lon="-3.53096">
        <ele>127.99</ele>
        <time>2013-05-22T14:29:17Z</time>
      </trkpt>
      <trkpt lat="48.61642" lon="-3.53051">
        <ele>127.03</ele>
        <time>2013-05-22T14:29:32Z</time>
      </trkpt>
      <trkpt lat="48.61625" lon="-3.53033">
        <ele>126.55</ele>
        <time>2013-05-22T14:29:35Z</time>
      </trkpt>
      <trkpt lat="48.61621" lon="-3.53025">
        <ele>127.03</ele>
        <time>2013-05-22T14:29:36Z</time>
      </trkpt>
      <trkpt lat="48.61617" lon="-3.53017">
        <ele>126.55</ele>
        <time>2013-05-22T14:29:37Z</time>
      </trkpt>
      <trkpt lat="48.61601" lon="-3.52959">
        <ele>128.95</ele>
        <time>2013-05-22T14:29:45Z</time>
      </trkpt>
      <trkpt lat="48.616" lon="-3.52952">
        <ele>129.43</ele>
        <time>2013-05-22T14:29:46Z</time>
      </trkpt>
      <trkpt lat="48.61593" lon="-3.52894">
        <ele>132.32</ele>
        <time>2013-05-22T14:29:55Z</time>
      </trkpt>
      <trkpt lat="48.61589" lon="-3.52819">
        <ele>135.68</ele>
        <time>2013-05-22T14:30:06Z</time>
      </trkpt>
      <trkpt lat="48.61587" lon="-3.52786">
        <ele>136.64</ele>
        <time>2013-05-22T14:30:11Z</time>
      </trkpt>
      <trkpt lat="48.61587" lon="-3.5278">
        <ele>137.13</ele>
        <time>2013-05-22T14:30:12Z</time>
      </trkpt>
      <trkpt lat="48.61586" lon="-3.52774">
        <ele>137.13</ele>
        <time>2013-05-22T14:30:13Z</time>
      </trkpt>
      <trkpt lat="48.61584" lon="-3.52754">
        <ele>137.61</ele>
        <time>2013-05-22T14:30:16Z</time>
      </trkpt>
      <trkpt lat="48.61584" lon="-3.52747">
        <ele>138.09</ele>
        <time>2013-05-22T14:30:17Z</time>
      </trkpt>
      <trkpt lat="48.61582" lon="-3.52734">
        <ele>138.57</ele>
        <time>2013-05-22T14:30:19Z</time>
      </trkpt>
      <trkpt lat="48.61582" lon="-3.52728">
        <ele>139.05</ele>
        <time>2013-05-22T14:30:20Z</time>
      </trkpt>
      <trkpt lat="48.61579" lon="-3.52695">
        <ele>140.49</ele>
        <time>2013-05-22T14:30:25Z</time>
      </trkpt>
      <trkpt lat="48.61577" lon="-3.52688">
        <ele>140.49</ele>
        <time>2013-05-22T14:30:26Z</time>
      </trkpt>
      <trkpt lat="48.61576" lon="-3.52682">
        <ele>140.49</ele>
        <time>2013-05-22T14:30:27Z</time>
      </trkpt>
      <trkpt lat="48.61574" lon="-3.52676">
        <ele>140.97</ele>
        <time>2013-05-22T14:30:28Z</time>
      </trkpt>
      <trkpt lat="48.61572" lon="-3.5267">
        <ele>140.97</ele>
        <time>2013-05-22T14:30:29Z</time>
      </trkpt>
      <trkpt lat="48.61564" lon="-3.52645">
        <ele>141.93</ele>
        <time>2013-05-22T14:30:33Z</time>
      </trkpt>
      <trkpt lat="48.61538" lon="-3.52565">
        <ele>142.41</ele>
        <time>2013-05-22T14:30:45Z</time>
      </trkpt>
      <trkpt lat="48.61536" lon="-3.52558">
        <ele>142.89</ele>
        <time>2013-05-22T14:30:46Z</time>
      </trkpt>
      <trkpt lat="48.61534" lon="-3.5255">
        <ele>142.89</ele>
        <time>2013-05-22T14:30:47Z</time>
      </trkpt>
      <trkpt lat="48.61515" lon="-3.52431">
        <ele>144.34</ele>
        <time>2013-05-22T14:31:02Z</time>
      </trkpt>
      <trkpt lat="48.61504" lon="-3.5236">
        <ele>146.26</ele>
        <time>2013-05-22T14:31:11Z</time>
      </trkpt>
      <trkpt lat="48.615" lon="-3.52336">
        <ele>145.78</ele>
        <time>2013-05-22T14:31:14Z</time>
      </trkpt>
      <trkpt lat="48.61484" lon="-3.52192">
        <ele>143.85</ele>
        <time>2013-05-22T14:31:29Z</time>
      </trkpt>
      <trkpt lat="48.61479" lon="-3.52124">
        <ele>141.45</ele>
        <time>2013-05-22T14:31:35Z</time>
      </trkpt>
      <trkpt lat="48.61476" lon="-3.52012">
        <ele>138.57</ele>
        <time>2013-05-22T14:31:43Z</time>
      </trkpt>
      <trkpt lat="48.61479" lon="-3.51968">
        <ele>136.16</ele>
        <time>2013-05-22T14:31:46Z</time>
      </trkpt>
      <trkpt lat="48.61481" lon="-3.51953">
        <ele>136.16</ele>
        <time>2013-05-22T14:31:47Z</time>
      </trkpt>
      <trkpt lat="48.61503" lon="-3.51849">
        <ele>132.8</ele>
        <time>2013-05-22T14:31:54Z</time>
      </trkpt>
      <trkpt lat="48.61505" lon="-3.51834">
        <ele>132.8</ele>
        <time>2013-05-22T14:31:55Z</time>
      </trkpt>
      <trkpt lat="48.61509" lon="-3.51738">
        <ele>129.43</ele>
        <time>2013-05-22T14:32:01Z</time>
      </trkpt>
      <trkpt lat="48.61508" lon="-3.51708">
        <ele>127.51</ele>
        <time>2013-05-22T14:32:03Z</time>
      </trkpt>
      <trkpt lat="48.61506" lon="-3.51694">
        <ele>127.03</ele>
        <time>2013-05-22T14:32:04Z</time>
      </trkpt>
      <trkpt lat="48.61501" lon="-3.5168">
        <ele>126.55</ele>
        <time>2013-05-22T14:32:05Z</time>
      </trkpt>
      <trkpt lat="48.61495" lon="-3.51668">
        <ele>125.59</ele>
        <time>2013-05-22T14:32:06Z</time>
      </trkpt>
      <trkpt lat="48.61488" lon="-3.51657">
        <ele>125.11</ele>
        <time>2013-05-22T14:32:07Z</time>
      </trkpt>
      <trkpt lat="48.6148" lon="-3.51648">
        <ele>125.11</ele>
        <time>2013-05-22T14:32:08Z</time>
      </trkpt>
      <trkpt lat="48.61471" lon="-3.51639">
        <ele>124.63</ele>
        <time>2013-05-22T14:32:09Z</time>
      </trkpt>
      <trkpt lat="48.61423" lon="-3.51606">
        <ele>121.74</ele>
        <time>2013-05-22T14:32:14Z</time>
      </trkpt>
      <trkpt lat="48.61361" lon="-3.51578">
        <ele>118.86</ele>
        <time>2013-05-22T14:32:20Z</time>
      </trkpt>
      <trkpt lat="48.6134" lon="-3.51571">
        <ele>117.42</ele>
        <time>2013-05-22T14:32:22Z</time>
      </trkpt>
      <trkpt lat="48.6133" lon="-3.5157">
        <ele>115.98</ele>
        <time>2013-05-22T14:32:23Z</time>
      </trkpt>
      <trkpt lat="48.6132" lon="-3.51573">
        <ele>115.98</ele>
        <time>2013-05-22T14:32:24Z</time>
      </trkpt>
      <trkpt lat="48.6131" lon="-3.51577">
        <ele>115.01</ele>
        <time>2013-05-22T14:32:25Z</time>
      </trkpt>
      <trkpt lat="48.613" lon="-3.51584">
        <ele>115.01</ele>
        <time>2013-05-22T14:32:26Z</time>
      </trkpt>
      <trkpt lat="48.61291" lon="-3.51592">
        <ele>114.53</ele>
        <time>2013-05-22T14:32:27Z</time>
      </trkpt>
      <trkpt lat="48.6124" lon="-3.51643">
        <ele>111.17</ele>
        <time>2013-05-22T14:32:33Z</time>
      </trkpt>
      <trkpt lat="48.61214" lon="-3.51667">
        <ele>109.25</ele>
        <time>2013-05-22T14:32:36Z</time>
      </trkpt>
      <trkpt lat="48.61205" lon="-3.51672">
        <ele>108.77</ele>
        <time>2013-05-22T14:32:37Z</time>
      </trkpt>
      <trkpt lat="48.61196" lon="-3.51674">
        <ele>108.29</ele>
        <time>2013-05-22T14:32:38Z</time>
      </trkpt>
      <trkpt lat="48.61186" lon="-3.51672">
        <ele>107.81</ele>
        <time>2013-05-22T14:32:39Z</time>
      </trkpt>
      <trkpt lat="48.61178" lon="-3.51664">
        <ele>107.81</ele>
        <time>2013-05-22T14:32:40Z</time>
      </trkpt>
      <trkpt lat="48.61171" lon="-3.51654">
        <ele>108.29</ele>
        <time>2013-05-22T14:32:41Z</time>
      </trkpt>
      <trkpt lat="48.61167" lon="-3.51642">
        <ele>107.81</ele>
        <time>2013-05-22T14:32:42Z</time>
      </trkpt>
      <trkpt lat="48.61166" lon="-3.51628">
        <ele>107.32</ele>
        <time>2013-05-22T14:32:43Z</time>
      </trkpt>
      <trkpt lat="48.61167" lon="-3.51614">
        <ele>106.84</ele>
        <time>2013-05-22T14:32:44Z</time>
      </trkpt>
      <trkpt lat="48.61169" lon="-3.5159">
        <ele>106.84</ele>
        <time>2013-05-22T14:32:46Z</time>
      </trkpt>
      <trkpt lat="48.61173" lon="-3.51581">
        <ele>106.84</ele>
        <time>2013-05-22T14:32:47Z</time>
      </trkpt>
      <trkpt lat="48.61177" lon="-3.51571">
        <ele>106.84</ele>
        <time>2013-05-22T14:32:48Z</time>
      </trkpt>
      <trkpt lat="48.61205" lon="-3.51521">
        <ele>108.29</ele>
        <time>2013-05-22T14:32:55Z</time>
      </trkpt>
      <trkpt lat="48.61208" lon="-3.51513">
        <ele>108.29</ele>
        <time>2013-05-22T14:32:56Z</time>
      </trkpt>
      <trkpt lat="48.6121" lon="-3.51505">
        <ele>108.29</ele>
        <time>2013-05-22T14:32:57Z</time>
      </trkpt>
      <trkpt lat="48.61212" lon="-3.51497">
        <ele>108.29</ele>
        <time>2013-05-22T14:32:58Z</time>
      </trkpt>
      <trkpt lat="48.61212" lon="-3.51489">
        <ele>108.77</ele>
        <time>2013-05-22T14:32:59Z</time>
      </trkpt>
      <trkpt lat="48.61211" lon="-3.51481">
        <ele>108.29</ele>
        <time>2013-05-22T14:33:00Z</time>
      </trkpt>
      <trkpt lat="48.61209" lon="-3.51473">
        <ele>108.77</ele>
        <time>2013-05-22T14:33:01Z</time>
      </trkpt>
      <trkpt lat="48.61207" lon="-3.51465">
        <ele>108.29</ele>
        <time>2013-05-22T14:33:02Z</time>
      </trkpt>
      <trkpt lat="48.61205" lon="-3.51457">
        <ele>108.29</ele>
        <time>2013-05-22T14:33:03Z</time>
      </trkpt>
      <trkpt lat="48.61201" lon="-3.5145">
        <ele>108.29</ele>
        <time>2013-05-22T14:33:04Z</time>
      </trkpt>
      <trkpt lat="48.61134" lon="-3.51352">
        <ele>105.88</ele>
        <time>2013-05-22T14:33:18Z</time>
      </trkpt>
      <trkpt lat="48.61064" lon="-3.51269">
        <ele>106.84</ele>
        <time>2013-05-22T14:33:31Z</time>
      </trkpt>
      <trkpt lat="48.61039" lon="-3.51239">
        <ele>108.77</ele>
        <time>2013-05-22T14:33:37Z</time>
      </trkpt>
      <trkpt lat="48.61009" lon="-3.51168">
        <ele>112.13</ele>
        <time>2013-05-22T14:33:49Z</time>
      </trkpt>
      <trkpt lat="48.60991" lon="-3.51125">
        <ele>113.57</ele>
        <time>2013-05-22T14:33:57Z</time>
      </trkpt>
      <trkpt lat="48.60978" lon="-3.51098">
        <ele>115.98</ele>
        <time>2013-05-22T14:34:02Z</time>
      </trkpt>
      <trkpt lat="48.60926" lon="-3.51047">
        <ele>118.86</ele>
        <time>2013-05-22T14:34:16Z</time>
      </trkpt>
      <trkpt lat="48.60884" lon="-3.51008">
        <ele>122.22</ele>
        <time>2013-05-22T14:34:27Z</time>
      </trkpt>
      <trkpt lat="48.60836" lon="-3.50945">
        <ele>125.59</ele>
        <time>2013-05-22T14:34:41Z</time>
      </trkpt>
      <trkpt lat="48.60791" lon="-3.50902">
        <ele>128.47</ele>
        <time>2013-05-22T14:34:53Z</time>
      </trkpt>
      <trkpt lat="48.60787" lon="-3.509">
        <ele>128.95</ele>
        <time>2013-05-22T14:34:54Z</time>
      </trkpt>
      <trkpt lat="48.6075" lon="-3.50877">
        <ele>130.88</ele>
        <time>2013-05-22T14:35:03Z</time>
      </trkpt>
      <trkpt lat="48.60746" lon="-3.50873">
        <ele>131.36</ele>
        <time>2013-05-22T14:35:04Z</time>
      </trkpt>
      <trkpt lat="48.60743" lon="-3.50868">
        <ele>131.84</ele>
        <time>2013-05-22T14:35:05Z</time>
      </trkpt>
      <trkpt lat="48.6073" lon="-3.50849">
        <ele>133.28</ele>
        <time>2013-05-22T14:35:09Z</time>
      </trkpt>
      <trkpt lat="48.60719" lon="-3.50827">
        <ele>133.76</ele>
        <time>2013-05-22T14:35:13Z</time>
      </trkpt>
      <trkpt lat="48.60716" lon="-3.50822">
        <ele>134.24</ele>
        <time>2013-05-22T14:35:14Z</time>
      </trkpt>
      <trkpt lat="48.60671" lon="-3.50742">
        <ele>137.61</ele>
        <time>2013-05-22T14:35:29Z</time>
      </trkpt>
      <trkpt lat="48.60665" lon="-3.50732">
        <ele>138.09</ele>
        <time>2013-05-22T14:35:31Z</time>
      </trkpt>
      <trkpt lat="48.60662" lon="-3.50726">
        <ele>138.57</ele>
        <time>2013-05-22T14:35:32Z</time>
      </trkpt>
      <trkpt lat="48.60659" lon="-3.50721">
        <ele>138.57</ele>
        <time>2013-05-22T14:35:33Z</time>
      </trkpt>
      <trkpt lat="48.60631" lon="-3.50682">
        <ele>140.97</ele>
        <time>2013-05-22T14:35:42Z</time>
      </trkpt>
      <trkpt lat="48.60624" lon="-3.50676">
        <ele>141.45</ele>
        <time>2013-05-22T14:35:44Z</time>
      </trkpt>
      <trkpt lat="48.60595" lon="-3.50658">
        <ele>142.41</ele>
        <time>2013-05-22T14:35:50Z</time>
      </trkpt>
      <trkpt lat="48.60591" lon="-3.50654">
        <ele>142.41</ele>
        <time>2013-05-22T14:35:51Z</time>
      </trkpt>
      <trkpt lat="48.60572" lon="-3.50634">
        <ele>143.37</ele>
        <time>2013-05-22T14:35:56Z</time>
      </trkpt>
      <trkpt lat="48.6051" lon="-3.50578">
        <ele>145.3</ele>
        <time>2013-05-22T14:36:10Z</time>
      </trkpt>
      <trkpt lat="48.60478" lon="-3.50545">
        <ele>145.3</ele>
        <time>2013-05-22T14:36:17Z</time>
      </trkpt>
      <trkpt lat="48.60474" lon="-3.50539">
        <ele>145.78</ele>
        <time>2013-05-22T14:36:18Z</time>
      </trkpt>
      <trkpt lat="48.6046" lon="-3.50512">
        <ele>145.78</ele>
        <time>2013-05-22T14:36:22Z</time>
      </trkpt>
      <trkpt lat="48.60455" lon="-3.50496">
        <ele>145.78</ele>
        <time>2013-05-22T14:36:24Z</time>
      </trkpt>
      <trkpt lat="48.60454" lon="-3.50488">
        <ele>145.78</ele>
        <time>2013-05-22T14:36:25Z</time>
      </trkpt>
      <trkpt lat="48.60451" lon="-3.50472">
        <ele>146.26</ele>
        <time>2013-05-22T14:36:27Z</time>
      </trkpt>
      <trkpt lat="48.60446" lon="-3.50352">
        <ele>147.22</ele>
        <time>2013-05-22T14:36:42Z</time>
      </trkpt>
      <trkpt lat="48.60448" lon="-3.50247">
        <ele>149.62</ele>
        <time>2013-05-22T14:36:54Z</time>
      </trkpt>
      <trkpt lat="48.60459" lon="-3.50151">
        <ele>150.58</ele>
        <time>2013-05-22T14:37:05Z</time>
      </trkpt>
      <trkpt lat="48.60462" lon="-3.50142">
        <ele>150.58</ele>
        <time>2013-05-22T14:37:06Z</time>
      </trkpt>
      <trkpt lat="48.60507" lon="-3.50044">
        <ele>148.66</ele>
        <time>2013-05-22T14:37:18Z</time>
      </trkpt>
      <trkpt lat="48.60528" lon="-3.49998">
        <ele>148.66</ele>
        <time>2013-05-22T14:37:24Z</time>
      </trkpt>
      <trkpt lat="48.60535" lon="-3.49974">
        <ele>147.7</ele>
        <time>2013-05-22T14:37:27Z</time>
      </trkpt>
      <trkpt lat="48.60545" lon="-3.4993">
        <ele>148.18</ele>
        <time>2013-05-22T14:37:33Z</time>
      </trkpt>
      <trkpt lat="48.60547" lon="-3.49923">
        <ele>148.18</ele>
        <time>2013-05-22T14:37:34Z</time>
      </trkpt>
      <trkpt lat="48.60566" lon="-3.49884">
        <ele>148.18</ele>
        <time>2013-05-22T14:37:44Z</time>
      </trkpt>
      <trkpt lat="48.60566" lon="-3.49884">
        <ele>148.66</ele>
        <time>2013-05-22T14:37:49Z</time>
      </trkpt>
      <trkpt lat="48.60569" lon="-3.4988">
        <ele>148.66</ele>
        <time>2013-05-22T14:37:52Z</time>
      </trkpt>
      <trkpt lat="48.60593" lon="-3.49843">
        <ele>149.62</ele>
        <time>2013-05-22T14:38:02Z</time>
      </trkpt>
      <trkpt lat="48.60641" lon="-3.49767">
        <ele>152.51</ele>
        <time>2013-05-22T14:38:17Z</time>
      </trkpt>
      <trkpt lat="48.60683" lon="-3.49708">
        <ele>155.87</ele>
        <time>2013-05-22T14:38:30Z</time>
      </trkpt>
      <trkpt lat="48.60758" lon="-3.49638">
        <ele>158.75</ele>
        <time>2013-05-22T14:38:48Z</time>
      </trkpt>
      <trkpt lat="48.60797" lon="-3.49564">
        <ele>160.2</ele>
        <time>2013-05-22T14:39:01Z</time>
      </trkpt>
      <trkpt lat="48.60848" lon="-3.49482">
        <ele>161.64</ele>
        <time>2013-05-22T14:39:17Z</time>
      </trkpt>
      <trkpt lat="48.60894" lon="-3.49387">
        <ele>164.04</ele>
        <time>2013-05-22T14:39:33Z</time>
      </trkpt>
      <trkpt lat="48.6092" lon="-3.49327">
        <ele>165.96</ele>
        <time>2013-05-22T14:39:43Z</time>
      </trkpt>
      <trkpt lat="48.60941" lon="-3.49228">
        <ele>165.96</ele>
        <time>2013-05-22T14:39:57Z</time>
      </trkpt>
      <trkpt lat="48.60944" lon="-3.49203">
        <ele>165.96</ele>
        <time>2013-05-22T14:40:01Z</time>
      </trkpt>
      <trkpt lat="48.60974" lon="-3.49094">
        <ele>165</ele>
        <time>2013-05-22T14:40:16Z</time>
      </trkpt>
      <trkpt lat="48.6098" lon="-3.4908">
        <ele>164.04</ele>
        <time>2013-05-22T14:40:18Z</time>
      </trkpt>
      <trkpt lat="48.60993" lon="-3.49041">
        <ele>162.6</ele>
        <time>2013-05-22T14:40:23Z</time>
      </trkpt>
      <trkpt lat="48.61004" lon="-3.48978">
        <ele>161.64</ele>
        <time>2013-05-22T14:40:30Z</time>
      </trkpt>
      <trkpt lat="48.61007" lon="-3.4897">
        <ele>161.64</ele>
        <time>2013-05-22T14:40:31Z</time>
      </trkpt>
      <trkpt lat="48.61035" lon="-3.48876">
        <ele>158.75</ele>
        <time>2013-05-22T14:40:41Z</time>
      </trkpt>
      <trkpt lat="48.61037" lon="-3.48857">
        <ele>157.31</ele>
        <time>2013-05-22T14:40:43Z</time>
      </trkpt>
      <trkpt lat="48.61033" lon="-3.48731">
        <ele>153.95</ele>
        <time>2013-05-22T14:40:56Z</time>
      </trkpt>
      <trkpt lat="48.61038" lon="-3.48631">
        <ele>151.06</ele>
        <time>2013-05-22T14:41:06Z</time>
      </trkpt>
      <trkpt lat="48.61039" lon="-3.48608">
        <ele>150.58</ele>
        <time>2013-05-22T14:41:08Z</time>
      </trkpt>
      <trkpt lat="48.61066" lon="-3.48482">
        <ele>147.22</ele>
        <time>2013-05-22T14:41:20Z</time>
      </trkpt>
      <trkpt lat="48.61099" lon="-3.48372">
        <ele>144.34</ele>
        <time>2013-05-22T14:41:31Z</time>
      </trkpt>
      <trkpt lat="48.61129" lon="-3.48207">
        <ele>141.45</ele>
        <time>2013-05-22T14:41:45Z</time>
      </trkpt>
      <trkpt lat="48.61131" lon="-3.48182">
        <ele>140.97</ele>
        <time>2013-05-22T14:41:47Z</time>
      </trkpt>
      <trkpt lat="48.6113" lon="-3.4817">
        <ele>140.49</ele>
        <time>2013-05-22T14:41:48Z</time>
      </trkpt>
      <trkpt lat="48.61128" lon="-3.48158">
        <ele>140.01</ele>
        <time>2013-05-22T14:41:49Z</time>
      </trkpt>
      <trkpt lat="48.61126" lon="-3.48145">
        <ele>139.05</ele>
        <time>2013-05-22T14:41:50Z</time>
      </trkpt>
      <trkpt lat="48.61124" lon="-3.48132">
        <ele>138.57</ele>
        <time>2013-05-22T14:41:51Z</time>
      </trkpt>
      <trkpt lat="48.61121" lon="-3.48118">
        <ele>138.09</ele>
        <time>2013-05-22T14:41:52Z</time>
      </trkpt>
      <trkpt lat="48.61113" lon="-3.4806">
        <ele>136.16</ele>
        <time>2013-05-22T14:41:56Z</time>
      </trkpt>
      <trkpt lat="48.61112" lon="-3.48045">
        <ele>136.16</ele>
        <time>2013-05-22T14:41:57Z</time>
      </trkpt>
      <trkpt lat="48.61112" lon="-3.4803">
        <ele>136.16</ele>
        <time>2013-05-22T14:41:58Z</time>
      </trkpt>
      <trkpt lat="48.61113" lon="-3.48016">
        <ele>135.68</ele>
        <time>2013-05-22T14:41:59Z</time>
      </trkpt>
      <trkpt lat="48.61128" lon="-3.47865">
        <ele>135.2</ele>
        <time>2013-05-22T14:42:11Z</time>
      </trkpt>
      <trkpt lat="48.61127" lon="-3.47844">
        <ele>135.2</ele>
        <time>2013-05-22T14:42:13Z</time>
      </trkpt>
      <trkpt lat="48.61124" lon="-3.47825">
        <ele>135.2</ele>
        <time>2013-05-22T14:42:15Z</time>
      </trkpt>
      <trkpt lat="48.61122" lon="-3.47817">
        <ele>135.68</ele>
        <time>2013-05-22T14:42:16Z</time>
      </trkpt>
      <trkpt lat="48.61113" lon="-3.47787">
        <ele>137.13</ele>
        <time>2013-05-22T14:42:20Z</time>
      </trkpt>
      <trkpt lat="48.6111" lon="-3.47765">
        <ele>137.61</ele>
        <time>2013-05-22T14:42:23Z</time>
      </trkpt>
      <trkpt lat="48.61109" lon="-3.47748">
        <ele>137.61</ele>
        <time>2013-05-22T14:42:25Z</time>
      </trkpt>
      <trkpt lat="48.6111" lon="-3.47739">
        <ele>137.61</ele>
        <time>2013-05-22T14:42:26Z</time>
      </trkpt>
      <trkpt lat="48.61113" lon="-3.47731">
        <ele>137.13</ele>
        <time>2013-05-22T14:42:27Z</time>
      </trkpt>
      <trkpt lat="48.61118" lon="-3.47723">
        <ele>137.13</ele>
        <time>2013-05-22T14:42:28Z</time>
      </trkpt>
      <trkpt lat="48.61123" lon="-3.47716">
        <ele>137.13</ele>
        <time>2013-05-22T14:42:29Z</time>
      </trkpt>
      <trkpt lat="48.61129" lon="-3.4771">
        <ele>136.64</ele>
        <time>2013-05-22T14:42:30Z</time>
      </trkpt>
      <trkpt lat="48.61171" lon="-3.47652">
        <ele>133.76</ele>
        <time>2013-05-22T14:42:37Z</time>
      </trkpt>
      <trkpt lat="48.6118" lon="-3.47628">
        <ele>132.8</ele>
        <time>2013-05-22T14:42:39Z</time>
      </trkpt>
      <trkpt lat="48.612" lon="-3.47564">
        <ele>130.88</ele>
        <time>2013-05-22T14:42:44Z</time>
      </trkpt>
      <trkpt lat="48.61219" lon="-3.47493">
        <ele>127.99</ele>
        <time>2013-05-22T14:42:51Z</time>
      </trkpt>
      <trkpt lat="48.61221" lon="-3.47487">
        <ele>127.03</ele>
        <time>2013-05-22T14:42:52Z</time>
      </trkpt>
      <trkpt lat="48.61224" lon="-3.47485">
        <ele>127.99</ele>
        <time>2013-05-22T14:42:53Z</time>
      </trkpt>
      <trkpt lat="48.61228" lon="-3.47486">
        <ele>127.99</ele>
        <time>2013-05-22T14:42:54Z</time>
      </trkpt>
      <trkpt lat="48.61231" lon="-3.4749">
        <ele>128.47</ele>
        <time>2013-05-22T14:42:55Z</time>
      </trkpt>
      <trkpt lat="48.61235" lon="-3.47496">
        <ele>128.95</ele>
        <time>2013-05-22T14:42:56Z</time>
      </trkpt>
      <trkpt lat="48.61268" lon="-3.47571">
        <ele>130.4</ele>
        <time>2013-05-22T14:43:07Z</time>
      </trkpt>
      <trkpt lat="48.61272" lon="-3.47584">
        <ele>129.92</ele>
        <time>2013-05-22T14:43:09Z</time>
      </trkpt>
      <trkpt lat="48.61311" lon="-3.47683">
        <ele>131.36</ele>
        <time>2013-05-22T14:43:24Z</time>
      </trkpt>
      <trkpt lat="48.61322" lon="-3.47709">
        <ele>132.32</ele>
        <time>2013-05-22T14:43:28Z</time>
      </trkpt>
      <trkpt lat="48.61355" lon="-3.47772">
        <ele>135.2</ele>
        <time>2013-05-22T14:43:39Z</time>
      </trkpt>
      <trkpt lat="48.61415" lon="-3.47847">
        <ele>136.64</ele>
        <time>2013-05-22T14:43:55Z</time>
      </trkpt>
    </trkseg>
  </trk>
</gpx>